Darstellungsparameter: Aktuell verwendete Einstellungen:
Skalierung der Graphiken ... ?
xyx+y,   Skalierungsfaktor:      Skalierung: Modus: x, Faktor: 1
Darstellungszeitraum ... ?
Vom - - bis: - -   Zeitraum: 02.02.2015 - 01.05.2015
Min/Max/Avg-Anzeige ... ?
Zeige MMA aktuell
Zeige MMA Monat
Zeige MMA alles
Zeige --A aktuell
Zeige --A Monat
Zeige --A alles
Keine MMA-Anzeige
MMA:
Minimum Maximum Average (ber die Originaldaten)
MMA-Basis: 23.02.2003 - 16.05.2020
Quicknavigation für Darstellung... ?
Tage:      1T, 2T, 3T, 5T -1T -2T -3T -5T +1T +2T +3T +5T
Wochen: 1W, 2W, 3W -1W -2W -3W +1W +2W +3W
Monate: 1M, 3M, 6M -1M -3M -6M +1M +3M +6M
Jahre:    1J, 3J, 5J, 10J -1J -3J -5J -10J +1J +3J +5J +10J
Nutze für die Darstellung ... ?
Originaldaten oder Mittelwerte auf ...
Stundenbasis Tagesbasis Wochenbasis
Monatsbasis Jahresbasis      Datenbasis: Original-Daten
Darstellen als:
Statistik (Auto) Statistik J:M      Darstellung:
Zur Graphik,    zurück zur Übersicht aller Sensoren.
 
Tabellarische Datenbersicht: ?
 
Sensor: Nr:Datum:Temp:Abs-Feuchte:Windchill:Wind:
Aussen-T/F 1 02-02-2015 00:00:00 1.9 C 5.35 g/m*3 1.9 C 1.6 km/h
2 02-02-2015 00:05:00 1.9 C 5.35 g/m*3 1.9 C 0 km/h
3 02-02-2015 00:10:00 1.9 C 5.35 g/m*3 1.9 C 0 km/h
4 02-02-2015 00:15:00 1.9 C 5.35 g/m*3 0.01 C 6.4 km/h
5 02-02-2015 00:20:00 1.9 C 5.35 g/m*3 -0.54 C 8.1 km/h
6 02-02-2015 00:25:00 1.9 C 5.35 g/m*3 1.9 C 1.6 km/h
7 02-02-2015 00:30:00 1.9 C 5.35 g/m*3 1.9 C 0 km/h
8 02-02-2015 00:35:00 1.9 C 5.35 g/m*3 1.9 C 3.2 km/h
9 02-02-2015 00:40:00 1.9 C 5.35 g/m*3 1.9 C 3.2 km/h
10 02-02-2015 00:45:00 1.9 C 5.35 g/m*3 1.9 C 1.6 km/h
11 02-02-2015 00:50:00 1.9 C 5.35 g/m*3 1.9 C 3.2 km/h
12 02-02-2015 00:55:00 1.9 C 5.35 g/m*3 1.9 C 3.2 km/h
13 02-02-2015 01:00:00 2 C 5.39 g/m*3 2 C 3.2 km/h
14 02-02-2015 01:05:00 1.9 C 5.35 g/m*3 1.9 C 1.6 km/h
15 02-02-2015 01:10:00 2 C 5.39 g/m*3 2 C 1.6 km/h
16 02-02-2015 01:15:00 2 C 5.39 g/m*3 2 C 3.2 km/h
17 02-02-2015 01:20:00 2 C 5.39 g/m*3 2 C 1.6 km/h
18 02-02-2015 01:25:00 2 C 5.39 g/m*3 2 C 1.6 km/h
19 02-02-2015 01:30:00 2 C 5.39 g/m*3 2 C 1.6 km/h
20 02-02-2015 01:35:00 2.1 C 5.43 g/m*3 2.1 C 1.6 km/h
21 02-02-2015 01:40:00 2.1 C 5.43 g/m*3 2.1 C 1.6 km/h
22 02-02-2015 01:45:00 2.1 C 5.43 g/m*3 2.1 C 1.6 km/h
23 02-02-2015 01:50:00 2.1 C 5.43 g/m*3 2.1 C 3.2 km/h
24 02-02-2015 01:55:00 2.1 C 5.43 g/m*3 2.1 C 3.2 km/h
25 02-02-2015 02:00:00 2.1 C 5.43 g/m*3 2.1 C 0 km/h
Sensor: Nr:Datum:Temp:Abs-Feuchte:Windchill:Wind:
Aussen-T/F 26 02-02-2015 02:05:00 2.1 C 5.43 g/m*3 2.1 C 4.8 km/h
27 02-02-2015 02:10:00 2.1 C 5.43 g/m*3 2.1 C 4.8 km/h
28 02-02-2015 02:15:00 2.1 C 5.43 g/m*3 2.1 C 4.8 km/h
29 02-02-2015 02:20:00 2 C 5.39 g/m*3 2 C 0 km/h
30 02-02-2015 02:25:00 2 C 5.39 g/m*3 2 C 3.2 km/h
31 02-02-2015 02:30:00 2 C 5.39 g/m*3 2 C 3.2 km/h
32 02-02-2015 02:35:00 1.9 C 5.35 g/m*3 1.9 C 4.8 km/h
33 02-02-2015 02:40:00 2 C 5.39 g/m*3 2 C 3.2 km/h
34 02-02-2015 02:45:00 1.9 C 5.35 g/m*3 1.9 C 1.6 km/h
35 02-02-2015 02:50:00 1.9 C 5.35 g/m*3 1.9 C 4.8 km/h
36 02-02-2015 02:55:00 1.9 C 5.35 g/m*3 1.9 C 3.2 km/h
37 02-02-2015 03:00:00 1.9 C 5.35 g/m*3 1.9 C 3.2 km/h
38 02-02-2015 03:05:00 2 C 5.39 g/m*3 2 C 1.6 km/h
39 02-02-2015 03:10:00 2 C 5.39 g/m*3 2 C 0 km/h
40 02-02-2015 03:15:00 2.1 C 5.43 g/m*3 2.1 C 1.6 km/h
41 02-02-2015 03:20:00 2.1 C 5.43 g/m*3 2.1 C 4.8 km/h
42 02-02-2015 03:25:00 2.2 C 5.46 g/m*3 2.2 C 4.8 km/h
43 02-02-2015 03:30:00 2.2 C 5.46 g/m*3 2.2 C 1.6 km/h
44 02-02-2015 03:35:00 2.2 C 5.46 g/m*3 2.2 C 1.6 km/h
45 02-02-2015 03:40:00 2.2 C 5.46 g/m*3 2.2 C 1.6 km/h
46 02-02-2015 03:45:00 2.2 C 5.46 g/m*3 2.2 C 1.6 km/h
47 02-02-2015 03:50:00 2.2 C 5.46 g/m*3 2.2 C 4.8 km/h
48 02-02-2015 03:55:00 2.2 C 5.46 g/m*3 2.2 C 1.6 km/h
49 02-02-2015 04:00:00 2.2 C 5.46 g/m*3 2.2 C 3.2 km/h
50 02-02-2015 04:05:00 2.2 C 5.46 g/m*3 2.2 C 4.8 km/h
Sensor: Nr:Datum:Temp:Abs-Feuchte:Windchill:Wind:
Aussen-T/F 51 02-02-2015 04:10:00 2.3 C 5.5 g/m*3 2.3 C 4.8 km/h
52 02-02-2015 04:15:00 2.3 C 5.44 g/m*3 2.3 C 1.6 km/h
53 02-02-2015 04:20:00 2.3 C 5.44 g/m*3 2.3 C 3.2 km/h
54 02-02-2015 04:25:00 2.3 C 5.44 g/m*3 2.3 C 1.6 km/h
55 02-02-2015 04:30:00 2.3 C 5.44 g/m*3 2.3 C 1.6 km/h
56 02-02-2015 04:35:00 2.3 C 5.44 g/m*3 2.3 C 1.6 km/h
57 02-02-2015 04:40:00 2.2 C 5.41 g/m*3 2.2 C 1.6 km/h
58 02-02-2015 04:45:00 2.2 C 5.41 g/m*3 2.2 C 1.6 km/h
59 02-02-2015 04:50:00 2.2 C 5.41 g/m*3 2.2 C 3.2 km/h
60 02-02-2015 04:55:00 2.2 C 5.41 g/m*3 2.2 C 3.2 km/h
61 02-02-2015 05:00:00 2.2 C 5.41 g/m*3 2.2 C 1.6 km/h
62 02-02-2015 05:05:00 2.2 C 5.41 g/m*3 2.2 C 1.6 km/h
63 02-02-2015 05:10:00 2.2 C 5.41 g/m*3 2.2 C 0 km/h
64 02-02-2015 05:15:00 2.3 C 5.39 g/m*3 2.3 C 0 km/h
65 02-02-2015 05:20:00 2.2 C 5.41 g/m*3 2.2 C 0 km/h
66 02-02-2015 05:25:00 2.2 C 5.41 g/m*3 2.2 C 1.6 km/h
67 02-02-2015 05:30:00 2.2 C 5.41 g/m*3 2.2 C 1.6 km/h
68 02-02-2015 05:35:00 2.2 C 5.41 g/m*3 2.2 C 1.6 km/h
69 02-02-2015 05:40:00 2.2 C 5.41 g/m*3 2.2 C 1.6 km/h
70 02-02-2015 05:45:00 2.2 C 5.41 g/m*3 2.2 C 0 km/h
71 02-02-2015 05:50:00 2.1 C 5.37 g/m*3 2.1 C 0 km/h
72 02-02-2015 05:55:00 2.1 C 5.37 g/m*3 2.1 C 1.6 km/h
73 02-02-2015 06:00:00 2.1 C 5.31 g/m*3 2.1 C 3.2 km/h
74 02-02-2015 06:05:00 2.1 C 5.31 g/m*3 2.1 C 0 km/h
75 02-02-2015 06:10:00 2.1 C 5.31 g/m*3 2.1 C 1.6 km/h
Sensor: Nr:Datum:Temp:Abs-Feuchte:Windchill:Wind:
Aussen-T/F 76 02-02-2015 06:15:00 2.1 C 5.31 g/m*3 -0.3 C 8.1 km/h
77 02-02-2015 06:20:00 2.1 C 5.31 g/m*3 2.1 C 1.6 km/h
78 02-02-2015 06:25:00 2.1 C 5.31 g/m*3 2.1 C 1.6 km/h
79 02-02-2015 06:30:00 2.1 C 5.31 g/m*3 2.1 C 4.8 km/h
80 02-02-2015 06:35:00 2.1 C 5.31 g/m*3 2.1 C 4.8 km/h
81 02-02-2015 06:40:00 2.1 C 5.31 g/m*3 2.1 C 3.2 km/h
82 02-02-2015 06:45:00 2 C 5.22 g/m*3 2 C 3.2 km/h
83 02-02-2015 06:50:00 2 C 5.22 g/m*3 2 C 3.2 km/h
84 02-02-2015 06:55:00 2.1 C 5.26 g/m*3 0.24 C 6.4 km/h
85 02-02-2015 07:00:00 2.1 C 5.26 g/m*3 0.24 C 6.4 km/h
86 02-02-2015 07:05:00 2.1 C 5.2 g/m*3 2.1 C 1.6 km/h
87 02-02-2015 07:10:00 2.1 C 5.26 g/m*3 2.1 C 0 km/h
88 02-02-2015 07:15:00 2 C 5.22 g/m*3 2 C 3.2 km/h
89 02-02-2015 07:20:00 1.9 C 5.19 g/m*3 1.9 C 4.8 km/h
90 02-02-2015 07:25:00 1.8 C 5.15 g/m*3 1.8 C 4.8 km/h
91 02-02-2015 07:30:00 1.8 C 5.15 g/m*3 1.8 C 4.8 km/h
92 02-02-2015 07:35:00 1.8 C 5.15 g/m*3 -0.1 C 6.4 km/h
93 02-02-2015 07:40:00 1.8 C 5.21 g/m*3 1.8 C 4.8 km/h
94 02-02-2015 07:45:00 1.8 C 5.21 g/m*3 1.8 C 3.2 km/h
95 02-02-2015 07:50:00 1.8 C 5.15 g/m*3 1.8 C 1.6 km/h
96 02-02-2015 07:55:00 1.8 C 5.15 g/m*3 1.8 C 4.8 km/h
97 02-02-2015 08:00:00 1.9 C 5.19 g/m*3 1.9 C 4.8 km/h
98 02-02-2015 08:05:00 1.9 C 5.24 g/m*3 1.9 C 3.2 km/h
99 02-02-2015 08:10:00 1.9 C 5.24 g/m*3 1.9 C 3.2 km/h
100 02-02-2015 08:15:00 1.8 C 5.21 g/m*3 -0.1 C 6.4 km/h
Sensor: Nr:Datum:Temp:Abs-Feuchte:Windchill:Wind:
Aussen-T/F 101 02-02-2015 08:20:00 1.8 C 5.21 g/m*3 1.8 C 0 km/h
102 02-02-2015 08:25:00 1.8 C 5.21 g/m*3 1.8 C 3.2 km/h
103 02-02-2015 08:30:00 1.8 C 5.21 g/m*3 1.8 C 1.6 km/h
104 02-02-2015 08:35:00 1.8 C 5.21 g/m*3 1.8 C 4.8 km/h
105 02-02-2015 08:40:00 1.8 C 5.21 g/m*3 -0.65 C 8.1 km/h
106 02-02-2015 08:45:00 1.8 C 5.21 g/m*3 1.8 C 4.8 km/h
107 02-02-2015 08:50:00 1.8 C 5.21 g/m*3 1.8 C 1.6 km/h
108 02-02-2015 08:55:00 1.9 C 5.19 g/m*3 1.9 C 0 km/h
109 02-02-2015 09:00:00 1.9 C 5.19 g/m*3 1.9 C 1.6 km/h
110 02-02-2015 09:05:00 2 C 5.22 g/m*3 2 C 4.8 km/h
111 02-02-2015 09:10:00 1.9 C 5.19 g/m*3 1.9 C 3.2 km/h
112 02-02-2015 09:15:00 1.9 C 5.13 g/m*3 -0.54 C 8.1 km/h
113 02-02-2015 09:20:00 1.9 C 5.13 g/m*3 -0.54 C 8.1 km/h
114 02-02-2015 09:25:00 2.1 C 5.15 g/m*3 -0.3 C 8.1 km/h
115 02-02-2015 09:30:00 2.1 C 5.15 g/m*3 -0.73 C 9.7 km/h
116 02-02-2015 09:35:00 2.1 C 5.15 g/m*3 0.24 C 6.4 km/h
117 02-02-2015 11:35:00 3.1 C 5.15 g/m*3 0.46 C 9.7 km/h
118 02-02-2015 11:40:00 2.9 C 5.08 g/m*3 -0.14 C 11.3 km/h
119 02-02-2015 11:45:00 2.7 C 5.07 g/m*3 2.7 C 4.8 km/h
120 02-02-2015 11:50:00 2.7 C 5.19 g/m*3 -0.02 C 9.7 km/h
121 02-02-2015 11:55:00 2.1 C 5.04 g/m*3 0.24 C 6.4 km/h
122 02-02-2015 12:00:00 2.1 C 5.04 g/m*3 2.1 C 4.8 km/h
123 02-02-2015 12:05:00 2.1 C 5.04 g/m*3 0.24 C 6.4 km/h
124 02-02-2015 12:10:00 1.9 C 5.02 g/m*3 0.01 C 6.4 km/h
125 02-02-2015 12:15:00 1.9 C 5.08 g/m*3 -0.54 C 8.1 km/h
Sensor: Nr:Datum:Temp:Abs-Feuchte:Windchill:Wind:
Aussen-T/F 126 02-02-2015 12:20:00 2.1 C 5.15 g/m*3 -0.73 C 9.7 km/h
127 02-02-2015 12:25:00 2.3 C 5.16 g/m*3 -0.49 C 9.7 km/h
128 02-02-2015 12:30:00 2.6 C 5.27 g/m*3 -0.14 C 9.7 km/h
129 02-02-2015 12:35:00 2.7 C 5.24 g/m*3 0.94 C 6.4 km/h
130 02-02-2015 12:40:00 2.9 C 5.2 g/m*3 0.22 C 9.7 km/h
131 02-02-2015 12:45:00 3.1 C 5.27 g/m*3 1.4 C 6.4 km/h
132 02-02-2015 12:50:00 3.3 C 5.34 g/m*3 1.11 C 8.1 km/h
133 02-02-2015 12:55:00 3.4 C 5.31 g/m*3 1.75 C 6.4 km/h
134 02-02-2015 13:00:00 3.4 C 5.19 g/m*3 0.46 C 11.3 km/h
135 02-02-2015 13:05:00 3.4 C 5.07 g/m*3 0.14 C 12.9 km/h
136 02-02-2015 13:10:00 3.4 C 5.07 g/m*3 -0.4 C 16.1 km/h
137 02-02-2015 13:15:00 3.5 C 5.16 g/m*3 -0.02 C 14.5 km/h
138 02-02-2015 13:20:00 3.6 C 5.14 g/m*3 0.11 C 14.5 km/h
139 02-02-2015 13:25:00 3.6 C 5.08 g/m*3 1.46 C 8.1 km/h
140 02-02-2015 13:30:00 3.5 C 5.1 g/m*3 0.58 C 11.3 km/h
141 02-02-2015 13:35:00 3.4 C 5.01 g/m*3 0.82 C 9.7 km/h
142 02-02-2015 13:40:00 3.5 C 5.1 g/m*3 0.94 C 9.7 km/h
143 02-02-2015 13:45:00 3.5 C 5.1 g/m*3 1.34 C 8.1 km/h
144 02-02-2015 13:50:00 3.6 C 5.2 g/m*3 1.98 C 6.4 km/h
145 02-02-2015 13:55:00 3.7 C 5.11 g/m*3 1.58 C 8.1 km/h
146 02-02-2015 14:00:00 3.8 C 5.08 g/m*3 0.35 C 14.5 km/h
147 02-02-2015 14:05:00 3.9 C 5.05 g/m*3 1.41 C 9.7 km/h
148 02-02-2015 14:10:00 3.9 C 5.05 g/m*3 1.06 C 11.3 km/h
149 02-02-2015 14:15:00 3.9 C 5.05 g/m*3 -0.23 C 19.3 km/h
150 02-02-2015 14:20:00 4 C 4.96 g/m*3 -0.11 C 19.3 km/h
Sensor: Nr:Datum:Temp:Abs-Feuchte:Windchill:Wind:
Aussen-T/F 151 02-02-2015 14:25:00 3.9 C 4.99 g/m*3 0.22 C 16.1 km/h
152 02-02-2015 14:30:00 3.9 C 4.99 g/m*3 0.47 C 14.5 km/h
153 02-02-2015 14:35:00 3.9 C 4.99 g/m*3 0.47 C 14.5 km/h
154 02-02-2015 14:40:00 3.7 C 4.99 g/m*3 -0.26 C 17.7 km/h
155 02-02-2015 14:45:00 3.7 C 4.99 g/m*3 1.18 C 9.7 km/h
156 02-02-2015 14:50:00 3.7 C 4.99 g/m*3 1.18 C 9.7 km/h
157 02-02-2015 14:55:00 3.7 C 4.92 g/m*3 0.51 C 12.9 km/h
158 02-02-2015 15:00:00 3.4 C 5.01 g/m*3 -0.86 C 19.3 km/h
159 02-02-2015 15:05:00 3.3 C 5.04 g/m*3 1.63 C 6.4 km/h
160 02-02-2015 15:10:00 3.3 C 4.97 g/m*3 0.34 C 11.3 km/h
161 02-02-2015 15:15:00 3.3 C 4.91 g/m*3 0.34 C 11.3 km/h
162 02-02-2015 15:20:00 3.4 C 4.95 g/m*3 0.46 C 11.3 km/h
163 02-02-2015 15:25:00 3.4 C 4.89 g/m*3 0.14 C 12.9 km/h
164 02-02-2015 15:30:00 3.4 C 4.83 g/m*3 -0.14 C 14.5 km/h
165 02-02-2015 15:35:00 3.5 C 4.8 g/m*3 0.27 C 12.9 km/h
166 02-02-2015 15:40:00 3.4 C 4.83 g/m*3 0.14 C 12.9 km/h
167 02-02-2015 15:45:00 3.4 C 4.83 g/m*3 0.14 C 12.9 km/h
168 02-02-2015 15:50:00 3.4 C 4.83 g/m*3 0.46 C 11.3 km/h
169 02-02-2015 15:55:00 3.3 C 4.79 g/m*3 0.34 C 11.3 km/h
170 02-02-2015 16:00:00 3.3 C 4.79 g/m*3 0.02 C 12.9 km/h
171 02-02-2015 16:05:00 3.2 C 4.82 g/m*3 0.22 C 11.3 km/h
172 02-02-2015 16:10:00 3.1 C 4.79 g/m*3 -0.77 C 16.1 km/h
173 02-02-2015 16:15:00 3.1 C 4.79 g/m*3 -0.77 C 16.1 km/h
174 02-02-2015 16:20:00 3.1 C 4.73 g/m*3 0.1 C 11.3 km/h
175 02-02-2015 16:25:00 3.1 C 4.73 g/m*3 -0.51 C 14.5 km/h
Sensor: Nr:Datum:Temp:Abs-Feuchte:Windchill:Wind:
Aussen-T/F 176 02-02-2015 16:30:00 3 C 4.76 g/m*3 -1.77 C 22.5 km/h
177 02-02-2015 16:35:00 2.9 C 4.72 g/m*3 -1.26 C 17.7 km/h
178 02-02-2015 16:40:00 3 C 4.76 g/m*3 -0.9 C 16.1 km/h
179 02-02-2015 16:45:00 3 C 4.76 g/m*3 -0.9 C 16.1 km/h
180 02-02-2015 16:50:00 2.9 C 4.72 g/m*3 -1.26 C 17.7 km/h
181 02-02-2015 16:55:00 2.9 C 4.72 g/m*3 -1.02 C 16.1 km/h
182 02-02-2015 17:00:00 2.8 C 4.75 g/m*3 -0.88 C 14.5 km/h
183 02-02-2015 17:05:00 2.8 C 4.81 g/m*3 0.1 C 9.7 km/h
184 02-02-2015 17:10:00 2.7 C 4.78 g/m*3 0.4 C 8.1 km/h
185 02-02-2015 17:15:00 2.6 C 4.75 g/m*3 -0.83 C 12.9 km/h
186 02-02-2015 17:20:00 2.6 C 4.8 g/m*3 -1.12 C 14.5 km/h
187 02-02-2015 17:25:00 2.6 C 4.8 g/m*3 -0.14 C 9.7 km/h
188 02-02-2015 17:30:00 2.5 C 4.77 g/m*3 0.17 C 8.1 km/h
189 02-02-2015 17:35:00 2.5 C 4.77 g/m*3 -0.26 C 9.7 km/h
190 02-02-2015 17:40:00 2.5 C 4.71 g/m*3 -0.95 C 12.9 km/h
191 02-02-2015 17:45:00 2.5 C 4.71 g/m*3 -0.62 C 11.3 km/h
192 02-02-2015 18:05:00 2.5 C 4.71 g/m*3 -0.26 C 9.7 km/h
193 02-02-2015 18:10:00 2.5 C 4.71 g/m*3 0.71 C 6.4 km/h
194 02-02-2015 18:15:00 2.4 C 4.74 g/m*3 0.59 C 6.4 km/h
195 02-02-2015 18:20:00 2.4 C 4.74 g/m*3 2.4 C 4.8 km/h
196 02-02-2015 18:25:00 2.4 C 4.74 g/m*3 0.05 C 8.1 km/h
197 02-02-2015 18:30:00 2.4 C 4.74 g/m*3 -0.74 C 11.3 km/h
198 02-02-2015 18:35:00 2.4 C 4.74 g/m*3 -0.37 C 9.7 km/h
199 02-02-2015 18:40:00 2.4 C 4.74 g/m*3 0.05 C 8.1 km/h
200 02-02-2015 18:45:00 2.4 C 4.74 g/m*3 -0.37 C 9.7 km/h
Sensor: Nr:Datum:Temp:Abs-Feuchte:Windchill:Wind:
Aussen-T/F 201 02-02-2015 18:50:00 2.4 C 4.74 g/m*3 0.59 C 6.4 km/h
202 02-02-2015 18:55:00 2.3 C 4.71 g/m*3 2.3 C 4.8 km/h
203 02-02-2015 19:00:00 2.3 C 4.71 g/m*3 0.47 C 6.4 km/h
204 02-02-2015 19:05:00 2.3 C 4.71 g/m*3 -0.49 C 9.7 km/h
205 02-02-2015 19:10:00 2.3 C 4.71 g/m*3 0.47 C 6.4 km/h
206 02-02-2015 19:15:00 2.3 C 4.76 g/m*3 2.3 C 4.8 km/h
207 02-02-2015 19:20:00 2.3 C 4.76 g/m*3 2.3 C 3.2 km/h
208 02-02-2015 19:25:00 2.2 C 4.73 g/m*3 -0.18 C 8.1 km/h
209 02-02-2015 19:30:00 2.2 C 4.73 g/m*3 0.36 C 6.4 km/h
210 02-02-2015 19:35:00 2.2 C 4.73 g/m*3 -1.62 C 14.5 km/h
211 02-02-2015 19:40:00 2.2 C 4.79 g/m*3 2.2 C 3.2 km/h
212 02-02-2015 19:45:00 2.1 C 4.76 g/m*3 0.24 C 6.4 km/h
213 02-02-2015 19:50:00 2.1 C 4.76 g/m*3 0.24 C 6.4 km/h
214 02-02-2015 19:55:00 2.2 C 4.73 g/m*3 -0.99 C 11.3 km/h
215 02-02-2015 20:00:00 2.1 C 4.7 g/m*3 0.24 C 6.4 km/h
216 02-02-2015 20:05:00 2.2 C 4.73 g/m*3 0.36 C 6.4 km/h
217 02-02-2015 20:10:00 2.2 C 4.73 g/m*3 0.36 C 6.4 km/h
218 02-02-2015 20:15:00 2.2 C 4.73 g/m*3 -0.61 C 9.7 km/h
219 02-02-2015 20:20:00 2.2 C 4.68 g/m*3 -0.61 C 9.7 km/h
220 02-02-2015 20:25:00 2.2 C 4.73 g/m*3 -0.61 C 9.7 km/h
221 02-02-2015 20:30:00 2.2 C 4.73 g/m*3 -0.18 C 8.1 km/h
222 02-02-2015 20:35:00 2.2 C 4.73 g/m*3 -0.18 C 8.1 km/h
223 02-02-2015 20:40:00 2.1 C 4.7 g/m*3 -0.3 C 8.1 km/h
224 02-02-2015 20:45:00 2.1 C 4.76 g/m*3 -0.73 C 9.7 km/h
225 02-02-2015 20:50:00 2.1 C 4.76 g/m*3 2.1 C 4.8 km/h
Sensor: Nr:Datum:Temp:Abs-Feuchte:Windchill:Wind:
Aussen-T/F 226 02-02-2015 20:55:00 2.1 C 4.76 g/m*3 0.24 C 6.4 km/h
227 02-02-2015 21:00:00 2.1 C 4.7 g/m*3 0.24 C 6.4 km/h
228 02-02-2015 21:05:00 2.1 C 4.7 g/m*3 2.1 C 4.8 km/h
229 02-02-2015 21:10:00 2.1 C 4.7 g/m*3 -0.73 C 9.7 km/h
230 02-02-2015 21:15:00 2.1 C 4.7 g/m*3 0.24 C 6.4 km/h
231 02-02-2015 21:20:00 2 C 4.72 g/m*3 2 C 3.2 km/h
232 02-02-2015 21:25:00 1.9 C 4.69 g/m*3 -0.54 C 8.1 km/h
233 02-02-2015 21:30:00 1.8 C 4.66 g/m*3 -0.65 C 8.1 km/h
234 02-02-2015 21:35:00 1.8 C 4.66 g/m*3 -0.1 C 6.4 km/h
235 02-02-2015 21:40:00 1.8 C 4.66 g/m*3 -0.65 C 8.1 km/h
236 02-02-2015 21:45:00 1.8 C 4.66 g/m*3 -1.47 C 11.3 km/h
237 02-02-2015 21:50:00 1.8 C 4.66 g/m*3 -1.09 C 9.7 km/h
238 02-02-2015 21:55:00 1.8 C 4.66 g/m*3 -1.09 C 9.7 km/h
239 02-02-2015 22:50:00 1.4 C 4.53 g/m*3 -0.56 C 6.4 km/h
240 02-02-2015 22:55:00 1.4 C 4.53 g/m*3 -0.56 C 6.4 km/h
241 02-02-2015 23:00:00 1.4 C 4.53 g/m*3 1.4 C 4.8 km/h
242 02-02-2015 23:05:00 1.5 C 4.57 g/m*3 -0.45 C 6.4 km/h
243 02-02-2015 23:10:00 1.5 C 4.51 g/m*3 -1.01 C 8.1 km/h
244 02-02-2015 23:15:00 1.5 C 4.57 g/m*3 1.5 C 4.8 km/h
245 02-02-2015 23:20:00 1.5 C 4.51 g/m*3 -0.45 C 6.4 km/h
246 02-02-2015 23:25:00 1.5 C 4.51 g/m*3 1.5 C 4.8 km/h
247 02-02-2015 23:30:00 1.5 C 4.51 g/m*3 -0.45 C 6.4 km/h
248 02-02-2015 23:35:00 1.5 C 4.51 g/m*3 -0.45 C 6.4 km/h
249 02-02-2015 23:40:00 1.6 C 4.54 g/m*3 -1.33 C 9.7 km/h
250 02-02-2015 23:45:00 1.6 C 4.54 g/m*3 -1.33 C 9.7 km/h
Sensor: Nr:Datum:Temp:Abs-Feuchte:Windchill:Wind:
Aussen-T/F 251 02-02-2015 23:50:00 1.6 C 4.49 g/m*3 1.6 C 3.2 km/h
252 02-02-2015 23:55:00 1.6 C 4.49 g/m*3 1.6 C 4.8 km/h
253 03-02-2015 00:00:00 1.7 C 4.57 g/m*3 1.7 C 4.8 km/h
254 03-02-2015 00:05:00 1.7 C 4.57 g/m*3 -0.77 C 8.1 km/h
255 03-02-2015 00:10:00 1.7 C 4.52 g/m*3 1.7 C 4.8 km/h
256 03-02-2015 00:15:00 1.6 C 4.54 g/m*3 1.6 C 3.2 km/h
257 03-02-2015 00:20:00 1.6 C 4.54 g/m*3 1.6 C 3.2 km/h
258 03-02-2015 00:25:00 1.6 C 4.49 g/m*3 1.6 C 4.8 km/h
259 03-02-2015 00:30:00 1.6 C 4.54 g/m*3 1.6 C 3.2 km/h
260 03-02-2015 00:35:00 1.6 C 4.6 g/m*3 1.6 C 3.2 km/h
261 03-02-2015 00:40:00 1.6 C 4.54 g/m*3 1.6 C 1.6 km/h
262 03-02-2015 00:45:00 1.6 C 4.54 g/m*3 1.6 C 3.2 km/h
263 03-02-2015 00:50:00 1.6 C 4.54 g/m*3 1.6 C 4.8 km/h
264 03-02-2015 00:55:00 1.6 C 4.65 g/m*3 1.6 C 4.8 km/h
265 03-02-2015 01:00:00 1.6 C 4.65 g/m*3 1.6 C 3.2 km/h
266 03-02-2015 01:05:00 1.5 C 4.57 g/m*3 1.5 C 3.2 km/h
267 03-02-2015 01:10:00 1.4 C 4.59 g/m*3 1.4 C 0 km/h
268 03-02-2015 01:15:00 1.4 C 4.59 g/m*3 1.4 C 1.6 km/h
269 03-02-2015 01:20:00 1.4 C 4.59 g/m*3 1.4 C 3.2 km/h
270 03-02-2015 01:25:00 1.4 C 4.53 g/m*3 1.4 C 3.2 km/h
271 03-02-2015 01:30:00 1.4 C 4.59 g/m*3 1.4 C 1.6 km/h
272 03-02-2015 01:35:00 1.3 C 4.56 g/m*3 1.3 C 3.2 km/h
273 03-02-2015 01:40:00 1.3 C 4.56 g/m*3 1.3 C 3.2 km/h
274 03-02-2015 01:45:00 1.3 C 4.56 g/m*3 1.3 C 3.2 km/h
275 03-02-2015 01:50:00 1.3 C 4.56 g/m*3 1.3 C 4.8 km/h
Sensor: Nr:Datum:Temp:Abs-Feuchte:Windchill:Wind:
Aussen-T/F 276 03-02-2015 01:55:00 1.3 C 4.56 g/m*3 1.3 C 0 km/h
277 03-02-2015 02:00:00 1.2 C 4.53 g/m*3 1.2 C 0 km/h
278 03-02-2015 02:05:00 1.2 C 4.53 g/m*3 1.2 C 0 km/h
279 03-02-2015 02:10:00 1.2 C 4.58 g/m*3 1.2 C 0 km/h
280 03-02-2015 02:15:00 1.1 C 4.55 g/m*3 1.1 C 3.2 km/h
281 03-02-2015 02:20:00 1.1 C 4.55 g/m*3 1.1 C 1.6 km/h
282 03-02-2015 02:25:00 1 C 4.57 g/m*3 1 C 3.2 km/h
283 03-02-2015 02:30:00 1 C 4.52 g/m*3 1 C 3.2 km/h
284 03-02-2015 02:35:00 1 C 4.57 g/m*3 1 C 1.6 km/h
285 03-02-2015 02:40:00 1 C 4.57 g/m*3 1 C 3.2 km/h
286 03-02-2015 02:45:00 0.9 C 4.54 g/m*3 0.9 C 3.2 km/h
287 03-02-2015 02:50:00 0.9 C 4.48 g/m*3 0.9 C 3.2 km/h
288 03-02-2015 02:55:00 0.9 C 4.48 g/m*3 0.9 C 1.6 km/h
289 03-02-2015 03:00:00 0.9 C 4.48 g/m*3 0.9 C 3.2 km/h
290 03-02-2015 03:05:00 0.9 C 4.48 g/m*3 0.9 C 3.2 km/h
291 03-02-2015 03:10:00 0.8 C 4.45 g/m*3 0.8 C 3.2 km/h
292 03-02-2015 03:15:00 0.8 C 4.45 g/m*3 0.8 C 3.2 km/h
293 03-02-2015 03:20:00 0.8 C 4.51 g/m*3 0.8 C 0 km/h
294 03-02-2015 03:25:00 0.7 C 4.53 g/m*3 0.7 C 0 km/h
295 03-02-2015 03:30:00 0.7 C 4.53 g/m*3 0.7 C 1.6 km/h
296 03-02-2015 03:35:00 0.6 C 4.49 g/m*3 0.6 C 1.6 km/h
297 03-02-2015 03:40:00 0.6 C 4.44 g/m*3 0.6 C 3.2 km/h
298 03-02-2015 03:45:00 0.6 C 4.49 g/m*3 0.6 C 1.6 km/h
299 03-02-2015 03:50:00 0.6 C 4.49 g/m*3 0.6 C 1.6 km/h
300 03-02-2015 03:55:00 0.6 C 4.49 g/m*3 0.6 C 4.8 km/h
Sensor: Nr:Datum:Temp:Abs-Feuchte:Windchill:Wind:
Aussen-T/F 301 03-02-2015 04:00:00 0.6 C 4.49 g/m*3 0.6 C 3.2 km/h
302 03-02-2015 04:05:00 0.5 C 4.46 g/m*3 0.5 C 1.6 km/h
303 03-02-2015 04:10:00 0.5 C 4.46 g/m*3 0.5 C 0 km/h
304 03-02-2015 04:15:00 0.6 C 4.49 g/m*3 0.6 C 1.6 km/h
305 03-02-2015 04:20:00 0.6 C 4.49 g/m*3 0.6 C 0 km/h
306 03-02-2015 04:25:00 0.5 C 4.51 g/m*3 0.5 C 0 km/h
307 03-02-2015 04:30:00 0.5 C 4.51 g/m*3 0.5 C 0 km/h
308 03-02-2015 04:35:00 0.6 C 4.54 g/m*3 0.6 C 1.6 km/h
309 03-02-2015 04:40:00 0.6 C 4.54 g/m*3 0.6 C 1.6 km/h
310 03-02-2015 04:45:00 0.6 C 4.54 g/m*3 0.6 C 1.6 km/h
311 03-02-2015 04:50:00 0.6 C 4.49 g/m*3 0.6 C 0 km/h
312 03-02-2015 04:55:00 0.6 C 4.49 g/m*3 0.6 C 1.6 km/h
313 03-02-2015 05:00:00 0.6 C 4.49 g/m*3 0.6 C 1.6 km/h
314 03-02-2015 05:05:00 0.6 C 4.49 g/m*3 0.6 C 0 km/h
315 03-02-2015 05:10:00 0.7 C 4.53 g/m*3 0.7 C 1.6 km/h
316 03-02-2015 05:15:00 0.7 C 4.53 g/m*3 0.7 C 1.6 km/h
317 03-02-2015 05:20:00 0.6 C 4.49 g/m*3 0.6 C 0 km/h
318 03-02-2015 05:25:00 0.6 C 4.49 g/m*3 0.6 C 0 km/h
319 03-02-2015 05:30:00 0.6 C 4.49 g/m*3 0.6 C 0 km/h
320 03-02-2015 05:35:00 0.6 C 4.49 g/m*3 0.6 C 0 km/h
321 03-02-2015 05:40:00 0.6 C 4.49 g/m*3 0.6 C 0 km/h
322 03-02-2015 05:45:00 0.6 C 4.49 g/m*3 0.6 C 0 km/h
323 03-02-2015 05:50:00 0.6 C 4.49 g/m*3 0.6 C 0 km/h
324 03-02-2015 05:55:00 0.6 C 4.49 g/m*3 0.6 C 1.6 km/h
325 03-02-2015 06:00:00 0.6 C 4.49 g/m*3 0.6 C 0 km/h
Sensor: Nr:Datum:Temp:Abs-Feuchte:Windchill:Wind:
Aussen-T/F 326 03-02-2015 06:05:00 0.6 C 4.49 g/m*3 0.6 C 0 km/h
327 03-02-2015 06:10:00 0.6 C 4.49 g/m*3 0.6 C 0 km/h
328 03-02-2015 06:15:00 0.6 C 4.49 g/m*3 0.6 C 0 km/h
329 03-02-2015 06:20:00 0.5 C 4.46 g/m*3 0.5 C 1.6 km/h
330 03-02-2015 06:25:00 0.6 C 4.49 g/m*3 0.6 C 3.2 km/h
331 03-02-2015 06:30:00 0.6 C 4.49 g/m*3 0.6 C 1.6 km/h
332 03-02-2015 06:35:00 0.6 C 4.49 g/m*3 0.6 C 3.2 km/h
333 03-02-2015 06:40:00 0.6 C 4.49 g/m*3 0.6 C 0 km/h
334 03-02-2015 06:45:00 0.6 C 4.49 g/m*3 0.6 C 0 km/h
335 03-02-2015 06:50:00 0.6 C 4.44 g/m*3 0.6 C 0 km/h
336 03-02-2015 06:55:00 0.6 C 4.44 g/m*3 0.6 C 0 km/h
337 03-02-2015 07:00:00 0.6 C 4.44 g/m*3 0.6 C 4.8 km/h
338 03-02-2015 07:05:00 0.6 C 4.39 g/m*3 -1.49 C 6.4 km/h
339 03-02-2015 07:10:00 0.7 C 4.42 g/m*3 0.7 C 3.2 km/h
340 03-02-2015 07:15:00 0.7 C 4.42 g/m*3 0.7 C 1.6 km/h
341 03-02-2015 07:20:00 0.7 C 4.47 g/m*3 0.7 C 1.6 km/h
342 03-02-2015 07:25:00 0.7 C 4.47 g/m*3 0.7 C 1.6 km/h
343 03-02-2015 07:30:00 0.6 C 4.49 g/m*3 0.6 C 0 km/h
344 03-02-2015 07:35:00 0.6 C 4.44 g/m*3 0.6 C 0 km/h
345 03-02-2015 07:40:00 0.6 C 4.49 g/m*3 0.6 C 0 km/h
346 03-02-2015 07:45:00 0.5 C 4.46 g/m*3 0.5 C 0 km/h
347 03-02-2015 07:50:00 0.5 C 4.46 g/m*3 0.5 C 0 km/h
348 03-02-2015 07:55:00 0.5 C 4.46 g/m*3 0.5 C 1.6 km/h
349 03-02-2015 08:00:00 0.4 C 4.43 g/m*3 0.4 C 0 km/h
350 03-02-2015 08:05:00 0.4 C 4.43 g/m*3 0.4 C 0 km/h
Sensor: Nr:Datum:Temp:Abs-Feuchte:Windchill:Wind:
Aussen-T/F 351 03-02-2015 08:10:00 0.4 C 4.43 g/m*3 0.4 C 0 km/h
352 03-02-2015 12:15:00 2.4 C 5.71 g/m*3 0.59 C 6.4 km/h
353 03-02-2015 12:20:00 2.4 C 5.71 g/m*3 -0.37 C 9.7 km/h
354 03-02-2015 12:25:00 2.6 C 5.79 g/m*3 0.29 C 8.1 km/h
355 03-02-2015 12:30:00 2.6 C 5.79 g/m*3 -0.14 C 9.7 km/h
356 03-02-2015 16:00:00 3.1 C 5.21 g/m*3 3.1 C 4.8 km/h
357 03-02-2015 16:05:00 3.1 C 5.21 g/m*3 1.4 C 6.4 km/h
358 03-02-2015 16:10:00 3.1 C 5.21 g/m*3 3.1 C 1.6 km/h
359 03-02-2015 16:15:00 3.1 C 5.21 g/m*3 3.1 C 1.6 km/h
360 03-02-2015 16:20:00 3.1 C 5.21 g/m*3 3.1 C 1.6 km/h
361 03-02-2015 16:25:00 2.8 C 5.1 g/m*3 2.8 C 1.6 km/h
362 03-02-2015 16:30:00 2.7 C 5.13 g/m*3 2.7 C 0 km/h
363 03-02-2015 16:35:00 2.7 C 5.13 g/m*3 2.7 C 0 km/h
364 03-02-2015 16:40:00 2.7 C 5.13 g/m*3 2.7 C 0 km/h
365 03-02-2015 16:45:00 2.7 C 5.13 g/m*3 2.7 C 0 km/h
366 03-02-2015 16:50:00 2.7 C 5.13 g/m*3 2.7 C 0 km/h
367 03-02-2015 17:15:00 1.5 C 4.83 g/m*3 1.5 C 3.2 km/h
368 03-02-2015 17:20:00 1.3 C 4.82 g/m*3 1.3 C 3.2 km/h
369 03-02-2015 17:25:00 1.2 C 4.79 g/m*3 1.2 C 4.8 km/h
370 03-02-2015 17:30:00 1.1 C 4.76 g/m*3 1.1 C 3.2 km/h
371 03-02-2015 17:35:00 1 C 4.78 g/m*3 1 C 3.2 km/h
372 03-02-2015 17:40:00 0.9 C 4.74 g/m*3 0.9 C 3.2 km/h
373 03-02-2015 17:45:00 0.9 C 4.79 g/m*3 0.9 C 1.6 km/h
374 03-02-2015 17:50:00 1 C 4.83 g/m*3 1 C 3.2 km/h
375 03-02-2015 17:55:00 1.1 C 4.86 g/m*3 1.1 C 3.2 km/h
Sensor: Nr:Datum:Temp:Abs-Feuchte:Windchill:Wind:
Aussen-T/F 376 03-02-2015 18:00:00 1.1 C 4.86 g/m*3 1.1 C 3.2 km/h
377 03-02-2015 18:05:00 0.9 C 4.79 g/m*3 0.9 C 3.2 km/h
378 03-02-2015 18:10:00 0.8 C 4.76 g/m*3 0.8 C 4.8 km/h
379 03-02-2015 18:15:00 0.7 C 4.73 g/m*3 0.7 C 0 km/h
380 03-02-2015 18:20:00 0.6 C 4.7 g/m*3 0.6 C 3.2 km/h
381 03-02-2015 18:25:00 0.5 C 4.66 g/m*3 0.5 C 1.6 km/h
382 03-02-2015 18:30:00 0.5 C 4.71 g/m*3 0.5 C 4.8 km/h
383 03-02-2015 18:35:00 0.7 C 4.78 g/m*3 0.7 C 4.8 km/h
384 03-02-2015 18:40:00 0.7 C 4.78 g/m*3 0.7 C 3.2 km/h
385 03-02-2015 18:45:00 0.7 C 4.78 g/m*3 0.7 C 3.2 km/h
386 03-02-2015 18:50:00 0.6 C 4.75 g/m*3 0.6 C 4.8 km/h
387 03-02-2015 18:55:00 0.6 C 4.75 g/m*3 0.6 C 4.8 km/h
388 03-02-2015 19:00:00 0.5 C 4.71 g/m*3 0.5 C 3.2 km/h
389 03-02-2015 19:05:00 0.4 C 4.68 g/m*3 0.4 C 4.8 km/h
390 03-02-2015 19:10:00 0.6 C 4.8 g/m*3 0.6 C 4.8 km/h
391 03-02-2015 19:15:00 0.7 C 4.83 g/m*3 0.7 C 1.6 km/h
392 03-02-2015 19:20:00 0.7 C 4.83 g/m*3 0.7 C 0 km/h
393 03-02-2015 19:25:00 0.8 C 4.86 g/m*3 0.8 C 0 km/h
394 03-02-2015 19:30:00 0.7 C 4.83 g/m*3 0.7 C 0 km/h
395 03-02-2015 19:35:00 0.7 C 4.83 g/m*3 0.7 C 0 km/h
396 03-02-2015 19:40:00 0.7 C 4.83 g/m*3 0.7 C 1.6 km/h
397 03-02-2015 19:45:00 0.7 C 4.83 g/m*3 0.7 C 0 km/h
398 03-02-2015 19:50:00 0.7 C 4.83 g/m*3 0.7 C 0 km/h
399 03-02-2015 19:55:00 0.7 C 4.83 g/m*3 0.7 C 3.2 km/h
400 03-02-2015 20:00:00 0.8 C 4.86 g/m*3 0.8 C 1.6 km/h
Sensor: Nr:Datum:Temp:Abs-Feuchte:Windchill:Wind:
Aussen-T/F 401 03-02-2015 20:05:00 0.8 C 4.86 g/m*3 0.8 C 1.6 km/h
402 03-02-2015 20:10:00 0.8 C 4.86 g/m*3 0.8 C 1.6 km/h
403 03-02-2015 20:15:00 0.8 C 4.86 g/m*3 0.8 C 0 km/h
404 03-02-2015 20:20:00 0.8 C 4.86 g/m*3 0.8 C 0 km/h
405 03-02-2015 20:25:00 0.8 C 4.86 g/m*3 0.8 C 0 km/h
406 03-02-2015 20:30:00 0.9 C 4.9 g/m*3 0.9 C 1.6 km/h
407 03-02-2015 20:35:00 0.9 C 4.9 g/m*3 0.9 C 0 km/h
408 03-02-2015 20:40:00 0.9 C 4.9 g/m*3 0.9 C 0 km/h
409 03-02-2015 20:45:00 1 C 4.93 g/m*3 1 C 0 km/h
410 03-02-2015 20:50:00 1.1 C 4.96 g/m*3 1.1 C 0 km/h
411 03-02-2015 20:55:00 1.1 C 4.96 g/m*3 1.1 C 0 km/h
412 03-02-2015 21:00:00 1.2 C 5 g/m*3 1.2 C 1.6 km/h
413 03-02-2015 21:05:00 1.2 C 5 g/m*3 1.2 C 3.2 km/h
414 03-02-2015 21:10:00 1.2 C 5 g/m*3 1.2 C 3.2 km/h
415 03-02-2015 21:15:00 1.1 C 4.91 g/m*3 1.1 C 3.2 km/h
416 03-02-2015 21:20:00 1.1 C 4.91 g/m*3 1.1 C 3.2 km/h
417 03-02-2015 21:25:00 1.1 C 4.96 g/m*3 1.1 C 0 km/h
418 03-02-2015 21:30:00 1.1 C 4.96 g/m*3 1.1 C 0 km/h
419 03-02-2015 21:35:00 1.1 C 4.96 g/m*3 1.1 C 0 km/h
420 03-02-2015 21:40:00 1.1 C 4.96 g/m*3 1.1 C 0 km/h
421 03-02-2015 21:45:00 0.9 C 4.85 g/m*3 0.9 C 0 km/h
422 03-02-2015 21:50:00 0.7 C 4.78 g/m*3 0.7 C 0 km/h
423 03-02-2015 21:55:00 0.5 C 4.71 g/m*3 0.5 C 3.2 km/h
424 03-02-2015 22:00:00 0.4 C 4.68 g/m*3 0.4 C 3.2 km/h
425 03-02-2015 22:05:00 0.4 C 4.68 g/m*3 0.4 C 0 km/h
Sensor: Nr:Datum:Temp:Abs-Feuchte:Windchill:Wind:
Aussen-T/F 426 03-02-2015 22:10:00 0.3 C 4.65 g/m*3 0.3 C 0 km/h
427 03-02-2015 22:15:00 0.2 C 4.62 g/m*3 0.2 C 1.6 km/h
428 03-02-2015 22:20:00 0.2 C 4.67 g/m*3 0.2 C 3.2 km/h
429 03-02-2015 22:25:00 0.2 C 4.67 g/m*3 0.2 C 0 km/h
430 03-02-2015 22:30:00 0.1 C 4.63 g/m*3 0.1 C 0 km/h
431 03-02-2015 22:35:00 -0.1 C 4.57 g/m*3 -0.1 C 0 km/h
432 03-02-2015 22:40:00 -0.2 C 4.49 g/m*3 -0.2 C 0 km/h
433 03-02-2015 22:45:00 -0.2 C 4.54 g/m*3 -0.2 C 3.2 km/h
434 03-02-2015 22:50:00 -0.1 C 4.57 g/m*3 -0.1 C 4.8 km/h
435 03-02-2015 22:55:00 -0.1 C 4.57 g/m*3 -0.1 C 0 km/h
436 03-02-2015 23:00:00 -0.1 C 4.62 g/m*3 -0.1 C 0 km/h
437 03-02-2015 23:05:00 -0.2 C 4.54 g/m*3 -0.2 C 0 km/h
438 03-02-2015 23:10:00 -0.2 C 4.54 g/m*3 -0.2 C 0 km/h
439 03-02-2015 23:15:00 -0.3 C 4.51 g/m*3 -0.3 C 1.6 km/h
440 03-02-2015 23:20:00 -0.4 C 4.48 g/m*3 -0.4 C 0 km/h
441 03-02-2015 23:25:00 -0.5 C 4.45 g/m*3 -0.5 C 0 km/h
442 03-02-2015 23:30:00 -0.6 C 4.42 g/m*3 -0.6 C 0 km/h
443 03-02-2015 23:35:00 -0.7 C 4.39 g/m*3 -0.7 C 0 km/h
444 03-02-2015 23:40:00 -0.8 C 4.35 g/m*3 -0.8 C 1.6 km/h
445 03-02-2015 23:45:00 -0.8 C 4.35 g/m*3 -0.8 C 1.6 km/h
446 03-02-2015 23:50:00 -0.8 C 4.4 g/m*3 -0.8 C 0 km/h
447 03-02-2015 23:55:00 -0.7 C 4.43 g/m*3 -0.7 C 3.2 km/h
448 04-02-2015 00:00:00 -0.7 C 4.43 g/m*3 -0.7 C 0 km/h
449 04-02-2015 00:05:00 -0.6 C 4.46 g/m*3 -0.6 C 1.6 km/h
450 04-02-2015 00:10:00 -0.4 C 4.52 g/m*3 -0.4 C 0 km/h
Sensor: Nr:Datum:Temp:Abs-Feuchte:Windchill:Wind:
Aussen-T/F 451 04-02-2015 00:15:00 -0.4 C 4.52 g/m*3 -0.4 C 0 km/h
452 04-02-2015 00:20:00 -0.3 C 4.56 g/m*3 -0.3 C 0 km/h
453 04-02-2015 00:25:00 -0.3 C 4.56 g/m*3 -0.3 C 0 km/h
454 04-02-2015 00:30:00 -0.3 C 4.56 g/m*3 -0.3 C 0 km/h
455 04-02-2015 00:35:00 -0.3 C 4.56 g/m*3 -0.3 C 0 km/h
456 04-02-2015 00:40:00 -0.3 C 4.56 g/m*3 -0.3 C 0 km/h
457 04-02-2015 00:45:00 -0.4 C 4.52 g/m*3 -0.4 C 0 km/h
458 04-02-2015 00:50:00 -0.4 C 4.52 g/m*3 -0.4 C 0 km/h
459 04-02-2015 00:55:00 -0.4 C 4.52 g/m*3 -0.4 C 1.6 km/h
460 04-02-2015 01:00:00 -0.4 C 4.52 g/m*3 -0.4 C 1.6 km/h
461 04-02-2015 01:05:00 -0.3 C 4.56 g/m*3 -0.3 C 1.6 km/h
462 04-02-2015 01:10:00 -0.2 C 4.64 g/m*3 -0.2 C 0 km/h
463 04-02-2015 01:15:00 -0.2 C 4.59 g/m*3 -0.2 C 0 km/h
464 04-02-2015 01:20:00 -0.2 C 4.59 g/m*3 -0.2 C 1.6 km/h
465 04-02-2015 01:25:00 -0.1 C 4.62 g/m*3 -0.1 C 3.2 km/h
466 04-02-2015 01:30:00 0 C 4.7 g/m*3 0 C 1.6 km/h
467 04-02-2015 01:35:00 0 C 4.7 g/m*3 0 C 4.8 km/h
468 04-02-2015 01:40:00 0.1 C 4.73 g/m*3 0.1 C 1.6 km/h
469 04-02-2015 01:45:00 0.1 C 4.73 g/m*3 0.1 C 3.2 km/h
470 04-02-2015 01:50:00 0.1 C 4.73 g/m*3 0.1 C 0 km/h
471 04-02-2015 01:55:00 0.1 C 4.73 g/m*3 0.1 C 1.6 km/h
472 04-02-2015 02:00:00 0.2 C 4.72 g/m*3 0.2 C 0 km/h
473 04-02-2015 02:05:00 0.2 C 4.77 g/m*3 0.2 C 0 km/h
474 04-02-2015 02:10:00 0.3 C 4.8 g/m*3 0.3 C 0 km/h
475 04-02-2015 02:15:00 0.3 C 4.8 g/m*3 0.3 C 0 km/h
Sensor: Nr:Datum:Temp:Abs-Feuchte:Windchill:Wind:
Aussen-T/F 476 04-02-2015 02:20:00 0.3 C 4.8 g/m*3 0.3 C 0 km/h
477 04-02-2015 02:25:00 0.4 C 4.83 g/m*3 0.4 C 1.6 km/h
478 04-02-2015 02:30:00 0.4 C 4.83 g/m*3 0.4 C 3.2 km/h
479 04-02-2015 02:35:00 0.4 C 4.83 g/m*3 0.4 C 3.2 km/h
480 04-02-2015 02:40:00 0.4 C 4.78 g/m*3 0.4 C 3.2 km/h
481 04-02-2015 02:45:00 0.3 C 4.75 g/m*3 0.3 C 1.6 km/h
482 04-02-2015 02:50:00 0.3 C 4.75 g/m*3 0.3 C 0 km/h
483 04-02-2015 02:55:00 0.3 C 4.75 g/m*3 0.3 C 0 km/h
484 04-02-2015 03:00:00 0.2 C 4.72 g/m*3 0.2 C 0 km/h
485 04-02-2015 03:05:00 0.2 C 4.72 g/m*3 0.2 C 0 km/h
486 04-02-2015 03:10:00 0.2 C 4.72 g/m*3 0.2 C 3.2 km/h
487 04-02-2015 03:15:00 0.2 C 4.72 g/m*3 0.2 C 0 km/h
488 04-02-2015 03:20:00 0.2 C 4.72 g/m*3 0.2 C 3.2 km/h
489 04-02-2015 03:25:00 0.3 C 4.75 g/m*3 0.3 C 0 km/h
490 04-02-2015 03:30:00 0.3 C 4.75 g/m*3 0.3 C 0 km/h
491 04-02-2015 03:35:00 0.3 C 4.75 g/m*3 0.3 C 3.2 km/h
492 04-02-2015 03:40:00 0.3 C 4.75 g/m*3 0.3 C 3.2 km/h
493 04-02-2015 03:45:00 0.3 C 4.75 g/m*3 0.3 C 0 km/h
494 04-02-2015 03:50:00 0.3 C 4.75 g/m*3 0.3 C 0 km/h
495 04-02-2015 03:55:00 0.3 C 4.7 g/m*3 0.3 C 3.2 km/h
496 04-02-2015 04:00:00 0.3 C 4.7 g/m*3 -2.42 C 8.1 km/h
497 04-02-2015 04:05:00 0.3 C 4.65 g/m*3 -2.88 C 9.7 km/h
498 04-02-2015 04:10:00 0.4 C 4.68 g/m*3 0.4 C 4.8 km/h
499 04-02-2015 04:15:00 0.5 C 4.66 g/m*3 0.5 C 1.6 km/h
500 04-02-2015 04:20:00 0.5 C 4.66 g/m*3 0.5 C 4.8 km/h
Sensor: Nr:Datum:Temp:Abs-Feuchte:Windchill:Wind:
Aussen-T/F 501 04-02-2015 04:25:00 0.5 C 4.66 g/m*3 0.5 C 1.6 km/h
502 04-02-2015 04:30:00 0.6 C 4.65 g/m*3 0.6 C 0 km/h
503 04-02-2015 04:35:00 0.5 C 4.61 g/m*3 0.5 C 4.8 km/h
504 04-02-2015 04:40:00 0.5 C 4.61 g/m*3 0.5 C 1.6 km/h
505 04-02-2015 04:45:00 0.5 C 4.61 g/m*3 0.5 C 1.6 km/h
506 04-02-2015 04:50:00 0.5 C 4.61 g/m*3 -2.18 C 8.1 km/h
507 04-02-2015 04:55:00 0.5 C 4.56 g/m*3 0.5 C 1.6 km/h
508 04-02-2015 05:00:00 0.5 C 4.56 g/m*3 0.5 C 4.8 km/h
509 04-02-2015 05:05:00 0.5 C 4.56 g/m*3 0.5 C 1.6 km/h
510 04-02-2015 05:10:00 0.5 C 4.56 g/m*3 0.5 C 1.6 km/h
511 04-02-2015 05:15:00 0.5 C 4.56 g/m*3 0.5 C 1.6 km/h
512 04-02-2015 05:20:00 0.5 C 4.56 g/m*3 0.5 C 3.2 km/h
513 04-02-2015 05:25:00 0.5 C 4.56 g/m*3 -1.6 C 6.4 km/h
514 04-02-2015 05:30:00 0.5 C 4.51 g/m*3 0.5 C 4.8 km/h
515 04-02-2015 05:35:00 0.5 C 4.51 g/m*3 -1.6 C 6.4 km/h
516 04-02-2015 05:40:00 0.5 C 4.51 g/m*3 -1.6 C 6.4 km/h
517 04-02-2015 05:45:00 0.5 C 4.51 g/m*3 0.5 C 3.2 km/h
518 04-02-2015 05:50:00 0.5 C 4.51 g/m*3 0.5 C 4.8 km/h
519 04-02-2015 05:55:00 0.5 C 4.51 g/m*3 0.5 C 0 km/h
520 04-02-2015 06:00:00 0.5 C 4.51 g/m*3 0.5 C 4.8 km/h
521 04-02-2015 06:05:00 0.4 C 4.43 g/m*3 -2.3 C 8.1 km/h
522 04-02-2015 06:10:00 0.4 C 4.43 g/m*3 -2.3 C 8.1 km/h
523 04-02-2015 06:15:00 0.3 C 4.4 g/m*3 -1.84 C 6.4 km/h
524 04-02-2015 06:20:00 0.3 C 4.35 g/m*3 -1.84 C 6.4 km/h
525 04-02-2015 06:25:00 0.2 C 4.32 g/m*3 -1.95 C 6.4 km/h
Sensor: Nr:Datum:Temp:Abs-Feuchte:Windchill:Wind:
Aussen-T/F 526 04-02-2015 06:30:00 0.2 C 4.32 g/m*3 0.2 C 4.8 km/h
527 04-02-2015 06:35:00 0.1 C 4.29 g/m*3 0.1 C 3.2 km/h
528 04-02-2015 06:40:00 0 C 4.26 g/m*3 0 C 0 km/h
529 04-02-2015 06:45:00 -0.2 C 4.21 g/m*3 -0.2 C 0 km/h
530 04-02-2015 06:50:00 -0.4 C 4.15 g/m*3 -0.4 C 1.6 km/h
531 04-02-2015 06:55:00 -0.6 C 4.14 g/m*3 -0.6 C 0 km/h
532 04-02-2015 07:00:00 -0.7 C 4.15 g/m*3 -0.7 C 0 km/h
533 04-02-2015 07:05:00 -0.7 C 4.2 g/m*3 -0.7 C 0 km/h
534 04-02-2015 07:10:00 -0.6 C 4.23 g/m*3 -0.6 C 1.6 km/h
535 04-02-2015 07:15:00 -0.6 C 4.18 g/m*3 -0.6 C 3.2 km/h
536 04-02-2015 07:20:00 -0.5 C 4.21 g/m*3 -2.76 C 6.4 km/h
537 04-02-2015 07:25:00 -0.4 C 4.24 g/m*3 -0.4 C 1.6 km/h
538 04-02-2015 07:30:00 -0.4 C 4.19 g/m*3 -0.4 C 3.2 km/h
539 04-02-2015 07:35:00 -0.4 C 4.15 g/m*3 -0.4 C 3.2 km/h
540 04-02-2015 07:40:00 -0.5 C 4.12 g/m*3 -0.5 C 1.6 km/h
541 04-02-2015 07:45:00 -0.6 C 4.09 g/m*3 -0.6 C 3.2 km/h
542 04-02-2015 07:50:00 -0.7 C 4.06 g/m*3 -0.7 C 1.6 km/h
543 04-02-2015 07:55:00 -0.7 C 4.06 g/m*3 -0.7 C 0 km/h
544 04-02-2015 08:00:00 -0.7 C 4.06 g/m*3 -0.7 C 1.6 km/h
545 04-02-2015 08:05:00 -0.7 C 4.06 g/m*3 -0.7 C 0 km/h
546 04-02-2015 08:10:00 -0.7 C 4.06 g/m*3 -0.7 C 1.6 km/h
547 04-02-2015 10:15:00 -0.7 C 4.06 g/m*3 -4.48 C 11.3 km/h
548 04-02-2015 10:20:00 -0.4 C 4.1 g/m*3 -4.12 C 11.3 km/h
549 04-02-2015 10:25:00 -0.3 C 4.13 g/m*3 -4.99 C 16.1 km/h
550 04-02-2015 10:30:00 -0.1 C 4.04 g/m*3 -4.74 C 16.1 km/h
Sensor: Nr:Datum:Temp:Abs-Feuchte:Windchill:Wind:
Aussen-T/F 551 04-02-2015 10:35:00 0.1 C 4.05 g/m*3 -4.2 C 14.5 km/h
552 04-02-2015 10:40:00 0.2 C 4.03 g/m*3 -4.37 C 16.1 km/h
553 04-02-2015 10:45:00 0.3 C 4.01 g/m*3 -4.51 C 17.7 km/h
554 04-02-2015 10:50:00 0.3 C 4.01 g/m*3 -4.24 C 16.1 km/h
555 04-02-2015 10:55:00 0.3 C 3.96 g/m*3 -3.28 C 11.3 km/h
556 04-02-2015 11:00:00 0.3 C 3.91 g/m*3 -3.95 C 14.5 km/h
557 04-02-2015 11:05:00 0.4 C 3.93 g/m*3 -2.3 C 8.1 km/h
558 04-02-2015 11:10:00 0.4 C 3.88 g/m*3 -3.83 C 14.5 km/h
559 04-02-2015 11:15:00 0.4 C 3.88 g/m*3 -2.76 C 9.7 km/h
560 04-02-2015 11:20:00 0.4 C 3.88 g/m*3 -4.39 C 17.7 km/h
561 04-02-2015 11:25:00 0.4 C 3.88 g/m*3 -3.83 C 14.5 km/h
562 04-02-2015 11:30:00 0.5 C 3.91 g/m*3 -3.39 C 12.9 km/h
563 04-02-2015 11:35:00 0.6 C 3.89 g/m*3 -2.92 C 11.3 km/h
564 04-02-2015 11:40:00 0.6 C 3.94 g/m*3 -3.27 C 12.9 km/h
565 04-02-2015 11:45:00 0.7 C 3.97 g/m*3 -2.4 C 9.7 km/h
566 04-02-2015 11:50:00 0.7 C 3.92 g/m*3 -2.8 C 11.3 km/h
567 04-02-2015 11:55:00 0.7 C 3.97 g/m*3 -2.8 C 11.3 km/h
568 04-02-2015 12:00:00 0.7 C 3.92 g/m*3 -3.46 C 14.5 km/h
569 04-02-2015 12:05:00 0.7 C 3.92 g/m*3 -2.8 C 11.3 km/h
570 04-02-2015 12:10:00 0.7 C 3.92 g/m*3 -3.15 C 12.9 km/h
571 04-02-2015 12:15:00 0.8 C 3.89 g/m*3 -3.62 C 16.1 km/h
572 04-02-2015 12:20:00 0.8 C 3.84 g/m*3 -2.28 C 9.7 km/h
573 04-02-2015 12:25:00 0.9 C 3.92 g/m*3 -3.5 C 16.1 km/h
574 04-02-2015 12:30:00 1 C 3.94 g/m*3 -4.11 C 20.9 km/h
575 04-02-2015 12:35:00 1.1 C 3.97 g/m*3 -1.92 C 9.7 km/h
Sensor: Nr:Datum:Temp:Abs-Feuchte:Windchill:Wind:
Aussen-T/F 576 04-02-2015 12:40:00 1.2 C 3.95 g/m*3 -1.8 C 9.7 km/h
577 04-02-2015 12:45:00 1.2 C 3.95 g/m*3 -1.8 C 9.7 km/h
578 04-02-2015 12:50:00 1.1 C 3.92 g/m*3 -1.48 C 8.1 km/h
579 04-02-2015 12:55:00 1.1 C 3.92 g/m*3 -1.92 C 9.7 km/h
580 04-02-2015 13:00:00 1.1 C 3.97 g/m*3 -1.92 C 9.7 km/h
581 04-02-2015 13:05:00 1.2 C 3.95 g/m*3 -1.36 C 8.1 km/h
582 04-02-2015 13:10:00 1.2 C 4 g/m*3 -2.19 C 11.3 km/h
583 04-02-2015 13:15:00 1.3 C 4.03 g/m*3 -3 C 16.1 km/h
584 04-02-2015 13:20:00 1.3 C 3.97 g/m*3 -0.68 C 6.4 km/h
585 04-02-2015 13:25:00 1.3 C 3.97 g/m*3 1.3 C 4.8 km/h
586 04-02-2015 13:30:00 1.4 C 4 g/m*3 -1.95 C 11.3 km/h
587 04-02-2015 13:35:00 1.5 C 4.03 g/m*3 -0.45 C 6.4 km/h
588 04-02-2015 13:40:00 1.6 C 4 g/m*3 1.6 C 4.8 km/h
589 04-02-2015 13:45:00 1.6 C 4.06 g/m*3 -2.35 C 14.5 km/h
590 04-02-2015 13:50:00 1.7 C 4.08 g/m*3 -1.21 C 9.7 km/h
591 04-02-2015 13:55:00 1.8 C 4.11 g/m*3 -1.47 C 11.3 km/h
592 04-02-2015 14:00:00 1.9 C 4.03 g/m*3 -0.97 C 9.7 km/h
593 04-02-2015 14:05:00 1.9 C 4.08 g/m*3 1.9 C 4.8 km/h
594 04-02-2015 14:10:00 1.9 C 4.03 g/m*3 1.9 C 4.8 km/h
595 04-02-2015 14:15:00 2.1 C 4.2 g/m*3 -0.73 C 9.7 km/h
596 04-02-2015 14:20:00 2.3 C 4.2 g/m*3 -0.87 C 11.3 km/h
597 04-02-2015 14:25:00 2.4 C 4.17 g/m*3 -0.37 C 9.7 km/h
598 04-02-2015 14:30:00 2.4 C 4.23 g/m*3 0.59 C 6.4 km/h
599 04-02-2015 14:35:00 2.6 C 4.34 g/m*3 -0.14 C 9.7 km/h
600 04-02-2015 14:40:00 2.7 C 4.31 g/m*3 -0.02 C 9.7 km/h
Sensor: Nr:Datum:Temp:Abs-Feuchte:Windchill:Wind:
Aussen-T/F 601 04-02-2015 14:45:00 2.7 C 4.25 g/m*3 0.4 C 8.1 km/h
602 04-02-2015 14:50:00 2.7 C 4.25 g/m*3 0.4 C 8.1 km/h
603 04-02-2015 14:55:00 2.8 C 4.28 g/m*3 0.52 C 8.1 km/h
604 04-02-2015 15:00:00 3 C 4.28 g/m*3 0.76 C 8.1 km/h
605 04-02-2015 15:05:00 3.2 C 4.28 g/m*3 0.99 C 8.1 km/h
606 04-02-2015 15:10:00 3.4 C 4.28 g/m*3 1.75 C 6.4 km/h
607 04-02-2015 15:15:00 3.4 C 4.28 g/m*3 0.46 C 11.3 km/h
608 04-02-2015 15:20:00 3.4 C 4.28 g/m*3 0.82 C 9.7 km/h
609 04-02-2015 15:25:00 3.4 C 4.28 g/m*3 0.14 C 12.9 km/h
610 04-02-2015 15:30:00 3.3 C 4.19 g/m*3 1.11 C 8.1 km/h
611 04-02-2015 15:35:00 3.2 C 4.22 g/m*3 0.99 C 8.1 km/h
612 04-02-2015 15:40:00 3.1 C 4.25 g/m*3 1.4 C 6.4 km/h
613 04-02-2015 15:45:00 2.9 C 4.25 g/m*3 0.22 C 9.7 km/h
614 04-02-2015 15:50:00 2.8 C 4.28 g/m*3 -0.26 C 11.3 km/h
615 04-02-2015 15:55:00 2.7 C 4.25 g/m*3 -0.02 C 9.7 km/h
616 04-02-2015 16:00:00 2.6 C 4.22 g/m*3 -0.5 C 11.3 km/h
617 04-02-2015 16:05:00 2.5 C 4.2 g/m*3 -0.95 C 12.9 km/h
618 04-02-2015 16:10:00 2.4 C 4.17 g/m*3 -0.37 C 9.7 km/h
619 04-02-2015 16:15:00 2.3 C 4.2 g/m*3 -0.07 C 8.1 km/h
620 04-02-2015 16:20:00 2.2 C 4.17 g/m*3 -0.61 C 9.7 km/h
621 04-02-2015 16:25:00 2.2 C 4.17 g/m*3 -0.61 C 9.7 km/h
622 04-02-2015 16:30:00 2.2 C 4.22 g/m*3 2.2 C 4.8 km/h
623 04-02-2015 16:35:00 2.1 C 4.2 g/m*3 2.1 C 4.8 km/h
624 04-02-2015 16:40:00 2 C 4.22 g/m*3 -0.85 C 9.7 km/h
625 04-02-2015 16:45:00 1.9 C 4.19 g/m*3 0.01 C 6.4 km/h
Sensor: Nr:Datum:Temp:Abs-Feuchte:Windchill:Wind:
Aussen-T/F 626 04-02-2015 16:50:00 1.8 C 4.22 g/m*3 1.8 C 4.8 km/h
627 04-02-2015 16:55:00 1.7 C 4.19 g/m*3 1.7 C 4.8 km/h
628 04-02-2015 17:00:00 1.6 C 4.16 g/m*3 1.6 C 0 km/h
629 04-02-2015 17:05:00 1.3 C 4.19 g/m*3 1.3 C 1.6 km/h
630 04-02-2015 17:10:00 1 C 4.2 g/m*3 1 C 0 km/h
631 04-02-2015 17:15:00 0.7 C 4.22 g/m*3 0.7 C 0 km/h
632 04-02-2015 17:20:00 0.5 C 4.21 g/m*3 0.5 C 0 km/h
633 04-02-2015 17:25:00 0.3 C 4.16 g/m*3 0.3 C 0 km/h
634 04-02-2015 17:30:00 0.2 C 4.18 g/m*3 0.2 C 3.2 km/h
635 04-02-2015 17:35:00 0.1 C 4.2 g/m*3 0.1 C 1.6 km/h
636 04-02-2015 17:40:00 0 C 4.17 g/m*3 0 C 0 km/h
637 04-02-2015 17:45:00 -0.1 C 4.14 g/m*3 -0.1 C 3.2 km/h
638 04-02-2015 17:50:00 -0.1 C 4.19 g/m*3 -0.1 C 1.6 km/h
639 04-02-2015 17:55:00 -0.2 C 4.16 g/m*3 -0.2 C 4.8 km/h
640 04-02-2015 18:00:00 -0.2 C 4.16 g/m*3 -0.2 C 4.8 km/h
641 04-02-2015 18:05:00 -0.2 C 4.16 g/m*3 -0.2 C 4.8 km/h
642 04-02-2015 18:10:00 -0.3 C 4.13 g/m*3 -0.3 C 4.8 km/h
643 04-02-2015 18:15:00 -0.3 C 4.18 g/m*3 -0.3 C 4.8 km/h
644 04-02-2015 18:20:00 -0.3 C 4.18 g/m*3 -0.3 C 4.8 km/h
645 04-02-2015 18:25:00 -0.4 C 4.15 g/m*3 -0.4 C 4.8 km/h
646 04-02-2015 18:30:00 -0.4 C 4.15 g/m*3 -0.4 C 4.8 km/h
647 04-02-2015 18:35:00 -0.5 C 4.12 g/m*3 -0.5 C 4.8 km/h
648 04-02-2015 18:40:00 -0.6 C 4.09 g/m*3 -0.6 C 3.2 km/h
649 04-02-2015 18:45:00 -0.6 C 4.09 g/m*3 -0.6 C 4.8 km/h
650 04-02-2015 18:50:00 -0.6 C 4.09 g/m*3 -0.6 C 3.2 km/h
Sensor: Nr:Datum:Temp:Abs-Feuchte:Windchill:Wind:
Aussen-T/F 651 04-02-2015 18:55:00 -0.7 C 4.06 g/m*3 -0.7 C 3.2 km/h
652 04-02-2015 19:00:00 -0.7 C 4.11 g/m*3 -0.7 C 3.2 km/h
653 04-02-2015 19:05:00 -0.8 C 4.08 g/m*3 -0.8 C 3.2 km/h
654 04-02-2015 19:10:00 -0.9 C 4.05 g/m*3 -0.9 C 3.2 km/h
655 04-02-2015 19:15:00 -1 C 4.07 g/m*3 -1 C 3.2 km/h
656 04-02-2015 19:20:00 -1.1 C 4.09 g/m*3 -1.1 C 0 km/h
657 04-02-2015 19:25:00 -1.1 C 4.09 g/m*3 -1.1 C 3.2 km/h
658 04-02-2015 19:30:00 -1.2 C 4.06 g/m*3 -1.2 C 1.6 km/h
659 04-02-2015 19:35:00 -1.2 C 4.06 g/m*3 -1.2 C 1.6 km/h
660 04-02-2015 19:40:00 -1.2 C 4.06 g/m*3 -1.2 C 1.6 km/h
661 04-02-2015 19:45:00 -1.3 C 4.03 g/m*3 -1.3 C 0 km/h
662 04-02-2015 19:50:00 -1.4 C 4 g/m*3 -1.4 C 0 km/h
663 04-02-2015 19:55:00 -1.4 C 4.04 g/m*3 -1.4 C 0 km/h
664 04-02-2015 20:00:00 -1.4 C 4.04 g/m*3 -1.4 C 0 km/h
665 04-02-2015 20:05:00 -1.5 C 4.02 g/m*3 -1.5 C 0 km/h
666 04-02-2015 20:10:00 -1.5 C 4.02 g/m*3 -1.5 C 0 km/h
667 04-02-2015 20:15:00 -1.6 C 3.99 g/m*3 -1.6 C 0 km/h
668 04-02-2015 20:20:00 -1.6 C 3.99 g/m*3 -1.6 C 0 km/h
669 04-02-2015 20:25:00 -1.6 C 3.99 g/m*3 -1.6 C 0 km/h
670 04-02-2015 20:30:00 -1.7 C 3.96 g/m*3 -1.7 C 0 km/h
671 04-02-2015 20:35:00 -1.7 C 4 g/m*3 -1.7 C 0 km/h
672 04-02-2015 20:40:00 -1.7 C 4 g/m*3 -1.7 C 0 km/h
673 04-02-2015 20:45:00 -1.7 C 4 g/m*3 -1.7 C 0 km/h
674 04-02-2015 20:50:00 -1.8 C 3.98 g/m*3 -1.8 C 0 km/h
675 04-02-2015 20:55:00 -1.8 C 3.98 g/m*3 -1.8 C 0 km/h
Sensor: Nr:Datum:Temp:Abs-Feuchte:Windchill:Wind:
Aussen-T/F 676 04-02-2015 21:00:00 -1.8 C 3.98 g/m*3 -1.8 C 0 km/h
677 04-02-2015 21:05:00 -1.8 C 3.98 g/m*3 -1.8 C 0 km/h
678 04-02-2015 21:10:00 -1.8 C 3.98 g/m*3 -1.8 C 0 km/h
679 04-02-2015 21:15:00 -1.9 C 3.95 g/m*3 -1.9 C 0 km/h
680 04-02-2015 21:20:00 -1.9 C 3.95 g/m*3 -1.9 C 0 km/h
681 04-02-2015 21:25:00 -2.1 C 3.89 g/m*3 -2.1 C 0 km/h
682 04-02-2015 21:30:00 -2.2 C 3.87 g/m*3 -2.2 C 0 km/h
683 04-02-2015 21:35:00 -2.2 C 3.87 g/m*3 -2.2 C 0 km/h
684 04-02-2015 21:40:00 -2.2 C 3.87 g/m*3 -2.2 C 0 km/h
685 04-02-2015 21:45:00 -2.2 C 3.87 g/m*3 -2.2 C 0 km/h
686 04-02-2015 21:50:00 -2.3 C 3.84 g/m*3 -2.3 C 0 km/h
687 04-02-2015 21:55:00 -2.3 C 3.88 g/m*3 -2.3 C 0 km/h
688 04-02-2015 22:00:00 -2.3 C 3.88 g/m*3 -2.3 C 0 km/h
689 04-02-2015 22:05:00 -2.3 C 3.88 g/m*3 -2.3 C 0 km/h
690 04-02-2015 22:10:00 -2.3 C 3.88 g/m*3 -2.3 C 1.6 km/h
691 04-02-2015 22:15:00 -2.4 C 3.85 g/m*3 -2.4 C 0 km/h
692 04-02-2015 22:20:00 -2.4 C 3.85 g/m*3 -2.4 C 0 km/h
693 04-02-2015 22:25:00 -2.4 C 3.85 g/m*3 -2.4 C 0 km/h
694 04-02-2015 22:30:00 -2.5 C 3.83 g/m*3 -2.5 C 0 km/h
695 04-02-2015 22:35:00 -2.5 C 3.83 g/m*3 -2.5 C 0 km/h
696 04-02-2015 22:40:00 -2.6 C 3.8 g/m*3 -2.6 C 0 km/h
697 04-02-2015 22:45:00 -2.6 C 3.8 g/m*3 -2.6 C 0 km/h
698 04-02-2015 22:50:00 -2.6 C 3.8 g/m*3 -2.6 C 0 km/h
699 04-02-2015 22:55:00 -2.6 C 3.8 g/m*3 -2.6 C 0 km/h
700 04-02-2015 23:00:00 -2.6 C 3.8 g/m*3 -2.6 C 0 km/h
Sensor: Nr:Datum:Temp:Abs-Feuchte:Windchill:Wind:
Aussen-T/F 701 04-02-2015 23:05:00 -2.6 C 3.8 g/m*3 -2.6 C 0 km/h
702 04-02-2015 23:10:00 -2.6 C 3.8 g/m*3 -2.6 C 0 km/h
703 04-02-2015 23:15:00 -2.6 C 3.8 g/m*3 -2.6 C 0 km/h
704 04-02-2015 23:20:00 -2.6 C 3.8 g/m*3 -2.6 C 0 km/h
705 04-02-2015 23:25:00 -2.7 C 3.77 g/m*3 -2.7 C 0 km/h
706 04-02-2015 23:30:00 -2.7 C 3.77 g/m*3 -2.7 C 3.2 km/h
707 04-02-2015 23:35:00 -2.6 C 3.84 g/m*3 -2.6 C 3.2 km/h
708 04-02-2015 23:40:00 -2.6 C 3.84 g/m*3 -2.6 C 0 km/h
709 04-02-2015 23:45:00 -2.6 C 3.8 g/m*3 -2.6 C 0 km/h
710 04-02-2015 23:50:00 -2.7 C 3.77 g/m*3 -2.7 C 3.2 km/h
711 04-02-2015 23:55:00 -2.6 C 3.8 g/m*3 -2.6 C 1.6 km/h
712 05-02-2015 00:00:00 -2.6 C 3.84 g/m*3 -2.6 C 1.6 km/h
713 05-02-2015 00:05:00 -2.6 C 3.8 g/m*3 -2.6 C 1.6 km/h
714 05-02-2015 00:10:00 -2.7 C 3.77 g/m*3 -2.7 C 1.6 km/h
715 05-02-2015 00:15:00 -2.7 C 3.77 g/m*3 -2.7 C 1.6 km/h
716 05-02-2015 00:20:00 -2.8 C 3.75 g/m*3 -2.8 C 1.6 km/h
717 05-02-2015 00:25:00 -2.8 C 3.75 g/m*3 -2.8 C 1.6 km/h
718 05-02-2015 00:30:00 -2.9 C 3.72 g/m*3 -2.9 C 1.6 km/h
719 05-02-2015 00:35:00 -3 C 3.69 g/m*3 -3 C 3.2 km/h
720 05-02-2015 00:40:00 -3 C 3.69 g/m*3 -3 C 1.6 km/h
721 05-02-2015 00:45:00 -3 C 3.69 g/m*3 -3 C 0 km/h
722 05-02-2015 00:50:00 -3.1 C 3.67 g/m*3 -3.1 C 0 km/h
723 05-02-2015 00:55:00 -3.2 C 3.64 g/m*3 -3.2 C 1.6 km/h
724 05-02-2015 01:00:00 -3.2 C 3.68 g/m*3 -3.2 C 1.6 km/h
725 05-02-2015 01:05:00 -3.2 C 3.68 g/m*3 -3.2 C 0 km/h
Sensor: Nr:Datum:Temp:Abs-Feuchte:Windchill:Wind:
Aussen-T/F 726 05-02-2015 01:10:00 -3.2 C 3.64 g/m*3 -3.2 C 0 km/h
727 05-02-2015 01:15:00 -3.3 C 3.65 g/m*3 -3.3 C 0 km/h
728 05-02-2015 01:20:00 -3.3 C 3.61 g/m*3 -3.3 C 0 km/h
729 05-02-2015 01:25:00 -3.3 C 3.65 g/m*3 -3.3 C 1.6 km/h
730 05-02-2015 01:30:00 -3.4 C 3.63 g/m*3 -3.4 C 0 km/h
731 05-02-2015 01:35:00 -3.4 C 3.63 g/m*3 -3.4 C 0 km/h
732 05-02-2015 01:40:00 -3.5 C 3.6 g/m*3 -3.5 C 0 km/h
733 05-02-2015 01:45:00 -3.6 C 3.54 g/m*3 -3.6 C 0 km/h
734 05-02-2015 01:50:00 -3.6 C 3.58 g/m*3 -3.6 C 0 km/h
735 05-02-2015 01:55:00 -3.7 C 3.55 g/m*3 -3.7 C 0 km/h
736 05-02-2015 02:00:00 -3.7 C 3.55 g/m*3 -3.7 C 0 km/h
737 05-02-2015 02:05:00 -3.7 C 3.55 g/m*3 -3.7 C 0 km/h
738 05-02-2015 02:10:00 -3.8 C 3.53 g/m*3 -3.8 C 0 km/h
739 05-02-2015 02:15:00 -3.8 C 3.53 g/m*3 -3.8 C 0 km/h
740 05-02-2015 02:20:00 -3.7 C 3.55 g/m*3 -3.7 C 0 km/h
741 05-02-2015 02:25:00 -3.8 C 3.53 g/m*3 -3.8 C 1.6 km/h
742 05-02-2015 02:30:00 -3.8 C 3.53 g/m*3 -3.8 C 0 km/h
743 05-02-2015 02:35:00 -3.8 C 3.53 g/m*3 -3.8 C 1.6 km/h
744 05-02-2015 02:40:00 -3.7 C 3.55 g/m*3 -3.7 C 1.6 km/h
745 05-02-2015 02:45:00 -3.7 C 3.55 g/m*3 -3.7 C 3.2 km/h
746 05-02-2015 02:50:00 -3.5 C 3.6 g/m*3 -3.5 C 4.8 km/h
747 05-02-2015 02:55:00 -3.5 C 3.6 g/m*3 -3.5 C 4.8 km/h
748 05-02-2015 03:00:00 -3.6 C 3.58 g/m*3 -3.6 C 3.2 km/h
749 05-02-2015 03:05:00 -3.6 C 3.54 g/m*3 -3.6 C 3.2 km/h
750 05-02-2015 03:10:00 -3.6 C 3.54 g/m*3 -3.6 C 3.2 km/h
Sensor: Nr:Datum:Temp:Abs-Feuchte:Windchill:Wind:
Aussen-T/F 751 05-02-2015 03:15:00 -3.7 C 3.51 g/m*3 -3.7 C 3.2 km/h
752 05-02-2015 03:20:00 -3.7 C 3.51 g/m*3 -3.7 C 3.2 km/h
753 05-02-2015 03:25:00 -3.8 C 3.49 g/m*3 -3.8 C 3.2 km/h
754 05-02-2015 03:30:00 -3.8 C 3.49 g/m*3 -3.8 C 4.8 km/h
755 05-02-2015 03:35:00 -3.8 C 3.49 g/m*3 -3.8 C 4.8 km/h
756 05-02-2015 03:40:00 -3.8 C 3.49 g/m*3 -3.8 C 3.2 km/h
757 05-02-2015 03:45:00 -3.9 C 3.43 g/m*3 -3.9 C 0 km/h
758 05-02-2015 03:50:00 -3.9 C 3.43 g/m*3 -3.9 C 1.6 km/h
759 05-02-2015 03:55:00 -4 C 3.4 g/m*3 -4 C 0 km/h
760 05-02-2015 04:00:00 -4.1 C 3.38 g/m*3 -4.1 C 1.6 km/h
761 05-02-2015 04:05:00 -4.2 C 3.35 g/m*3 -4.2 C 0 km/h
762 05-02-2015 04:10:00 -4.2 C 3.35 g/m*3 -4.2 C 3.2 km/h
763 05-02-2015 04:15:00 -4.2 C 3.35 g/m*3 -4.2 C 1.6 km/h
764 05-02-2015 04:20:00 -4.2 C 3.39 g/m*3 -4.2 C 4.8 km/h
765 05-02-2015 04:25:00 -4.2 C 3.39 g/m*3 -4.2 C 4.8 km/h
766 05-02-2015 04:30:00 -4.2 C 3.39 g/m*3 -4.2 C 3.2 km/h
767 05-02-2015 04:35:00 -4.2 C 3.39 g/m*3 -4.2 C 0 km/h
768 05-02-2015 04:40:00 -4.2 C 3.39 g/m*3 -4.2 C 3.2 km/h
769 05-02-2015 04:45:00 -4.2 C 3.39 g/m*3 -4.2 C 3.2 km/h
770 05-02-2015 04:50:00 -4.2 C 3.39 g/m*3 -4.2 C 1.6 km/h
771 05-02-2015 04:55:00 -4.2 C 3.39 g/m*3 -4.2 C 3.2 km/h
772 05-02-2015 05:00:00 -4.2 C 3.39 g/m*3 -4.2 C 4.8 km/h
773 05-02-2015 05:05:00 -4.3 C 3.33 g/m*3 -4.3 C 3.2 km/h
774 05-02-2015 05:10:00 -4.2 C 3.39 g/m*3 -4.2 C 3.2 km/h
775 05-02-2015 05:15:00 -4.2 C 3.39 g/m*3 -4.2 C 1.6 km/h
Sensor: Nr:Datum:Temp:Abs-Feuchte:Windchill:Wind:
Aussen-T/F 776 05-02-2015 05:20:00 -4.3 C 3.33 g/m*3 -4.3 C 1.6 km/h
777 05-02-2015 05:25:00 -4.3 C 3.33 g/m*3 -4.3 C 0 km/h
778 05-02-2015 05:30:00 -4.4 C 3.31 g/m*3 -4.4 C 0 km/h
779 05-02-2015 05:35:00 -4.4 C 3.31 g/m*3 -4.4 C 0 km/h
780 05-02-2015 05:40:00 -4.4 C 3.31 g/m*3 -4.4 C 0 km/h
781 05-02-2015 05:45:00 -4.4 C 3.31 g/m*3 -4.4 C 0 km/h
782 05-02-2015 05:50:00 -4.5 C 3.28 g/m*3 -4.5 C 0 km/h
783 05-02-2015 05:55:00 -4.6 C 3.26 g/m*3 -4.6 C 0 km/h
784 05-02-2015 06:00:00 -4.6 C 3.26 g/m*3 -4.6 C 0 km/h
785 05-02-2015 06:05:00 -4.6 C 3.26 g/m*3 -4.6 C 0 km/h
786 05-02-2015 06:10:00 -4.7 C 3.24 g/m*3 -4.7 C 0 km/h
787 05-02-2015 06:15:00 -4.7 C 3.24 g/m*3 -4.7 C 0 km/h
788 05-02-2015 06:20:00 -4.7 C 3.24 g/m*3 -4.7 C 0 km/h
789 05-02-2015 06:25:00 -4.7 C 3.27 g/m*3 -4.7 C 0 km/h
790 05-02-2015 06:30:00 -4.6 C 3.29 g/m*3 -4.6 C 1.6 km/h
791 05-02-2015 06:35:00 -4.6 C 3.29 g/m*3 -4.6 C 0 km/h
792 05-02-2015 06:40:00 -4.5 C 3.32 g/m*3 -4.5 C 0 km/h
793 05-02-2015 06:45:00 -4.4 C 3.34 g/m*3 -4.4 C 0 km/h
794 05-02-2015 06:50:00 -4.4 C 3.34 g/m*3 -4.4 C 0 km/h
795 05-02-2015 06:55:00 -4.3 C 3.37 g/m*3 -4.3 C 0 km/h
796 05-02-2015 07:00:00 -4.3 C 3.37 g/m*3 -4.3 C 0 km/h
797 05-02-2015 07:05:00 -4.3 C 3.37 g/m*3 -4.3 C 0 km/h
798 05-02-2015 07:10:00 -4.2 C 3.43 g/m*3 -4.2 C 0 km/h
799 05-02-2015 07:15:00 -4.1 C 3.45 g/m*3 -4.1 C 0 km/h
800 05-02-2015 07:20:00 -3.9 C 3.5 g/m*3 -3.9 C 0 km/h
Sensor: Nr:Datum:Temp:Abs-Feuchte:Windchill:Wind:
Aussen-T/F 801 05-02-2015 07:25:00 -3.8 C 3.53 g/m*3 -3.8 C 0 km/h
802 05-02-2015 07:30:00 -3.8 C 3.49 g/m*3 -3.8 C 0 km/h
803 05-02-2015 07:35:00 -3.8 C 3.49 g/m*3 -3.8 C 0 km/h
804 05-02-2015 07:40:00 -3.7 C 3.51 g/m*3 -3.7 C 3.2 km/h
805 05-02-2015 07:45:00 -3.7 C 3.51 g/m*3 -3.7 C 1.6 km/h
806 05-02-2015 07:50:00 -3.6 C 3.54 g/m*3 -3.6 C 1.6 km/h
807 05-02-2015 07:55:00 -3.6 C 3.54 g/m*3 -3.6 C 1.6 km/h
808 05-02-2015 17:00:00 1.1 C 3.66 g/m*3 -3.25 C 16.1 km/h
809 05-02-2015 17:05:00 1 C 3.63 g/m*3 -3.09 C 14.5 km/h
810 05-02-2015 17:10:00 0.9 C 3.61 g/m*3 -2.9 C 12.9 km/h
811 05-02-2015 17:15:00 0.9 C 3.61 g/m*3 -3.5 C 16.1 km/h
812 05-02-2015 17:20:00 0.8 C 3.58 g/m*3 -3.62 C 16.1 km/h
813 05-02-2015 17:25:00 0.8 C 3.58 g/m*3 -4.77 C 24.1 km/h
814 05-02-2015 17:30:00 0.8 C 3.63 g/m*3 -3.02 C 12.9 km/h
815 05-02-2015 17:35:00 0.7 C 3.66 g/m*3 -4.01 C 17.7 km/h
816 05-02-2015 17:40:00 0.7 C 3.66 g/m*3 -2.4 C 9.7 km/h
817 05-02-2015 17:45:00 0.7 C 3.66 g/m*3 -3.15 C 12.9 km/h
818 05-02-2015 17:50:00 0.7 C 3.66 g/m*3 -3.15 C 12.9 km/h
819 05-02-2015 17:55:00 0.7 C 3.66 g/m*3 -1.95 C 8.1 km/h
820 05-02-2015 18:00:00 0.7 C 3.66 g/m*3 -2.4 C 9.7 km/h
821 05-02-2015 18:05:00 0.7 C 3.71 g/m*3 -3.46 C 14.5 km/h
822 05-02-2015 18:10:00 0.7 C 3.71 g/m*3 -3.75 C 16.1 km/h
823 05-02-2015 18:15:00 0.7 C 3.66 g/m*3 -3.75 C 16.1 km/h
824 05-02-2015 18:20:00 0.7 C 3.66 g/m*3 -3.46 C 14.5 km/h
825 05-02-2015 18:25:00 0.7 C 3.66 g/m*3 -4.01 C 17.7 km/h
Sensor: Nr:Datum:Temp:Abs-Feuchte:Windchill:Wind:
Aussen-T/F 826 05-02-2015 18:30:00 0.7 C 3.71 g/m*3 -3.46 C 14.5 km/h
827 05-02-2015 18:35:00 0.6 C 3.64 g/m*3 -3.58 C 14.5 km/h
828 05-02-2015 18:40:00 0.6 C 3.64 g/m*3 -3.27 C 12.9 km/h
829 05-02-2015 18:45:00 0.6 C 3.64 g/m*3 -3.27 C 12.9 km/h
830 05-02-2015 18:50:00 0.6 C 3.64 g/m*3 -3.58 C 14.5 km/h
831 05-02-2015 18:55:00 0.6 C 3.69 g/m*3 -2.06 C 8.1 km/h
832 05-02-2015 19:00:00 0.5 C 3.66 g/m*3 -3.04 C 11.3 km/h
833 05-02-2015 19:05:00 0.5 C 3.71 g/m*3 -3.04 C 11.3 km/h
834 05-02-2015 19:10:00 0.4 C 3.69 g/m*3 -3.16 C 11.3 km/h
835 05-02-2015 19:15:00 0.4 C 3.74 g/m*3 -2.76 C 9.7 km/h
836 05-02-2015 19:20:00 0.4 C 3.74 g/m*3 -3.16 C 11.3 km/h
837 05-02-2015 19:25:00 0.4 C 3.74 g/m*3 -2.3 C 8.1 km/h
838 05-02-2015 19:30:00 0.4 C 3.69 g/m*3 -3.16 C 11.3 km/h
839 05-02-2015 19:35:00 0.5 C 3.66 g/m*3 -3.71 C 14.5 km/h
840 05-02-2015 19:40:00 0.6 C 3.69 g/m*3 -3.87 C 16.1 km/h
841 05-02-2015 19:45:00 0.6 C 3.69 g/m*3 -4.14 C 17.7 km/h
842 05-02-2015 19:50:00 0.6 C 3.69 g/m*3 -2.52 C 9.7 km/h
843 05-02-2015 19:55:00 0.6 C 3.69 g/m*3 -2.92 C 11.3 km/h
844 05-02-2015 20:00:00 0.6 C 3.69 g/m*3 -2.06 C 8.1 km/h
845 05-02-2015 20:05:00 0.6 C 3.64 g/m*3 -3.27 C 12.9 km/h
846 05-02-2015 20:10:00 0.7 C 3.66 g/m*3 -2.8 C 11.3 km/h
847 05-02-2015 20:15:00 0.7 C 3.61 g/m*3 -2.4 C 9.7 km/h
848 05-02-2015 20:20:00 0.7 C 3.56 g/m*3 -3.15 C 12.9 km/h
849 05-02-2015 20:25:00 0.7 C 3.56 g/m*3 -3.46 C 14.5 km/h
850 05-02-2015 20:30:00 0.7 C 3.56 g/m*3 -3.75 C 16.1 km/h
Sensor: Nr:Datum:Temp:Abs-Feuchte:Windchill:Wind:
Aussen-T/F 851 05-02-2015 20:35:00 0.7 C 3.51 g/m*3 -3.75 C 16.1 km/h
852 05-02-2015 20:40:00 0.6 C 3.48 g/m*3 -4.61 C 20.9 km/h
853 05-02-2015 20:45:00 0.5 C 3.51 g/m*3 -2.64 C 9.7 km/h
854 05-02-2015 20:50:00 0.5 C 3.51 g/m*3 -3.39 C 12.9 km/h
855 05-02-2015 20:55:00 0.5 C 3.51 g/m*3 -4.51 C 19.3 km/h
856 05-02-2015 21:00:00 0.4 C 3.49 g/m*3 -3.51 C 12.9 km/h
857 05-02-2015 21:05:00 0.5 C 3.51 g/m*3 -3.71 C 14.5 km/h
858 05-02-2015 21:10:00 0.4 C 3.49 g/m*3 -4.12 C 16.1 km/h
859 05-02-2015 21:15:00 0.4 C 3.49 g/m*3 -3.83 C 14.5 km/h
860 05-02-2015 21:20:00 0.3 C 3.51 g/m*3 -3.28 C 11.3 km/h
861 05-02-2015 21:25:00 0.3 C 3.51 g/m*3 -2.42 C 8.1 km/h
862 05-02-2015 21:30:00 0.3 C 3.51 g/m*3 -3.63 C 12.9 km/h
863 05-02-2015 21:35:00 0.3 C 3.51 g/m*3 -3.95 C 14.5 km/h
864 05-02-2015 21:40:00 0.3 C 3.46 g/m*3 -3.63 C 12.9 km/h
865 05-02-2015 21:45:00 0.3 C 3.46 g/m*3 -3.63 C 12.9 km/h
866 05-02-2015 21:50:00 0.2 C 3.49 g/m*3 -4.89 C 19.3 km/h
867 05-02-2015 21:55:00 0.2 C 3.49 g/m*3 -3.4 C 11.3 km/h
868 05-02-2015 22:00:00 0.2 C 3.49 g/m*3 -2.53 C 8.1 km/h
869 05-02-2015 22:05:00 0.1 C 3.46 g/m*3 -3.52 C 11.3 km/h
870 05-02-2015 22:10:00 0.1 C 3.46 g/m*3 -3.52 C 11.3 km/h
871 05-02-2015 22:15:00 0.1 C 3.46 g/m*3 -5.25 C 20.9 km/h
872 05-02-2015 22:20:00 0.1 C 3.46 g/m*3 -3.12 C 9.7 km/h
873 05-02-2015 22:25:00 0 C 3.44 g/m*3 -2.77 C 8.1 km/h
874 05-02-2015 22:30:00 0 C 3.49 g/m*3 -3.64 C 11.3 km/h
875 05-02-2015 22:35:00 -0.1 C 3.46 g/m*3 -3.76 C 11.3 km/h
Sensor: Nr:Datum:Temp:Abs-Feuchte:Windchill:Wind:
Aussen-T/F 876 05-02-2015 22:40:00 -0.1 C 3.46 g/m*3 -4.12 C 12.9 km/h
877 05-02-2015 22:45:00 -0.1 C 3.46 g/m*3 -4.12 C 12.9 km/h
878 05-02-2015 22:50:00 -0.1 C 3.51 g/m*3 -3.35 C 9.7 km/h
879 05-02-2015 22:55:00 -0.1 C 3.51 g/m*3 -0.1 C 4.8 km/h
880 05-02-2015 23:00:00 -0.2 C 3.49 g/m*3 -0.2 C 4.8 km/h
881 05-02-2015 23:05:00 -0.2 C 3.49 g/m*3 -4.86 C 16.1 km/h
882 05-02-2015 23:10:00 -0.2 C 3.54 g/m*3 -3 C 8.1 km/h
883 05-02-2015 23:15:00 -0.2 C 3.54 g/m*3 -0.2 C 3.2 km/h
884 05-02-2015 23:20:00 -0.2 C 3.54 g/m*3 -0.2 C 3.2 km/h
885 05-02-2015 23:25:00 -0.2 C 3.54 g/m*3 -3.47 C 9.7 km/h
886 05-02-2015 23:30:00 -0.2 C 3.54 g/m*3 -4.57 C 14.5 km/h
887 05-02-2015 23:35:00 -0.2 C 3.54 g/m*3 -3.47 C 9.7 km/h
888 05-02-2015 23:40:00 -0.2 C 3.54 g/m*3 -3.88 C 11.3 km/h
889 05-02-2015 23:45:00 -0.2 C 3.54 g/m*3 -4.24 C 12.9 km/h
890 05-02-2015 23:50:00 -0.2 C 3.54 g/m*3 -3.47 C 9.7 km/h
891 05-02-2015 23:55:00 -0.2 C 3.54 g/m*3 -3 C 8.1 km/h
892 06-02-2015 00:00:00 -0.2 C 3.54 g/m*3 -2.41 C 6.4 km/h
893 06-02-2015 00:05:00 -0.2 C 3.54 g/m*3 -3.47 C 9.7 km/h
894 06-02-2015 00:10:00 -0.1 C 3.56 g/m*3 -2.89 C 8.1 km/h
895 06-02-2015 00:15:00 -0.1 C 3.56 g/m*3 -2.89 C 8.1 km/h
896 06-02-2015 00:20:00 -0.1 C 3.56 g/m*3 -4.12 C 12.9 km/h
897 06-02-2015 00:25:00 -0.1 C 3.56 g/m*3 -4.12 C 12.9 km/h
898 06-02-2015 00:30:00 0 C 3.59 g/m*3 -3.23 C 9.7 km/h
899 06-02-2015 00:35:00 0 C 3.59 g/m*3 -4 C 12.9 km/h
900 06-02-2015 00:40:00 -0.1 C 3.56 g/m*3 -2.3 C 6.4 km/h
Sensor: Nr:Datum:Temp:Abs-Feuchte:Windchill:Wind:
Aussen-T/F 901 06-02-2015 00:45:00 -0.1 C 3.56 g/m*3 -2.89 C 8.1 km/h
902 06-02-2015 00:50:00 0 C 3.59 g/m*3 -3.23 C 9.7 km/h
903 06-02-2015 00:55:00 0 C 3.59 g/m*3 -3.23 C 9.7 km/h
904 06-02-2015 01:00:00 0 C 3.59 g/m*3 -5.8 C 24.1 km/h
905 06-02-2015 01:05:00 0 C 3.59 g/m*3 -5.37 C 20.9 km/h
906 06-02-2015 01:10:00 0 C 3.59 g/m*3 -3.64 C 11.3 km/h
907 06-02-2015 01:15:00 0 C 3.59 g/m*3 -4.62 C 16.1 km/h
908 06-02-2015 01:20:00 -0.1 C 3.56 g/m*3 -4.12 C 12.9 km/h
909 06-02-2015 01:25:00 -0.1 C 3.56 g/m*3 -4.44 C 14.5 km/h
910 06-02-2015 01:30:00 -0.1 C 3.56 g/m*3 -5.26 C 19.3 km/h
911 06-02-2015 01:35:00 -0.1 C 3.56 g/m*3 -2.89 C 8.1 km/h
912 06-02-2015 01:40:00 -0.1 C 3.56 g/m*3 -5.26 C 19.3 km/h
913 06-02-2015 01:45:00 -0.1 C 3.56 g/m*3 -2.89 C 8.1 km/h
914 06-02-2015 01:50:00 -0.1 C 3.56 g/m*3 -2.89 C 8.1 km/h
915 06-02-2015 01:55:00 -0.1 C 3.61 g/m*3 -2.3 C 6.4 km/h
916 06-02-2015 02:00:00 -0.1 C 3.61 g/m*3 -4.44 C 14.5 km/h
917 06-02-2015 02:05:00 -0.1 C 3.61 g/m*3 -3.76 C 11.3 km/h
918 06-02-2015 02:10:00 -0.1 C 3.61 g/m*3 -2.89 C 8.1 km/h
919 06-02-2015 02:15:00 -0.1 C 3.61 g/m*3 -4.12 C 12.9 km/h
920 06-02-2015 02:20:00 -0.1 C 3.56 g/m*3 -4.12 C 12.9 km/h
921 06-02-2015 02:25:00 -0.1 C 3.56 g/m*3 -2.3 C 6.4 km/h
922 06-02-2015 02:30:00 -0.1 C 3.56 g/m*3 -3.76 C 11.3 km/h
923 06-02-2015 02:35:00 -0.1 C 3.56 g/m*3 -3.35 C 9.7 km/h
924 06-02-2015 02:40:00 -0.1 C 3.61 g/m*3 -4.12 C 12.9 km/h
925 06-02-2015 02:45:00 -0.1 C 3.61 g/m*3 -3.35 C 9.7 km/h
Sensor: Nr:Datum:Temp:Abs-Feuchte:Windchill:Wind:
Aussen-T/F 926 06-02-2015 02:50:00 -0.1 C 3.61 g/m*3 -3.35 C 9.7 km/h
927 06-02-2015 02:55:00 -0.2 C 3.58 g/m*3 -3 C 8.1 km/h
928 06-02-2015 03:00:00 -0.2 C 3.54 g/m*3 -4.86 C 16.1 km/h
929 06-02-2015 03:05:00 -0.3 C 3.51 g/m*3 -0.3 C 4.8 km/h
930 06-02-2015 03:10:00 -0.4 C 3.49 g/m*3 -0.4 C 4.8 km/h
931 06-02-2015 03:15:00 -0.4 C 3.44 g/m*3 -6.31 C 24.1 km/h
932 06-02-2015 03:20:00 -0.5 C 3.46 g/m*3 -0.5 C 3.2 km/h
933 06-02-2015 03:25:00 -0.5 C 3.46 g/m*3 -5.24 C 16.1 km/h
934 06-02-2015 03:30:00 -0.6 C 3.39 g/m*3 -4.73 C 12.9 km/h
935 06-02-2015 03:35:00 -0.7 C 3.42 g/m*3 -0.7 C 4.8 km/h
936 06-02-2015 03:40:00 -0.7 C 3.42 g/m*3 -0.7 C 4.8 km/h
937 06-02-2015 03:45:00 -0.8 C 3.44 g/m*3 -3.71 C 8.1 km/h
938 06-02-2015 03:50:00 -0.8 C 3.44 g/m*3 -4.97 C 12.9 km/h
939 06-02-2015 03:55:00 -0.7 C 3.46 g/m*3 -4.07 C 9.7 km/h
940 06-02-2015 04:00:00 -0.7 C 3.46 g/m*3 -0.7 C 4.8 km/h
941 06-02-2015 04:05:00 -0.8 C 3.44 g/m*3 -3.11 C 6.4 km/h
942 06-02-2015 04:10:00 -0.7 C 3.46 g/m*3 -0.7 C 1.6 km/h
943 06-02-2015 04:15:00 -0.7 C 3.46 g/m*3 -0.7 C 3.2 km/h
944 06-02-2015 04:20:00 -0.7 C 3.42 g/m*3 -4.48 C 11.3 km/h
945 06-02-2015 04:25:00 -0.6 C 3.44 g/m*3 -5.06 C 14.5 km/h
946 06-02-2015 04:30:00 -0.5 C 3.46 g/m*3 -4.94 C 14.5 km/h
947 06-02-2015 04:35:00 -0.4 C 3.49 g/m*3 -3.71 C 9.7 km/h
948 06-02-2015 04:40:00 -0.4 C 3.49 g/m*3 -3.71 C 9.7 km/h
949 06-02-2015 04:45:00 -0.4 C 3.49 g/m*3 -2.64 C 6.4 km/h
950 06-02-2015 04:50:00 -0.4 C 3.49 g/m*3 -4.49 C 12.9 km/h
Sensor: Nr:Datum:Temp:Abs-Feuchte:Windchill:Wind:
Aussen-T/F 951 06-02-2015 04:55:00 -0.4 C 3.49 g/m*3 -0.4 C 4.8 km/h
952 06-02-2015 05:00:00 -0.4 C 3.49 g/m*3 -4.49 C 12.9 km/h
953 06-02-2015 05:05:00 -0.4 C 3.49 g/m*3 -3.24 C 8.1 km/h
954 06-02-2015 05:10:00 -0.3 C 3.51 g/m*3 -4.36 C 12.9 km/h
955 06-02-2015 05:15:00 -0.3 C 3.51 g/m*3 -3.59 C 9.7 km/h
956 06-02-2015 05:20:00 -0.4 C 3.49 g/m*3 -4.12 C 11.3 km/h
957 06-02-2015 05:25:00 -0.4 C 3.49 g/m*3 -2.64 C 6.4 km/h
958 06-02-2015 05:30:00 -0.4 C 3.49 g/m*3 -0.4 C 3.2 km/h
959 06-02-2015 05:35:00 -0.4 C 3.49 g/m*3 -3.71 C 9.7 km/h
960 06-02-2015 05:40:00 -0.4 C 3.49 g/m*3 -2.64 C 6.4 km/h
961 06-02-2015 05:45:00 -0.5 C 3.46 g/m*3 -5.51 C 17.7 km/h
962 06-02-2015 05:50:00 -0.5 C 3.51 g/m*3 -0.5 C 4.8 km/h
963 06-02-2015 05:55:00 -0.5 C 3.51 g/m*3 -4.61 C 12.9 km/h
964 06-02-2015 06:00:00 -0.5 C 3.46 g/m*3 -3.83 C 9.7 km/h
965 06-02-2015 06:05:00 -0.5 C 3.46 g/m*3 -4.24 C 11.3 km/h
966 06-02-2015 06:10:00 -0.5 C 3.46 g/m*3 -3.36 C 8.1 km/h
967 06-02-2015 06:15:00 -0.6 C 3.44 g/m*3 -3.95 C 9.7 km/h
968 06-02-2015 06:20:00 -0.6 C 3.44 g/m*3 -3.95 C 9.7 km/h
969 06-02-2015 06:25:00 -0.7 C 3.42 g/m*3 -5.76 C 17.7 km/h
970 06-02-2015 06:30:00 -0.7 C 3.46 g/m*3 -3.59 C 8.1 km/h
971 06-02-2015 06:35:00 -0.7 C 3.46 g/m*3 -0.7 C 3.2 km/h
972 06-02-2015 06:40:00 -0.7 C 3.46 g/m*3 -3.59 C 8.1 km/h
973 06-02-2015 06:45:00 -0.7 C 3.46 g/m*3 -3.59 C 8.1 km/h
974 06-02-2015 06:50:00 -0.7 C 3.46 g/m*3 -4.85 C 12.9 km/h
975 06-02-2015 06:55:00 -0.7 C 3.46 g/m*3 -2.99 C 6.4 km/h
Sensor: Nr:Datum:Temp:Abs-Feuchte:Windchill:Wind:
Aussen-T/F 976 06-02-2015 07:00:00 -0.7 C 3.46 g/m*3 -0.7 C 4.8 km/h
977 06-02-2015 07:05:00 -0.7 C 3.46 g/m*3 -4.48 C 11.3 km/h
978 06-02-2015 07:10:00 -0.7 C 3.42 g/m*3 -3.59 C 8.1 km/h
979 06-02-2015 07:15:00 -0.7 C 3.46 g/m*3 -4.48 C 11.3 km/h
980 06-02-2015 07:20:00 -0.6 C 3.44 g/m*3 -4.73 C 12.9 km/h
981 06-02-2015 07:25:00 -0.6 C 3.44 g/m*3 -2.88 C 6.4 km/h
982 06-02-2015 07:30:00 -0.6 C 3.44 g/m*3 -3.95 C 9.7 km/h
983 06-02-2015 07:35:00 -0.6 C 3.44 g/m*3 -3.95 C 9.7 km/h
984 06-02-2015 07:40:00 -0.6 C 3.49 g/m*3 -3.48 C 8.1 km/h
985 06-02-2015 07:45:00 -0.7 C 3.46 g/m*3 -4.48 C 11.3 km/h
986 06-02-2015 07:50:00 -0.6 C 3.49 g/m*3 -3.95 C 9.7 km/h
987 06-02-2015 07:55:00 -0.6 C 3.49 g/m*3 -4.36 C 11.3 km/h
988 06-02-2015 08:00:00 -0.5 C 3.51 g/m*3 -3.83 C 9.7 km/h
989 06-02-2015 08:05:00 -0.4 C 3.49 g/m*3 -5.11 C 16.1 km/h
990 06-02-2015 08:10:00 -0.3 C 3.51 g/m*3 -3.12 C 8.1 km/h
991 06-02-2015 08:15:00 -0.3 C 3.51 g/m*3 -3.59 C 9.7 km/h
992 06-02-2015 08:20:00 -0.3 C 3.51 g/m*3 -4 C 11.3 km/h
993 06-02-2015 08:25:00 -0.3 C 3.51 g/m*3 -4.69 C 14.5 km/h
994 06-02-2015 08:30:00 -0.2 C 3.49 g/m*3 -5.14 C 17.7 km/h
995 06-02-2015 08:35:00 -0.2 C 3.49 g/m*3 -4.24 C 12.9 km/h
996 06-02-2015 08:40:00 -0.2 C 3.49 g/m*3 -5.39 C 19.3 km/h
997 06-02-2015 08:45:00 -0.2 C 3.49 g/m*3 -3 C 8.1 km/h
998 06-02-2015 08:50:00 -0.1 C 3.51 g/m*3 -2.89 C 8.1 km/h
999 06-02-2015 08:55:00 -0.1 C 3.51 g/m*3 -4.12 C 12.9 km/h
1000 06-02-2015 09:00:00 -0.1 C 3.51 g/m*3 -3.76 C 11.3 km/h
Sensor: Nr:Datum:Temp:Abs-Feuchte:Windchill:Wind:
Aussen-T/F 1001 06-02-2015 09:05:00 -0.1 C 3.51 g/m*3 -4.12 C 12.9 km/h
1002 06-02-2015 09:10:00 0 C 3.54 g/m*3 -3.64 C 11.3 km/h
1003 06-02-2015 09:15:00 0 C 3.54 g/m*3 -2.18 C 6.4 km/h
1004 06-02-2015 09:20:00 0.1 C 3.56 g/m*3 -3.52 C 11.3 km/h
1005 06-02-2015 09:25:00 0.1 C 3.56 g/m*3 -3.52 C 11.3 km/h
1006 06-02-2015 09:30:00 0.1 C 3.51 g/m*3 -3.88 C 12.9 km/h
1007 06-02-2015 09:35:00 0.1 C 3.51 g/m*3 -4.2 C 14.5 km/h
1008 06-02-2015 09:40:00 0.1 C 3.51 g/m*3 -4.76 C 17.7 km/h
1009 06-02-2015 09:45:00 0.1 C 3.51 g/m*3 -4.49 C 16.1 km/h
1010 06-02-2015 09:50:00 0.2 C 3.54 g/m*3 -3 C 9.7 km/h
1011 06-02-2015 09:55:00 0.2 C 3.54 g/m*3 -3.75 C 12.9 km/h
1012 06-02-2015 10:00:00 0.2 C 3.54 g/m*3 -3.75 C 12.9 km/h
1013 06-02-2015 10:05:00 0.2 C 3.54 g/m*3 -4.64 C 17.7 km/h
1014 06-02-2015 10:10:00 0.2 C 3.49 g/m*3 -4.37 C 16.1 km/h
1015 06-02-2015 10:15:00 0.2 C 3.49 g/m*3 -5.12 C 20.9 km/h
1016 06-02-2015 10:20:00 0.3 C 3.51 g/m*3 -4.24 C 16.1 km/h
1017 06-02-2015 10:25:00 0.3 C 3.51 g/m*3 -4.24 C 16.1 km/h
1018 06-02-2015 10:30:00 0.4 C 3.54 g/m*3 -5.67 C 27.4 km/h
1019 06-02-2015 10:35:00 0.4 C 3.49 g/m*3 -3.16 C 11.3 km/h
1020 06-02-2015 10:40:00 0.3 C 3.51 g/m*3 -3.28 C 11.3 km/h
1021 06-02-2015 10:45:00 0.3 C 3.51 g/m*3 -2.88 C 9.7 km/h
1022 06-02-2015 10:50:00 0.3 C 3.51 g/m*3 -3.28 C 11.3 km/h
1023 06-02-2015 10:55:00 0.3 C 3.51 g/m*3 -2.42 C 8.1 km/h
1024 06-02-2015 11:00:00 0.3 C 3.51 g/m*3 -4.24 C 16.1 km/h
1025 06-02-2015 11:05:00 0.4 C 3.54 g/m*3 -3.83 C 14.5 km/h
Sensor: Nr:Datum:Temp:Abs-Feuchte:Windchill:Wind:
Aussen-T/F 1026 06-02-2015 11:10:00 0.4 C 3.54 g/m*3 -4.39 C 17.7 km/h
1027 06-02-2015 11:15:00 0.4 C 3.49 g/m*3 -4.87 C 20.9 km/h
1028 06-02-2015 11:20:00 0.5 C 3.51 g/m*3 -3.39 C 12.9 km/h
1029 06-02-2015 11:25:00 0.6 C 3.53 g/m*3 -2.06 C 8.1 km/h
1030 06-02-2015 11:30:00 0.7 C 3.56 g/m*3 -3.46 C 14.5 km/h
1031 06-02-2015 11:35:00 0.7 C 3.56 g/m*3 -4.01 C 17.7 km/h
1032 06-02-2015 11:40:00 0.8 C 3.53 g/m*3 -4.13 C 19.3 km/h
1033 06-02-2015 11:45:00 0.8 C 3.53 g/m*3 -3.89 C 17.7 km/h
1034 06-02-2015 11:50:00 0.9 C 3.56 g/m*3 -3.21 C 14.5 km/h
1035 06-02-2015 11:55:00 0.9 C 3.51 g/m*3 -3.21 C 14.5 km/h
1036 06-02-2015 12:00:00 1 C 3.58 g/m*3 -2.43 C 11.3 km/h
1037 06-02-2015 12:05:00 1.1 C 3.55 g/m*3 -3.98 C 20.9 km/h
1038 06-02-2015 12:10:00 1.2 C 3.58 g/m*3 -2.54 C 12.9 km/h
1039 06-02-2015 12:15:00 1.3 C 3.55 g/m*3 -2.41 C 12.9 km/h
1040 06-02-2015 12:20:00 1.3 C 3.55 g/m*3 -2.72 C 14.5 km/h
1041 06-02-2015 12:25:00 1.4 C 3.52 g/m*3 -1.57 C 9.7 km/h
1042 06-02-2015 12:30:00 1.5 C 3.54 g/m*3 -2.17 C 12.9 km/h
1043 06-02-2015 12:35:00 1.7 C 3.54 g/m*3 -2.23 C 14.5 km/h
1044 06-02-2015 12:40:00 1.8 C 3.51 g/m*3 -2.64 C 17.7 km/h
1045 06-02-2015 12:45:00 1.9 C 3.48 g/m*3 -3.36 C 24.1 km/h
1046 06-02-2015 12:50:00 1.9 C 3.53 g/m*3 -0.97 C 9.7 km/h
1047 06-02-2015 12:55:00 2 C 3.56 g/m*3 -0.85 C 9.7 km/h
1048 06-02-2015 13:00:00 2.1 C 3.52 g/m*3 -0.73 C 9.7 km/h
1049 06-02-2015 13:05:00 2.2 C 3.49 g/m*3 -2.59 C 20.9 km/h
1050 06-02-2015 13:10:00 2.2 C 3.55 g/m*3 -2.59 C 20.9 km/h
Sensor: Nr:Datum:Temp:Abs-Feuchte:Windchill:Wind:
Aussen-T/F 1051 06-02-2015 13:15:00 2.3 C 3.52 g/m*3 -2.24 C 19.3 km/h
1052 06-02-2015 13:20:00 2.4 C 3.54 g/m*3 -2.33 C 20.9 km/h
1053 06-02-2015 13:25:00 2.4 C 3.54 g/m*3 -1.64 C 16.1 km/h
1054 06-02-2015 13:30:00 2.6 C 3.59 g/m*3 -1.87 C 19.3 km/h
1055 06-02-2015 13:35:00 2.6 C 3.53 g/m*3 -0.83 C 12.9 km/h
1056 06-02-2015 13:40:00 2.7 C 3.61 g/m*3 -1 C 14.5 km/h
1057 06-02-2015 13:45:00 2.8 C 3.58 g/m*3 -1.61 C 19.3 km/h
1058 06-02-2015 13:50:00 2.9 C 3.54 g/m*3 -1.49 C 19.3 km/h
1059 06-02-2015 13:55:00 3 C 3.57 g/m*3 -1.57 C 20.9 km/h
1060 06-02-2015 14:00:00 3.1 C 3.59 g/m*3 0.46 C 9.7 km/h
1061 06-02-2015 14:05:00 3.2 C 3.56 g/m*3 -0.89 C 17.7 km/h
1062 06-02-2015 14:10:00 3.3 C 3.52 g/m*3 -2.22 C 30.6 km/h
1063 06-02-2015 14:15:00 3.3 C 3.52 g/m*3 -2.22 C 30.6 km/h
1064 06-02-2015 14:20:00 3.4 C 3.54 g/m*3 -0.64 C 17.7 km/h
1065 06-02-2015 14:25:00 3.4 C 3.54 g/m*3 -0.86 C 19.3 km/h
1066 06-02-2015 14:30:00 3.4 C 3.6 g/m*3 -0.64 C 17.7 km/h
1067 06-02-2015 14:35:00 3.4 C 3.48 g/m*3 -0.86 C 19.3 km/h
1068 06-02-2015 14:40:00 3.3 C 3.58 g/m*3 0.34 C 11.3 km/h
1069 06-02-2015 14:45:00 3.4 C 3.54 g/m*3 -0.86 C 19.3 km/h
1070 06-02-2015 14:50:00 3.4 C 3.54 g/m*3 1.23 C 8.1 km/h
1071 06-02-2015 14:55:00 3.6 C 3.59 g/m*3 1.46 C 8.1 km/h
1072 06-02-2015 15:00:00 3.6 C 3.53 g/m*3 -0.15 C 16.1 km/h
1073 06-02-2015 15:05:00 3.8 C 3.51 g/m*3 2.21 C 6.4 km/h
1074 06-02-2015 15:10:00 3.9 C 3.47 g/m*3 2.32 C 6.4 km/h
1075 06-02-2015 15:15:00 4 C 3.43 g/m*3 4 C 4.8 km/h
Sensor: Nr:Datum:Temp:Abs-Feuchte:Windchill:Wind:
Aussen-T/F 1076 06-02-2015 15:20:00 4 C 3.43 g/m*3 2.44 C 6.4 km/h
1077 06-02-2015 15:25:00 3.9 C 3.47 g/m*3 1.82 C 8.1 km/h
1078 06-02-2015 15:30:00 3.9 C 3.35 g/m*3 0.75 C 12.9 km/h
1079 06-02-2015 15:35:00 3.9 C 3.35 g/m*3 1.06 C 11.3 km/h
1080 06-02-2015 15:40:00 3.8 C 3.32 g/m*3 1.7 C 8.1 km/h
1081 06-02-2015 15:45:00 3.6 C 3.34 g/m*3 0.7 C 11.3 km/h
1082 06-02-2015 15:50:00 3.4 C 3.36 g/m*3 1.23 C 8.1 km/h
1083 06-02-2015 15:55:00 3.3 C 3.4 g/m*3 1.11 C 8.1 km/h
1084 06-02-2015 16:00:00 3.2 C 3.25 g/m*3 1.51 C 6.4 km/h
1085 06-02-2015 16:05:00 3.2 C 3.37 g/m*3 0.58 C 9.7 km/h
1086 06-02-2015 16:10:00 3.2 C 3.31 g/m*3 1.51 C 6.4 km/h
1087 06-02-2015 16:15:00 3.1 C 3.47 g/m*3 1.4 C 6.4 km/h
1088 06-02-2015 16:20:00 3 C 3.33 g/m*3 -0.34 C 12.9 km/h
1089 06-02-2015 16:25:00 2.9 C 3.31 g/m*3 -0.46 C 12.9 km/h
1090 06-02-2015 16:30:00 2.9 C 3.43 g/m*3 1.17 C 6.4 km/h
1091 06-02-2015 16:35:00 2.8 C 3.23 g/m*3 -0.88 C 14.5 km/h
1092 06-02-2015 16:40:00 2.8 C 3.28 g/m*3 0.52 C 8.1 km/h
1093 06-02-2015 16:45:00 2.8 C 3.23 g/m*3 -1.61 C 19.3 km/h
1094 06-02-2015 16:50:00 2.8 C 3.17 g/m*3 -2.02 C 22.5 km/h
1095 06-02-2015 16:55:00 2.7 C 3.15 g/m*3 -1.95 C 20.9 km/h
1096 06-02-2015 17:00:00 2.6 C 3.18 g/m*3 -0.83 C 12.9 km/h
1097 06-02-2015 17:05:00 2.5 C 3.22 g/m*3 -0.95 C 12.9 km/h
1098 06-02-2015 17:10:00 2.4 C 3.31 g/m*3 0.05 C 8.1 km/h
1099 06-02-2015 17:15:00 2.1 C 3.19 g/m*3 -0.3 C 8.1 km/h
1100 06-02-2015 17:20:00 2 C 3.22 g/m*3 -0.85 C 9.7 km/h
Sensor: Nr:Datum:Temp:Abs-Feuchte:Windchill:Wind:
Aussen-T/F 1101 06-02-2015 17:25:00 1.7 C 3.38 g/m*3 1.7 C 4.8 km/h
1102 06-02-2015 17:30:00 1.3 C 3.39 g/m*3 1.3 C 3.2 km/h
1103 06-02-2015 17:35:00 0.9 C 3.4 g/m*3 0.9 C 4.8 km/h
1104 06-02-2015 17:40:00 0.6 C 3.43 g/m*3 0.6 C 4.8 km/h
1105 06-02-2015 17:45:00 0.4 C 3.39 g/m*3 -1.72 C 6.4 km/h
1106 06-02-2015 17:50:00 0.3 C 3.41 g/m*3 0.3 C 4.8 km/h
1107 06-02-2015 17:55:00 0.2 C 3.39 g/m*3 -2.53 C 8.1 km/h
1108 06-02-2015 18:00:00 0.3 C 3.31 g/m*3 0.3 C 4.8 km/h
1109 06-02-2015 18:05:00 0.3 C 3.41 g/m*3 0.3 C 3.2 km/h
1110 06-02-2015 18:10:00 0.2 C 3.44 g/m*3 0.2 C 3.2 km/h
1111 06-02-2015 18:15:00 -0.1 C 3.37 g/m*3 -0.1 C 3.2 km/h
1112 06-02-2015 18:20:00 -0.1 C 3.37 g/m*3 -0.1 C 3.2 km/h
1113 06-02-2015 18:25:00 0.1 C 3.32 g/m*3 -2.65 C 8.1 km/h
1114 06-02-2015 18:30:00 0.3 C 3.36 g/m*3 0.3 C 3.2 km/h
1115 06-02-2015 18:35:00 0.4 C 3.34 g/m*3 -3.16 C 11.3 km/h
1116 06-02-2015 18:40:00 0.4 C 3.34 g/m*3 0.4 C 3.2 km/h
1117 06-02-2015 18:45:00 0.3 C 3.26 g/m*3 -3.28 C 11.3 km/h
1118 06-02-2015 18:50:00 0.3 C 3.36 g/m*3 0.3 C 3.2 km/h
1119 06-02-2015 18:55:00 0.1 C 3.37 g/m*3 0.1 C 3.2 km/h
1120 06-02-2015 19:00:00 -0.1 C 3.32 g/m*3 -2.3 C 6.4 km/h
1121 06-02-2015 19:05:00 0 C 3.34 g/m*3 0 C 3.2 km/h
1122 06-02-2015 19:10:00 -0.1 C 3.37 g/m*3 -0.1 C 3.2 km/h
1123 06-02-2015 19:15:00 -0.2 C 3.39 g/m*3 -0.2 C 3.2 km/h
1124 06-02-2015 19:20:00 -0.3 C 3.42 g/m*3 -0.3 C 1.6 km/h
1125 06-02-2015 19:25:00 -0.4 C 3.39 g/m*3 -0.4 C 0 km/h
Sensor: Nr:Datum:Temp:Abs-Feuchte:Windchill:Wind:
Aussen-T/F 1126 06-02-2015 19:30:00 -0.5 C 3.37 g/m*3 -0.5 C 0 km/h
1127 06-02-2015 19:35:00 -0.4 C 3.39 g/m*3 -0.4 C 3.2 km/h
1128 06-02-2015 19:40:00 -0.4 C 3.44 g/m*3 -0.4 C 3.2 km/h
1129 06-02-2015 19:45:00 -0.6 C 3.44 g/m*3 -0.6 C 3.2 km/h
1130 06-02-2015 19:50:00 -0.6 C 3.39 g/m*3 -0.6 C 3.2 km/h
1131 06-02-2015 19:55:00 -0.6 C 3.44 g/m*3 -0.6 C 3.2 km/h
1132 06-02-2015 20:00:00 -0.6 C 3.44 g/m*3 -0.6 C 3.2 km/h
1133 06-02-2015 20:05:00 -0.6 C 3.49 g/m*3 -0.6 C 3.2 km/h
1134 06-02-2015 20:10:00 -0.7 C 3.46 g/m*3 -0.7 C 3.2 km/h
1135 06-02-2015 20:15:00 -0.7 C 3.46 g/m*3 -0.7 C 3.2 km/h
1136 06-02-2015 20:20:00 -0.6 C 3.39 g/m*3 -2.88 C 6.4 km/h
1137 06-02-2015 20:25:00 -0.4 C 3.44 g/m*3 -0.4 C 3.2 km/h
1138 06-02-2015 20:30:00 -0.4 C 3.35 g/m*3 -3.24 C 8.1 km/h
1139 06-02-2015 20:35:00 -0.3 C 3.37 g/m*3 -0.3 C 3.2 km/h
1140 06-02-2015 20:40:00 -0.3 C 3.42 g/m*3 -0.3 C 3.2 km/h
1141 06-02-2015 20:45:00 -0.3 C 3.42 g/m*3 -0.3 C 3.2 km/h
1142 06-02-2015 20:50:00 -0.3 C 3.37 g/m*3 -0.3 C 3.2 km/h
1143 06-02-2015 20:55:00 -0.3 C 3.42 g/m*3 -0.3 C 4.8 km/h
1144 06-02-2015 21:00:00 -0.4 C 3.39 g/m*3 -3.24 C 8.1 km/h
1145 06-02-2015 21:05:00 -0.3 C 3.42 g/m*3 -0.3 C 4.8 km/h
1146 06-02-2015 21:10:00 -0.3 C 3.42 g/m*3 -0.3 C 3.2 km/h
1147 06-02-2015 21:15:00 -0.4 C 3.39 g/m*3 -0.4 C 4.8 km/h
1148 06-02-2015 21:20:00 -0.4 C 3.39 g/m*3 -0.4 C 4.8 km/h
1149 06-02-2015 21:25:00 -0.4 C 3.44 g/m*3 -0.4 C 3.2 km/h
1150 06-02-2015 21:30:00 -0.4 C 3.44 g/m*3 -0.4 C 3.2 km/h
Sensor: Nr:Datum:Temp:Abs-Feuchte:Windchill:Wind:
Aussen-T/F 1151 06-02-2015 21:35:00 -0.5 C 3.42 g/m*3 -0.5 C 1.6 km/h
1152 06-02-2015 21:40:00 -0.6 C 3.39 g/m*3 -3.48 C 8.1 km/h
1153 06-02-2015 21:45:00 -0.6 C 3.39 g/m*3 -3.48 C 8.1 km/h
1154 06-02-2015 21:50:00 -0.6 C 3.39 g/m*3 -0.6 C 4.8 km/h
1155 06-02-2015 21:55:00 -0.7 C 3.42 g/m*3 -0.7 C 1.6 km/h
1156 06-02-2015 22:00:00 -0.8 C 3.39 g/m*3 -0.8 C 3.2 km/h
1157 06-02-2015 22:05:00 -0.8 C 3.44 g/m*3 -0.8 C 3.2 km/h
1158 06-02-2015 22:10:00 -0.9 C 3.41 g/m*3 -0.9 C 3.2 km/h
1159 06-02-2015 22:15:00 -0.9 C 3.41 g/m*3 -0.9 C 3.2 km/h
1160 06-02-2015 22:20:00 -0.9 C 3.41 g/m*3 -3.83 C 8.1 km/h
1161 06-02-2015 22:25:00 -0.9 C 3.41 g/m*3 -3.22 C 6.4 km/h
1162 06-02-2015 22:30:00 -0.9 C 3.41 g/m*3 -0.9 C 4.8 km/h
1163 06-02-2015 22:35:00 -0.9 C 3.41 g/m*3 -3.83 C 8.1 km/h
1164 06-02-2015 22:40:00 -0.9 C 3.41 g/m*3 -4.31 C 9.7 km/h
1165 06-02-2015 22:45:00 -0.9 C 3.41 g/m*3 -3.83 C 8.1 km/h
1166 06-02-2015 22:50:00 -0.9 C 3.37 g/m*3 -4.31 C 9.7 km/h
1167 06-02-2015 22:55:00 -0.9 C 3.37 g/m*3 -0.9 C 4.8 km/h
1168 06-02-2015 23:00:00 -0.9 C 3.37 g/m*3 -3.83 C 8.1 km/h
1169 06-02-2015 23:05:00 -1 C 3.35 g/m*3 -1 C 4.8 km/h
1170 06-02-2015 23:10:00 -1 C 3.35 g/m*3 -5.22 C 12.9 km/h
1171 06-02-2015 23:15:00 -1.1 C 3.32 g/m*3 -4.06 C 8.1 km/h
1172 06-02-2015 23:20:00 -1.1 C 3.28 g/m*3 -3.45 C 6.4 km/h
1173 06-02-2015 23:25:00 -1 C 3.3 g/m*3 -3.95 C 8.1 km/h
1174 06-02-2015 23:30:00 -1.1 C 3.28 g/m*3 -4.06 C 8.1 km/h
1175 06-02-2015 23:35:00 -1.1 C 3.28 g/m*3 -3.45 C 6.4 km/h
Sensor: Nr:Datum:Temp:Abs-Feuchte:Windchill:Wind:
Aussen-T/F 1176 06-02-2015 23:40:00 -1.1 C 3.28 g/m*3 -4.97 C 11.3 km/h
1177 06-02-2015 23:45:00 -1.2 C 3.3 g/m*3 -3.57 C 6.4 km/h
1178 06-02-2015 23:50:00 -1.2 C 3.3 g/m*3 -5.09 C 11.3 km/h
1179 06-02-2015 23:55:00 -1.3 C 3.28 g/m*3 -1.3 C 3.2 km/h
1180 07-02-2015 00:00:00 -1.3 C 3.28 g/m*3 -1.3 C 4.8 km/h
1181 07-02-2015 00:05:00 -1.3 C 3.28 g/m*3 -3.68 C 6.4 km/h
1182 07-02-2015 00:10:00 -1.4 C 3.25 g/m*3 -4.42 C 8.1 km/h
1183 07-02-2015 00:15:00 -1.3 C 3.28 g/m*3 -4.78 C 9.7 km/h
1184 07-02-2015 00:20:00 -1.3 C 3.28 g/m*3 -4.78 C 9.7 km/h
1185 07-02-2015 00:25:00 -1.3 C 3.23 g/m*3 -4.78 C 9.7 km/h
1186 07-02-2015 00:30:00 -1.3 C 3.28 g/m*3 -5.21 C 11.3 km/h
1187 07-02-2015 00:35:00 -1.3 C 3.28 g/m*3 -5.58 C 12.9 km/h
1188 07-02-2015 00:40:00 -1.3 C 3.28 g/m*3 -6.23 C 16.1 km/h
1189 07-02-2015 00:45:00 -1.3 C 3.23 g/m*3 -5.58 C 12.9 km/h
1190 07-02-2015 00:50:00 -1.3 C 3.23 g/m*3 -5.21 C 11.3 km/h
1191 07-02-2015 00:55:00 -1.4 C 3.21 g/m*3 -4.42 C 8.1 km/h
1192 07-02-2015 01:00:00 -1.4 C 3.21 g/m*3 -5.33 C 11.3 km/h
1193 07-02-2015 01:05:00 -1.4 C 3.25 g/m*3 -4.9 C 9.7 km/h
1194 07-02-2015 01:10:00 -1.5 C 3.23 g/m*3 -1.5 C 4.8 km/h
1195 07-02-2015 01:15:00 -1.6 C 3.21 g/m*3 -1.6 C 4.8 km/h
1196 07-02-2015 01:20:00 -1.7 C 3.19 g/m*3 -1.7 C 1.6 km/h
1197 07-02-2015 01:25:00 -1.7 C 3.23 g/m*3 -4.15 C 6.4 km/h
1198 07-02-2015 01:30:00 -1.8 C 3.21 g/m*3 -4.26 C 6.4 km/h
1199 07-02-2015 01:35:00 -1.8 C 3.21 g/m*3 -1.8 C 3.2 km/h
1200 07-02-2015 01:40:00 -1.9 C 3.18 g/m*3 -5.5 C 9.7 km/h
Sensor: Nr:Datum:Temp:Abs-Feuchte:Windchill:Wind:
Aussen-T/F 1201 07-02-2015 01:45:00 -1.9 C 3.23 g/m*3 -1.9 C 1.6 km/h
1202 07-02-2015 01:50:00 -1.9 C 3.18 g/m*3 -1.9 C 3.2 km/h
1203 07-02-2015 01:55:00 -2 C 3.2 g/m*3 -2 C 1.6 km/h
1204 07-02-2015 02:00:00 -2.2 C 3.2 g/m*3 -2.2 C 1.6 km/h
1205 07-02-2015 02:05:00 -2.5 C 3.17 g/m*3 -2.5 C 3.2 km/h
1206 07-02-2015 02:10:00 -2.7 C 3.17 g/m*3 -2.7 C 4.8 km/h
1207 07-02-2015 02:15:00 -2.9 C 3.2 g/m*3 -2.9 C 3.2 km/h
1208 07-02-2015 02:20:00 -3 C 3.18 g/m*3 -3 C 3.2 km/h
1209 07-02-2015 02:25:00 -3.1 C 3.16 g/m*3 -3.1 C 4.8 km/h
1210 07-02-2015 02:30:00 -3.2 C 3.18 g/m*3 -3.2 C 4.8 km/h
1211 07-02-2015 02:35:00 -3.2 C 3.18 g/m*3 -3.2 C 4.8 km/h
1212 07-02-2015 02:40:00 -3.3 C 3.15 g/m*3 -3.3 C 4.8 km/h
1213 07-02-2015 02:45:00 -3.3 C 3.15 g/m*3 -3.3 C 4.8 km/h
1214 07-02-2015 02:50:00 -3.3 C 3.15 g/m*3 -3.3 C 4.8 km/h
1215 07-02-2015 02:55:00 -3.4 C 3.21 g/m*3 -3.4 C 4.8 km/h
1216 07-02-2015 03:00:00 -3.4 C 3.17 g/m*3 -3.4 C 4.8 km/h
1217 07-02-2015 03:05:00 -3.4 C 3.17 g/m*3 -3.4 C 3.2 km/h
1218 07-02-2015 03:10:00 -3.4 C 3.17 g/m*3 -3.4 C 4.8 km/h
1219 07-02-2015 03:15:00 -3.4 C 3.21 g/m*3 -3.4 C 3.2 km/h
1220 07-02-2015 03:20:00 -3.4 C 3.21 g/m*3 -6.11 C 6.4 km/h
1221 07-02-2015 03:25:00 -3.5 C 3.15 g/m*3 -3.5 C 4.8 km/h
1222 07-02-2015 03:30:00 -3.5 C 3.15 g/m*3 -3.5 C 4.8 km/h
1223 07-02-2015 03:35:00 -3.5 C 3.15 g/m*3 -3.5 C 4.8 km/h
1224 07-02-2015 03:40:00 -3.5 C 3.18 g/m*3 -3.5 C 4.8 km/h
1225 07-02-2015 03:45:00 -3.5 C 3.15 g/m*3 -6.22 C 6.4 km/h
Sensor: Nr:Datum:Temp:Abs-Feuchte:Windchill:Wind:
Aussen-T/F 1226 07-02-2015 03:50:00 -3.4 C 3.17 g/m*3 -3.4 C 4.8 km/h
1227 07-02-2015 03:55:00 -3.3 C 3.19 g/m*3 -3.3 C 4.8 km/h
1228 07-02-2015 04:00:00 -3.3 C 3.19 g/m*3 -3.3 C 4.8 km/h
1229 07-02-2015 04:05:00 -3.3 C 3.15 g/m*3 -3.3 C 3.2 km/h
1230 07-02-2015 04:10:00 -3.4 C 3.13 g/m*3 -3.4 C 4.8 km/h
1231 07-02-2015 04:15:00 -3.6 C 3.09 g/m*3 -3.6 C 3.2 km/h
1232 07-02-2015 04:20:00 -3.6 C 3.12 g/m*3 -3.6 C 3.2 km/h
1233 07-02-2015 04:25:00 -3.7 C 3.1 g/m*3 -3.7 C 4.8 km/h
1234 07-02-2015 04:30:00 -3.7 C 3.1 g/m*3 -3.7 C 3.2 km/h
1235 07-02-2015 04:35:00 -3.8 C 3.08 g/m*3 -3.8 C 4.8 km/h
1236 07-02-2015 04:40:00 -3.8 C 3.04 g/m*3 -3.8 C 4.8 km/h
1237 07-02-2015 04:45:00 -3.8 C 3.08 g/m*3 -3.8 C 4.8 km/h
1238 07-02-2015 04:50:00 -3.9 C 3.06 g/m*3 -3.9 C 4.8 km/h
1239 07-02-2015 04:55:00 -3.9 C 3.09 g/m*3 -3.9 C 4.8 km/h
1240 07-02-2015 05:00:00 -3.8 C 3.12 g/m*3 -3.8 C 3.2 km/h
1241 07-02-2015 05:05:00 -3.8 C 3.08 g/m*3 -3.8 C 4.8 km/h
1242 07-02-2015 05:10:00 -3.8 C 3.12 g/m*3 -3.8 C 3.2 km/h
1243 07-02-2015 05:15:00 -3.8 C 3.15 g/m*3 -3.8 C 3.2 km/h
1244 07-02-2015 05:20:00 -3.8 C 3.15 g/m*3 -3.8 C 4.8 km/h
1245 07-02-2015 05:25:00 -3.8 C 3.12 g/m*3 -3.8 C 4.8 km/h
1246 07-02-2015 05:30:00 -3.9 C 3.09 g/m*3 -3.9 C 4.8 km/h
1247 07-02-2015 05:35:00 -3.9 C 3.06 g/m*3 -6.69 C 6.4 km/h
1248 07-02-2015 05:40:00 -3.8 C 3.08 g/m*3 -6.57 C 6.4 km/h
1249 07-02-2015 05:45:00 -3.8 C 3.08 g/m*3 -3.8 C 4.8 km/h
1250 07-02-2015 05:50:00 -3.8 C 3.08 g/m*3 -6.57 C 6.4 km/h
Sensor: Nr:Datum:Temp:Abs-Feuchte:Windchill:Wind:
Aussen-T/F 1251 07-02-2015 05:55:00 -3.8 C 3.04 g/m*3 -6.57 C 6.4 km/h
1252 07-02-2015 06:00:00 -3.8 C 3.04 g/m*3 -6.57 C 6.4 km/h
1253 07-02-2015 06:05:00 -3.8 C 3.04 g/m*3 -6.57 C 6.4 km/h
1254 07-02-2015 06:10:00 -3.8 C 3.04 g/m*3 -3.8 C 4.8 km/h
1255 07-02-2015 06:15:00 -3.8 C 3.08 g/m*3 -3.8 C 4.8 km/h
1256 07-02-2015 06:20:00 -3.8 C 3.08 g/m*3 -3.8 C 4.8 km/h
1257 07-02-2015 06:25:00 -3.8 C 3.08 g/m*3 -3.8 C 4.8 km/h
1258 07-02-2015 06:30:00 -3.9 C 3.06 g/m*3 -3.9 C 4.8 km/h
1259 07-02-2015 06:35:00 -3.9 C 3.06 g/m*3 -3.9 C 4.8 km/h
1260 07-02-2015 06:40:00 -3.9 C 3.09 g/m*3 -3.9 C 3.2 km/h
1261 07-02-2015 06:45:00 -4 C 3.11 g/m*3 -4 C 1.6 km/h
1262 07-02-2015 06:50:00 -4.1 C 3.09 g/m*3 -4.1 C 4.8 km/h
1263 07-02-2015 06:55:00 -4.1 C 3.09 g/m*3 -4.1 C 3.2 km/h
1264 07-02-2015 07:00:00 -4.2 C 3.07 g/m*3 -4.2 C 0 km/h
1265 07-02-2015 07:05:00 -4.3 C 3.04 g/m*3 -4.3 C 0 km/h
1266 07-02-2015 07:10:00 -4.4 C 3.02 g/m*3 -4.4 C 0 km/h
1267 07-02-2015 07:15:00 -4.5 C 3.04 g/m*3 -4.5 C 0 km/h
1268 07-02-2015 07:20:00 -4.6 C 3.01 g/m*3 -4.6 C 0 km/h
1269 07-02-2015 07:25:00 -4.6 C 3.01 g/m*3 -4.6 C 0 km/h
1270 07-02-2015 07:30:00 -4.7 C 2.99 g/m*3 -4.7 C 0 km/h
1271 07-02-2015 07:35:00 -4.7 C 3.03 g/m*3 -4.7 C 0 km/h
1272 07-02-2015 07:40:00 -4.8 C 3.01 g/m*3 -4.8 C 0 km/h
1273 07-02-2015 07:45:00 -4.9 C 2.98 g/m*3 -4.9 C 0 km/h
1274 07-02-2015 07:50:00 -4.9 C 2.98 g/m*3 -4.9 C 0 km/h
1275 07-02-2015 07:55:00 -5 C 2.96 g/m*3 -5 C 0 km/h
Sensor: Nr:Datum:Temp:Abs-Feuchte:Windchill:Wind:
Aussen-T/F 1276 07-02-2015 08:00:00 -5 C 2.96 g/m*3 -5 C 0 km/h
1277 07-02-2015 08:05:00 -5.1 C 2.94 g/m*3 -5.1 C 0 km/h
1278 07-02-2015 08:10:00 -5.1 C 2.97 g/m*3 -5.1 C 0 km/h
1279 07-02-2015 08:15:00 -5.1 C 2.97 g/m*3 -5.1 C 0 km/h
1280 07-02-2015 08:20:00 -5.1 C 2.97 g/m*3 -5.1 C 0 km/h
1281 07-02-2015 08:25:00 -5 C 3 g/m*3 -5 C 0 km/h
1282 07-02-2015 08:30:00 -4.9 C 3.05 g/m*3 -4.9 C 4.8 km/h
1283 07-02-2015 08:35:00 -4.9 C 3.05 g/m*3 -4.9 C 0 km/h
1284 07-02-2015 08:40:00 -4.8 C 3.07 g/m*3 -4.8 C 0 km/h
1285 07-02-2015 08:45:00 -4.8 C 3.04 g/m*3 -4.8 C 0 km/h
1286 07-02-2015 08:50:00 -4.8 C 3.04 g/m*3 -4.8 C 0 km/h
1287 07-02-2015 08:55:00 -4.8 C 3.04 g/m*3 -4.8 C 0 km/h
1288 07-02-2015 09:00:00 -4.8 C 3.04 g/m*3 -4.8 C 0 km/h
1289 07-02-2015 09:05:00 -4.7 C 3.06 g/m*3 -4.7 C 1.6 km/h
1290 07-02-2015 09:10:00 -4.6 C 3.08 g/m*3 -4.6 C 1.6 km/h
1291 07-02-2015 09:15:00 -4.5 C 3.11 g/m*3 -4.5 C 1.6 km/h
1292 07-02-2015 09:20:00 -4.5 C 3.11 g/m*3 -4.5 C 0 km/h
1293 07-02-2015 09:25:00 -4.5 C 3.11 g/m*3 -4.5 C 1.6 km/h
1294 07-02-2015 09:30:00 -4.4 C 3.09 g/m*3 -4.4 C 0 km/h
1295 07-02-2015 09:35:00 -4.4 C 3.13 g/m*3 -4.4 C 0 km/h
1296 07-02-2015 09:40:00 -4.3 C 3.15 g/m*3 -4.3 C 3.2 km/h
1297 07-02-2015 09:45:00 -4.2 C 3.17 g/m*3 -4.2 C 4.8 km/h
1298 07-02-2015 09:50:00 -4.1 C 3.16 g/m*3 -4.1 C 0 km/h
1299 07-02-2015 09:55:00 -3.9 C 3.21 g/m*3 -3.9 C 0 km/h
1300 07-02-2015 10:00:00 -3.8 C 3.19 g/m*3 -3.8 C 0 km/h
Sensor: Nr:Datum:Temp:Abs-Feuchte:Windchill:Wind:
Aussen-T/F 1301 07-02-2015 10:05:00 -3.8 C 3.19 g/m*3 -3.8 C 1.6 km/h
1302 07-02-2015 10:10:00 -3.6 C 3.24 g/m*3 -3.6 C 3.2 km/h
1303 07-02-2015 10:15:00 -3.5 C 3.22 g/m*3 -3.5 C 3.2 km/h
1304 07-02-2015 10:20:00 -3.3 C 3.27 g/m*3 -3.3 C 3.2 km/h
1305 07-02-2015 10:25:00 -3.2 C 3.29 g/m*3 -3.2 C 3.2 km/h
1306 07-02-2015 10:30:00 -3.2 C 3.25 g/m*3 -3.2 C 3.2 km/h
1307 07-02-2015 10:35:00 -3.1 C 3.28 g/m*3 -3.1 C 3.2 km/h
1308 07-02-2015 10:40:00 -3 C 3.3 g/m*3 -3 C 4.8 km/h
1309 07-02-2015 10:45:00 -2.9 C 3.32 g/m*3 -2.9 C 3.2 km/h
1310 07-02-2015 10:50:00 -2.9 C 3.32 g/m*3 -2.9 C 0 km/h
1311 07-02-2015 10:55:00 -2.8 C 3.39 g/m*3 -2.8 C 3.2 km/h
1312 07-02-2015 11:00:00 -2.8 C 3.39 g/m*3 -2.8 C 3.2 km/h
1313 07-02-2015 11:05:00 -2.7 C 3.37 g/m*3 -2.7 C 3.2 km/h
1314 07-02-2015 11:10:00 -2.6 C 3.39 g/m*3 -2.6 C 3.2 km/h
1315 07-02-2015 11:15:00 -2.4 C 3.44 g/m*3 -2.4 C 3.2 km/h
1316 07-02-2015 11:20:00 -2.4 C 3.44 g/m*3 -2.4 C 3.2 km/h
1317 07-02-2015 11:25:00 -2.3 C 3.47 g/m*3 -2.3 C 4.8 km/h
1318 07-02-2015 11:30:00 -2.2 C 3.45 g/m*3 -2.2 C 4.8 km/h
1319 07-02-2015 11:35:00 -2 C 3.5 g/m*3 -2 C 3.2 km/h
1320 07-02-2015 11:40:00 -1.9 C 3.57 g/m*3 -1.9 C 1.6 km/h
1321 07-02-2015 11:45:00 -1.9 C 3.52 g/m*3 -1.9 C 3.2 km/h
1322 07-02-2015 11:50:00 -1.8 C 3.46 g/m*3 -4.89 C 8.1 km/h
1323 07-02-2015 11:55:00 -1.4 C 3.47 g/m*3 -3.8 C 6.4 km/h
1324 07-02-2015 12:00:00 -1.2 C 3.52 g/m*3 -1.2 C 3.2 km/h
1325 07-02-2015 12:05:00 -1.1 C 3.5 g/m*3 -1.1 C 1.6 km/h
Sensor: Nr:Datum:Temp:Abs-Feuchte:Windchill:Wind:
Aussen-T/F 1326 07-02-2015 12:10:00 -1 C 3.57 g/m*3 -1 C 3.2 km/h
1327 07-02-2015 12:15:00 -1.1 C 3.64 g/m*3 -1.1 C 4.8 km/h
1328 07-02-2015 12:20:00 -1.1 C 3.64 g/m*3 -1.1 C 3.2 km/h
1329 07-02-2015 12:25:00 -1.1 C 3.55 g/m*3 -1.1 C 0 km/h
1330 07-02-2015 12:30:00 -0.9 C 3.64 g/m*3 -0.9 C 3.2 km/h
1331 07-02-2015 12:35:00 -0.9 C 3.6 g/m*3 -0.9 C 3.2 km/h
1332 07-02-2015 12:40:00 -0.8 C 3.67 g/m*3 -0.8 C 3.2 km/h
1333 07-02-2015 12:45:00 -0.7 C 3.6 g/m*3 -0.7 C 3.2 km/h
1334 07-02-2015 12:50:00 -0.7 C 3.65 g/m*3 -0.7 C 3.2 km/h
1335 07-02-2015 12:55:00 -0.6 C 3.72 g/m*3 -0.6 C 4.8 km/h
1336 07-02-2015 13:00:00 -0.6 C 3.67 g/m*3 -0.6 C 3.2 km/h
1337 07-02-2015 13:05:00 -0.6 C 3.67 g/m*3 -0.6 C 4.8 km/h
1338 07-02-2015 13:10:00 -0.5 C 3.74 g/m*3 -0.5 C 3.2 km/h
1339 07-02-2015 13:15:00 -0.4 C 3.72 g/m*3 -0.4 C 3.2 km/h
1340 07-02-2015 13:20:00 -0.3 C 3.8 g/m*3 -0.3 C 3.2 km/h
1341 07-02-2015 13:25:00 -0.2 C 3.82 g/m*3 -0.2 C 4.8 km/h
1342 07-02-2015 13:30:00 -0.1 C 3.85 g/m*3 -0.1 C 3.2 km/h
1343 07-02-2015 13:35:00 0.1 C 3.81 g/m*3 0.1 C 3.2 km/h
1344 07-02-2015 13:40:00 0.3 C 3.91 g/m*3 0.3 C 3.2 km/h
1345 07-02-2015 13:45:00 0.4 C 3.84 g/m*3 0.4 C 3.2 km/h
1346 07-02-2015 13:50:00 0.6 C 3.84 g/m*3 0.6 C 3.2 km/h
1347 07-02-2015 13:55:00 0.8 C 3.94 g/m*3 0.8 C 4.8 km/h
1348 07-02-2015 14:00:00 0.9 C 3.92 g/m*3 0.9 C 4.8 km/h
1349 07-02-2015 14:05:00 1.1 C 4.02 g/m*3 1.1 C 4.8 km/h
1350 07-02-2015 14:10:00 1.3 C 3.92 g/m*3 1.3 C 3.2 km/h
Sensor: Nr:Datum:Temp:Abs-Feuchte:Windchill:Wind:
Aussen-T/F 1351 07-02-2015 14:15:00 1.5 C 4.08 g/m*3 1.5 C 4.8 km/h
1352 07-02-2015 14:20:00 1.6 C 4.11 g/m*3 1.6 C 3.2 km/h
1353 07-02-2015 14:25:00 1.7 C 4.08 g/m*3 1.7 C 3.2 km/h
1354 07-02-2015 14:30:00 1.8 C 4.06 g/m*3 1.8 C 3.2 km/h
1355 07-02-2015 14:35:00 1.9 C 4.03 g/m*3 1.9 C 4.8 km/h
1356 07-02-2015 14:40:00 2.1 C 4.08 g/m*3 2.1 C 3.2 km/h
1357 07-02-2015 14:45:00 2.2 C 4.06 g/m*3 2.2 C 4.8 km/h
1358 07-02-2015 14:50:00 2.3 C 4.08 g/m*3 2.3 C 3.2 km/h
1359 07-02-2015 14:55:00 2.4 C 4.17 g/m*3 2.4 C 4.8 km/h
1360 07-02-2015 15:00:00 2.3 C 4.08 g/m*3 2.3 C 3.2 km/h
1361 07-02-2015 15:05:00 2.3 C 4.08 g/m*3 2.3 C 4.8 km/h
1362 07-02-2015 15:10:00 2.4 C 4.23 g/m*3 2.4 C 4.8 km/h
1363 07-02-2015 15:15:00 2.4 C 4.11 g/m*3 2.4 C 4.8 km/h
1364 07-02-2015 15:20:00 2.4 C 4.17 g/m*3 2.4 C 4.8 km/h
1365 07-02-2015 15:25:00 2.5 C 4.08 g/m*3 2.5 C 3.2 km/h
1366 07-02-2015 15:30:00 2.5 C 4.2 g/m*3 2.5 C 3.2 km/h
1367 07-02-2015 15:35:00 2.4 C 4.23 g/m*3 2.4 C 4.8 km/h
1368 07-02-2015 15:40:00 2.4 C 3.94 g/m*3 2.4 C 3.2 km/h
1369 07-02-2015 15:45:00 2.7 C 4.14 g/m*3 2.7 C 3.2 km/h
1370 07-02-2015 15:50:00 2.6 C 3.94 g/m*3 2.6 C 4.8 km/h
1371 07-02-2015 15:55:00 2.9 C 3.9 g/m*3 2.9 C 4.8 km/h
1372 07-02-2015 16:00:00 3.1 C 4.01 g/m*3 1.4 C 6.4 km/h
1373 07-02-2015 16:05:00 3 C 4.04 g/m*3 1.28 C 6.4 km/h
1374 07-02-2015 16:10:00 3.1 C 3.83 g/m*3 -0.77 C 16.1 km/h
1375 07-02-2015 16:15:00 3.4 C 3.85 g/m*3 0.14 C 12.9 km/h
Sensor: Nr:Datum:Temp:Abs-Feuchte:Windchill:Wind:
Aussen-T/F 1376 07-02-2015 16:20:00 3.6 C 3.84 g/m*3 1.46 C 8.1 km/h
1377 07-02-2015 16:25:00 3.7 C 3.8 g/m*3 1.58 C 8.1 km/h
1378 07-02-2015 16:30:00 3.7 C 3.68 g/m*3 1.18 C 9.7 km/h
1379 07-02-2015 16:35:00 3.8 C 3.58 g/m*3 -0.14 C 17.7 km/h
1380 07-02-2015 16:40:00 3.8 C 3.58 g/m*3 0.35 C 14.5 km/h
1381 07-02-2015 16:45:00 3.7 C 3.55 g/m*3 1.58 C 8.1 km/h
1382 07-02-2015 16:50:00 3.7 C 3.55 g/m*3 -0.03 C 16.1 km/h
1383 07-02-2015 16:55:00 3.7 C 3.55 g/m*3 1.18 C 9.7 km/h
1384 07-02-2015 17:00:00 3.6 C 3.53 g/m*3 1.98 C 6.4 km/h
1385 07-02-2015 17:05:00 3.4 C 3.54 g/m*3 1.23 C 8.1 km/h
1386 07-02-2015 17:10:00 3.4 C 3.66 g/m*3 1.23 C 8.1 km/h
1387 07-02-2015 17:15:00 3.2 C 3.86 g/m*3 3.2 C 3.2 km/h
1388 07-02-2015 17:20:00 2.9 C 3.78 g/m*3 2.9 C 4.8 km/h
1389 07-02-2015 17:25:00 2.7 C 3.85 g/m*3 2.7 C 4.8 km/h
1390 07-02-2015 17:30:00 2.3 C 3.86 g/m*3 2.3 C 3.2 km/h
1391 07-02-2015 17:35:00 2.1 C 3.97 g/m*3 2.1 C 1.6 km/h
1392 07-02-2015 17:40:00 1.6 C 3.89 g/m*3 1.6 C 3.2 km/h
1393 07-02-2015 17:45:00 1.3 C 3.92 g/m*3 1.3 C 4.8 km/h
1394 07-02-2015 17:50:00 1.1 C 3.92 g/m*3 1.1 C 1.6 km/h
1395 07-02-2015 17:55:00 1 C 4 g/m*3 1 C 1.6 km/h
1396 07-02-2015 18:00:00 1 C 3.94 g/m*3 1 C 3.2 km/h
1397 07-02-2015 18:05:00 1.3 C 4.08 g/m*3 1.3 C 3.2 km/h
1398 07-02-2015 18:10:00 1.7 C 4.14 g/m*3 1.7 C 4.8 km/h
1399 07-02-2015 18:15:00 1.9 C 4.14 g/m*3 1.9 C 4.8 km/h
1400 07-02-2015 18:20:00 2.2 C 4.28 g/m*3 2.2 C 3.2 km/h
Sensor: Nr:Datum:Temp:Abs-Feuchte:Windchill:Wind:
Aussen-T/F 1401 07-02-2015 18:25:00 2.3 C 4.2 g/m*3 2.3 C 3.2 km/h
1402 07-02-2015 18:30:00 2.3 C 4.25 g/m*3 2.3 C 1.6 km/h
1403 07-02-2015 18:35:00 2.3 C 4.25 g/m*3 2.3 C 4.8 km/h
1404 07-02-2015 18:40:00 2.3 C 4.31 g/m*3 2.3 C 1.6 km/h
1405 07-02-2015 18:45:00 2.3 C 4.31 g/m*3 2.3 C 0 km/h
1406 07-02-2015 18:50:00 2.3 C 4.25 g/m*3 2.3 C 3.2 km/h
1407 07-02-2015 18:55:00 2.3 C 4.25 g/m*3 2.3 C 3.2 km/h
1408 07-02-2015 19:00:00 2.4 C 4.23 g/m*3 0.59 C 6.4 km/h
1409 07-02-2015 19:05:00 2.6 C 4.28 g/m*3 0.29 C 8.1 km/h
1410 07-02-2015 19:10:00 2.8 C 4.34 g/m*3 2.8 C 4.8 km/h
1411 07-02-2015 19:15:00 2.8 C 4.28 g/m*3 2.8 C 4.8 km/h
1412 07-02-2015 19:20:00 2.9 C 4.37 g/m*3 2.9 C 4.8 km/h
1413 07-02-2015 19:25:00 2.9 C 4.37 g/m*3 2.9 C 3.2 km/h
1414 07-02-2015 19:30:00 2.8 C 4.46 g/m*3 2.8 C 4.8 km/h
1415 07-02-2015 19:35:00 2.7 C 4.49 g/m*3 2.7 C 3.2 km/h
1416 07-02-2015 19:40:00 2.6 C 4.51 g/m*3 2.6 C 3.2 km/h
1417 07-02-2015 19:45:00 2.6 C 4.51 g/m*3 2.6 C 3.2 km/h
1418 07-02-2015 19:50:00 2.6 C 4.57 g/m*3 2.6 C 4.8 km/h
1419 07-02-2015 19:55:00 2.6 C 4.57 g/m*3 2.6 C 4.8 km/h
1420 07-02-2015 20:00:00 2.7 C 4.6 g/m*3 0.4 C 8.1 km/h
1421 07-02-2015 20:05:00 2.7 C 4.66 g/m*3 -0.38 C 11.3 km/h
1422 07-02-2015 20:10:00 2.8 C 4.75 g/m*3 -0.26 C 11.3 km/h
1423 07-02-2015 20:15:00 2.8 C 4.81 g/m*3 2.8 C 4.8 km/h
1424 07-02-2015 20:20:00 2.8 C 4.87 g/m*3 1.05 C 6.4 km/h
1425 07-02-2015 20:25:00 2.7 C 4.89 g/m*3 2.7 C 4.8 km/h
Sensor: Nr:Datum:Temp:Abs-Feuchte:Windchill:Wind:
Aussen-T/F 1426 07-02-2015 20:30:00 2.7 C 4.89 g/m*3 0.4 C 8.1 km/h
1427 07-02-2015 20:35:00 2.7 C 5.01 g/m*3 0.4 C 8.1 km/h
1428 07-02-2015 20:40:00 2.6 C 4.98 g/m*3 2.6 C 3.2 km/h
1429 07-02-2015 20:45:00 2.6 C 4.98 g/m*3 2.6 C 1.6 km/h
1430 07-02-2015 20:50:00 2.5 C 5 g/m*3 0.71 C 6.4 km/h
1431 07-02-2015 20:55:00 2.5 C 5.06 g/m*3 2.5 C 4.8 km/h
1432 07-02-2015 21:00:00 2.6 C 5.15 g/m*3 -0.5 C 11.3 km/h
1433 07-02-2015 21:05:00 2.6 C 5.21 g/m*3 0.82 C 6.4 km/h
1434 07-02-2015 21:10:00 2.6 C 5.21 g/m*3 0.29 C 8.1 km/h
1435 07-02-2015 21:15:00 2.6 C 5.21 g/m*3 0.82 C 6.4 km/h
1436 07-02-2015 21:20:00 2.6 C 5.27 g/m*3 0.82 C 6.4 km/h
1437 07-02-2015 21:25:00 2.6 C 5.27 g/m*3 2.6 C 4.8 km/h
1438 07-02-2015 21:30:00 2.6 C 5.27 g/m*3 2.6 C 4.8 km/h
1439 07-02-2015 21:35:00 2.7 C 5.36 g/m*3 0.94 C 6.4 km/h
1440 07-02-2015 21:40:00 2.7 C 5.36 g/m*3 2.7 C 0 km/h
1441 07-02-2015 21:45:00 2.7 C 5.36 g/m*3 2.7 C 3.2 km/h
1442 07-02-2015 21:50:00 2.7 C 5.42 g/m*3 2.7 C 3.2 km/h
1443 07-02-2015 21:55:00 2.7 C 5.42 g/m*3 2.7 C 3.2 km/h
1444 07-02-2015 22:00:00 2.7 C 5.42 g/m*3 0.94 C 6.4 km/h
1445 07-02-2015 22:05:00 2.7 C 5.48 g/m*3 0.94 C 6.4 km/h
1446 07-02-2015 22:10:00 2.7 C 5.48 g/m*3 2.7 C 3.2 km/h
1447 07-02-2015 22:15:00 2.7 C 5.48 g/m*3 2.7 C 3.2 km/h
1448 07-02-2015 22:20:00 2.7 C 5.48 g/m*3 2.7 C 3.2 km/h
1449 07-02-2015 22:25:00 2.7 C 5.48 g/m*3 0.94 C 6.4 km/h
1450 07-02-2015 22:30:00 2.7 C 5.48 g/m*3 0.94 C 6.4 km/h
Sensor: Nr:Datum:Temp:Abs-Feuchte:Windchill:Wind:
Aussen-T/F 1451 07-02-2015 22:35:00 2.7 C 5.48 g/m*3 2.7 C 3.2 km/h
1452 07-02-2015 22:40:00 2.7 C 5.48 g/m*3 2.7 C 4.8 km/h
1453 07-02-2015 22:45:00 2.9 C 5.55 g/m*3 0.64 C 8.1 km/h
1454 07-02-2015 22:50:00 2.9 C 5.55 g/m*3 2.9 C 4.8 km/h
1455 07-02-2015 22:55:00 3 C 5.59 g/m*3 0.34 C 9.7 km/h
1456 07-02-2015 23:00:00 3 C 5.59 g/m*3 0.34 C 9.7 km/h
1457 07-02-2015 23:05:00 3.1 C 5.63 g/m*3 0.46 C 9.7 km/h
1458 07-02-2015 23:10:00 3.1 C 5.63 g/m*3 0.1 C 11.3 km/h
1459 07-02-2015 23:15:00 3.1 C 5.63 g/m*3 0.87 C 8.1 km/h
1460 07-02-2015 23:20:00 3.2 C 5.66 g/m*3 0.58 C 9.7 km/h
1461 07-02-2015 23:25:00 3.2 C 5.66 g/m*3 0.58 C 9.7 km/h
1462 07-02-2015 23:30:00 3.2 C 5.72 g/m*3 -0.39 C 14.5 km/h
1463 07-02-2015 23:35:00 3.2 C 5.72 g/m*3 -0.1 C 12.9 km/h
1464 07-02-2015 23:40:00 3.3 C 5.76 g/m*3 0.02 C 12.9 km/h
1465 07-02-2015 23:45:00 3.3 C 5.7 g/m*3 0.7 C 9.7 km/h
1466 07-02-2015 23:50:00 3.3 C 5.7 g/m*3 1.11 C 8.1 km/h
1467 07-02-2015 23:55:00 3.3 C 5.7 g/m*3 1.11 C 8.1 km/h
1468 08-02-2015 00:00:00 3.4 C 5.74 g/m*3 0.46 C 11.3 km/h
1469 08-02-2015 00:05:00 3.4 C 5.74 g/m*3 1.75 C 6.4 km/h
1470 08-02-2015 00:10:00 3.4 C 5.74 g/m*3 0.46 C 11.3 km/h
1471 08-02-2015 00:15:00 3.4 C 5.74 g/m*3 0.82 C 9.7 km/h
1472 08-02-2015 00:20:00 3.4 C 5.74 g/m*3 1.75 C 6.4 km/h
1473 08-02-2015 00:25:00 3.4 C 5.74 g/m*3 0.46 C 11.3 km/h
1474 08-02-2015 00:30:00 3.4 C 5.74 g/m*3 1.75 C 6.4 km/h
1475 08-02-2015 00:35:00 3.5 C 5.78 g/m*3 1.86 C 6.4 km/h
Sensor: Nr:Datum:Temp:Abs-Feuchte:Windchill:Wind:
Aussen-T/F 1476 08-02-2015 00:40:00 3.5 C 5.78 g/m*3 1.34 C 8.1 km/h
1477 08-02-2015 00:45:00 3.6 C 5.82 g/m*3 1.06 C 9.7 km/h
1478 08-02-2015 00:50:00 3.7 C 5.86 g/m*3 1.18 C 9.7 km/h
1479 08-02-2015 00:55:00 3.7 C 5.86 g/m*3 3.7 C 4.8 km/h
1480 08-02-2015 01:00:00 3.8 C 5.9 g/m*3 0.63 C 12.9 km/h
1481 08-02-2015 01:05:00 3.8 C 5.83 g/m*3 0.35 C 14.5 km/h
1482 08-02-2015 01:10:00 3.9 C 5.94 g/m*3 0.75 C 12.9 km/h
1483 08-02-2015 01:15:00 3.9 C 5.87 g/m*3 3.9 C 4.8 km/h
1484 08-02-2015 01:20:00 3.8 C 5.83 g/m*3 0.63 C 12.9 km/h
1485 08-02-2015 01:25:00 3.9 C 5.87 g/m*3 0.22 C 16.1 km/h
1486 08-02-2015 01:30:00 3.9 C 5.87 g/m*3 1.41 C 9.7 km/h
1487 08-02-2015 01:35:00 3.9 C 5.87 g/m*3 1.82 C 8.1 km/h
1488 08-02-2015 01:40:00 3.9 C 5.87 g/m*3 1.41 C 9.7 km/h
1489 08-02-2015 01:45:00 3.9 C 5.87 g/m*3 3.9 C 4.8 km/h
1490 08-02-2015 01:50:00 3.9 C 5.81 g/m*3 1.06 C 11.3 km/h
1491 08-02-2015 01:55:00 3.9 C 5.87 g/m*3 1.82 C 8.1 km/h
1492 08-02-2015 02:00:00 3.9 C 5.87 g/m*3 1.41 C 9.7 km/h
1493 08-02-2015 02:05:00 4 C 5.85 g/m*3 1.53 C 9.7 km/h
1494 08-02-2015 02:10:00 4.1 C 5.89 g/m*3 0.72 C 14.5 km/h
1495 08-02-2015 02:15:00 4.1 C 5.89 g/m*3 2.05 C 8.1 km/h
1496 08-02-2015 02:20:00 4.1 C 5.89 g/m*3 1.65 C 9.7 km/h
1497 08-02-2015 02:25:00 4.1 C 5.82 g/m*3 4.1 C 3.2 km/h
1498 08-02-2015 02:30:00 3.9 C 5.81 g/m*3 1.82 C 8.1 km/h
1499 08-02-2015 02:35:00 3.9 C 5.81 g/m*3 2.32 C 6.4 km/h
1500 08-02-2015 02:40:00 3.8 C 5.77 g/m*3 3.8 C 4.8 km/h
Sensor: Nr:Datum:Temp:Abs-Feuchte:Windchill:Wind:
Aussen-T/F 1501 08-02-2015 02:45:00 3.9 C 5.87 g/m*3 2.32 C 6.4 km/h
1502 08-02-2015 02:50:00 3.9 C 5.87 g/m*3 1.82 C 8.1 km/h
1503 08-02-2015 02:55:00 3.9 C 5.87 g/m*3 1.82 C 8.1 km/h
1504 08-02-2015 03:00:00 3.9 C 5.87 g/m*3 1.82 C 8.1 km/h
1505 08-02-2015 03:05:00 3.8 C 5.83 g/m*3 0.94 C 11.3 km/h
1506 08-02-2015 03:10:00 3.8 C 5.83 g/m*3 2.21 C 6.4 km/h
1507 08-02-2015 03:15:00 3.7 C 5.8 g/m*3 3.7 C 4.8 km/h
1508 08-02-2015 03:20:00 3.7 C 5.8 g/m*3 3.7 C 3.2 km/h
1509 08-02-2015 03:25:00 3.6 C 5.76 g/m*3 3.6 C 4.8 km/h
1510 08-02-2015 03:30:00 3.6 C 5.76 g/m*3 3.6 C 3.2 km/h
1511 08-02-2015 03:35:00 3.5 C 5.72 g/m*3 3.5 C 4.8 km/h
1512 08-02-2015 03:40:00 3.5 C 5.78 g/m*3 3.5 C 4.8 km/h
1513 08-02-2015 03:45:00 3.6 C 5.82 g/m*3 0.7 C 11.3 km/h
1514 08-02-2015 03:50:00 3.7 C 5.86 g/m*3 1.18 C 9.7 km/h
1515 08-02-2015 03:55:00 3.8 C 5.83 g/m*3 0.63 C 12.9 km/h
1516 08-02-2015 04:00:00 3.9 C 5.81 g/m*3 1.82 C 8.1 km/h
1517 08-02-2015 04:05:00 4 C 5.79 g/m*3 1.53 C 9.7 km/h
1518 08-02-2015 04:10:00 4.1 C 5.82 g/m*3 1.65 C 9.7 km/h
1519 08-02-2015 04:15:00 4.2 C 5.8 g/m*3 -0.05 C 20.9 km/h
1520 08-02-2015 04:20:00 4.2 C 5.8 g/m*3 1.12 C 12.9 km/h
1521 08-02-2015 04:25:00 4.2 C 5.73 g/m*3 1.12 C 12.9 km/h
1522 08-02-2015 04:30:00 4.2 C 5.67 g/m*3 1.77 C 9.7 km/h
1523 08-02-2015 04:35:00 4.2 C 5.67 g/m*3 1.12 C 12.9 km/h
1524 08-02-2015 04:40:00 4.2 C 5.61 g/m*3 0.15 C 19.3 km/h
1525 08-02-2015 04:45:00 4.2 C 5.61 g/m*3 1.12 C 12.9 km/h
Sensor: Nr:Datum:Temp:Abs-Feuchte:Windchill:Wind:
Aussen-T/F 1526 08-02-2015 04:50:00 4.2 C 5.61 g/m*3 0.84 C 14.5 km/h
1527 08-02-2015 04:55:00 4.2 C 5.61 g/m*3 1.77 C 9.7 km/h
1528 08-02-2015 05:00:00 4.2 C 5.54 g/m*3 1.12 C 12.9 km/h
1529 08-02-2015 05:05:00 4.3 C 5.58 g/m*3 0.97 C 14.5 km/h
1530 08-02-2015 05:10:00 4.3 C 5.58 g/m*3 2.29 C 8.1 km/h
1531 08-02-2015 05:15:00 4.2 C 5.54 g/m*3 1.77 C 9.7 km/h
1532 08-02-2015 05:20:00 4.3 C 5.58 g/m*3 0.97 C 14.5 km/h
1533 08-02-2015 05:25:00 4.3 C 5.58 g/m*3 1.24 C 12.9 km/h
1534 08-02-2015 05:30:00 4.3 C 5.51 g/m*3 1.24 C 12.9 km/h
1535 08-02-2015 05:35:00 4.3 C 5.51 g/m*3 0.49 C 17.7 km/h
1536 08-02-2015 05:40:00 4.3 C 5.51 g/m*3 0.07 C 20.9 km/h
1537 08-02-2015 05:45:00 4.3 C 5.51 g/m*3 0.27 C 19.3 km/h
1538 08-02-2015 05:50:00 4.4 C 5.48 g/m*3 0.84 C 16.1 km/h
1539 08-02-2015 05:55:00 4.3 C 5.45 g/m*3 1.55 C 11.3 km/h
1540 08-02-2015 06:00:00 4.3 C 5.45 g/m*3 1.24 C 12.9 km/h
1541 08-02-2015 06:05:00 4.3 C 5.38 g/m*3 0.97 C 14.5 km/h
1542 08-02-2015 06:10:00 4.3 C 5.38 g/m*3 1.55 C 11.3 km/h
1543 08-02-2015 06:15:00 4.3 C 5.38 g/m*3 1.24 C 12.9 km/h
1544 08-02-2015 06:20:00 4.2 C 5.35 g/m*3 1.77 C 9.7 km/h
1545 08-02-2015 06:25:00 4.3 C 5.38 g/m*3 1.89 C 9.7 km/h
1546 08-02-2015 06:30:00 4.3 C 5.38 g/m*3 0.97 C 14.5 km/h
1547 08-02-2015 06:35:00 4.3 C 5.38 g/m*3 0.72 C 16.1 km/h
1548 08-02-2015 06:40:00 4.2 C 5.35 g/m*3 2.17 C 8.1 km/h
1549 08-02-2015 06:45:00 4.2 C 5.41 g/m*3 2.67 C 6.4 km/h
1550 08-02-2015 06:50:00 4.2 C 5.41 g/m*3 1.12 C 12.9 km/h
Sensor: Nr:Datum:Temp:Abs-Feuchte:Windchill:Wind:
Aussen-T/F 1551 08-02-2015 06:55:00 4.2 C 5.41 g/m*3 1.77 C 9.7 km/h
1552 08-02-2015 07:00:00 4.2 C 5.41 g/m*3 2.67 C 6.4 km/h
1553 08-02-2015 07:05:00 4.1 C 5.44 g/m*3 2.05 C 8.1 km/h
1554 08-02-2015 07:10:00 4.1 C 5.44 g/m*3 2.05 C 8.1 km/h
1555 08-02-2015 07:15:00 4.1 C 5.5 g/m*3 -0.18 C 20.9 km/h
1556 08-02-2015 07:20:00 3.8 C 5.46 g/m*3 -0.36 C 19.3 km/h
1557 08-02-2015 07:25:00 3.7 C 5.48 g/m*3 0.23 C 14.5 km/h
1558 08-02-2015 07:30:00 3.5 C 5.41 g/m*3 -0.51 C 17.7 km/h
1559 08-02-2015 07:35:00 3.4 C 5.37 g/m*3 -0.4 C 16.1 km/h
1560 08-02-2015 07:40:00 3.2 C 5.3 g/m*3 0.99 C 8.1 km/h
1561 08-02-2015 07:45:00 3.2 C 5.3 g/m*3 0.99 C 8.1 km/h
1562 08-02-2015 07:50:00 3.1 C 5.27 g/m*3 0.87 C 8.1 km/h
1563 08-02-2015 07:55:00 3.1 C 5.21 g/m*3 3.1 C 3.2 km/h
1564 08-02-2015 08:00:00 3.1 C 5.21 g/m*3 0.87 C 8.1 km/h
1565 08-02-2015 08:05:00 3.1 C 5.15 g/m*3 3.1 C 4.8 km/h
1566 08-02-2015 08:10:00 3.2 C 5.18 g/m*3 -0.1 C 12.9 km/h
1567 08-02-2015 08:15:00 3.3 C 5.16 g/m*3 -1.19 C 20.9 km/h
1568 08-02-2015 08:20:00 3.3 C 5.1 g/m*3 -0.52 C 16.1 km/h
1569 08-02-2015 08:25:00 3.4 C 5.19 g/m*3 0.14 C 12.9 km/h
1570 08-02-2015 08:30:00 3.3 C 5.16 g/m*3 0.34 C 11.3 km/h
1571 08-02-2015 08:35:00 3.3 C 5.16 g/m*3 0.34 C 11.3 km/h
1572 08-02-2015 08:40:00 3.3 C 5.16 g/m*3 3.3 C 4.8 km/h
1573 08-02-2015 08:45:00 3.3 C 5.22 g/m*3 3.3 C 3.2 km/h
1574 08-02-2015 08:50:00 3.3 C 5.16 g/m*3 3.3 C 4.8 km/h
1575 08-02-2015 08:55:00 3.3 C 5.16 g/m*3 1.63 C 6.4 km/h
Sensor: Nr:Datum:Temp:Abs-Feuchte:Windchill:Wind:
Aussen-T/F 1576 08-02-2015 09:00:00 3.3 C 5.16 g/m*3 1.63 C 6.4 km/h
1577 08-02-2015 09:05:00 3.3 C 5.1 g/m*3 1.63 C 6.4 km/h
1578 08-02-2015 09:10:00 3.4 C 5.07 g/m*3 -0.4 C 16.1 km/h
1579 08-02-2015 09:15:00 3.5 C 5.1 g/m*3 0.94 C 9.7 km/h
1580 08-02-2015 09:20:00 3.6 C 5.08 g/m*3 1.06 C 9.7 km/h
1581 08-02-2015 09:25:00 3.6 C 5.01 g/m*3 0.7 C 11.3 km/h
1582 08-02-2015 09:30:00 3.7 C 5.05 g/m*3 1.58 C 8.1 km/h
1583 08-02-2015 09:35:00 3.7 C 4.99 g/m*3 3.7 C 4.8 km/h
1584 08-02-2015 09:40:00 3.7 C 4.99 g/m*3 0.82 C 11.3 km/h
1585 08-02-2015 09:45:00 3.7 C 5.05 g/m*3 -0.03 C 16.1 km/h
1586 08-02-2015 09:50:00 3.6 C 5.08 g/m*3 0.39 C 12.9 km/h
1587 08-02-2015 09:55:00 3.6 C 5.14 g/m*3 0.39 C 12.9 km/h
1588 08-02-2015 10:00:00 3.5 C 5.16 g/m*3 -0.28 C 16.1 km/h
1589 08-02-2015 10:05:00 3.4 C 5.19 g/m*3 -0.14 C 14.5 km/h
1590 08-02-2015 10:10:00 3.4 C 5.25 g/m*3 0.46 C 11.3 km/h
1591 08-02-2015 10:15:00 3.4 C 5.25 g/m*3 -0.14 C 14.5 km/h
1592 08-02-2015 10:20:00 3.3 C 5.22 g/m*3 0.7 C 9.7 km/h
1593 08-02-2015 10:25:00 3.2 C 5.24 g/m*3 -0.1 C 12.9 km/h
1594 08-02-2015 10:30:00 3.1 C 5.27 g/m*3 0.87 C 8.1 km/h
1595 08-02-2015 10:35:00 3.1 C 5.33 g/m*3 0.1 C 11.3 km/h
1596 08-02-2015 10:40:00 3.2 C 5.36 g/m*3 0.99 C 8.1 km/h
1597 08-02-2015 10:45:00 3.3 C 5.34 g/m*3 -1.19 C 20.9 km/h
1598 08-02-2015 10:50:00 3.4 C 5.31 g/m*3 -0.86 C 19.3 km/h
1599 08-02-2015 10:55:00 3.6 C 5.32 g/m*3 -1.19 C 24.1 km/h
1600 08-02-2015 11:00:00 3.7 C 5.17 g/m*3 -0.26 C 17.7 km/h
Sensor: Nr:Datum:Temp:Abs-Feuchte:Windchill:Wind:
Aussen-T/F 1601 08-02-2015 11:05:00 3.8 C 5.21 g/m*3 -0.93 C 24.1 km/h
1602 08-02-2015 11:10:00 3.9 C 5.12 g/m*3 -0.01 C 17.7 km/h
1603 08-02-2015 11:15:00 4.1 C 5.18 g/m*3 0.02 C 19.3 km/h
1604 08-02-2015 11:20:00 4.2 C 5.15 g/m*3 0.15 C 19.3 km/h
1605 08-02-2015 11:25:00 4.1 C 5.06 g/m*3 -0.18 C 20.9 km/h
1606 08-02-2015 11:30:00 4 C 5.02 g/m*3 -0.11 C 19.3 km/h
1607 08-02-2015 11:35:00 3.9 C 4.99 g/m*3 -0.43 C 20.9 km/h
1608 08-02-2015 11:40:00 3.9 C 4.99 g/m*3 -0.43 C 20.9 km/h
1609 08-02-2015 11:45:00 3.9 C 4.99 g/m*3 0.47 C 14.5 km/h
1610 08-02-2015 11:50:00 3.9 C 4.99 g/m*3 -0.43 C 20.9 km/h
1611 08-02-2015 11:55:00 3.8 C 4.96 g/m*3 -0.56 C 20.9 km/h
1612 08-02-2015 12:00:00 3.8 C 4.96 g/m*3 0.35 C 14.5 km/h
1613 08-02-2015 12:05:00 3.8 C 4.96 g/m*3 0.1 C 16.1 km/h
1614 08-02-2015 12:10:00 3.9 C 4.93 g/m*3 -0.8 C 24.1 km/h
1615 08-02-2015 12:15:00 3.9 C 4.86 g/m*3 -0.01 C 17.7 km/h
1616 08-02-2015 12:20:00 4 C 4.83 g/m*3 0.34 C 16.1 km/h
1617 08-02-2015 12:25:00 4.1 C 4.8 g/m*3 -0.18 C 20.9 km/h
1618 08-02-2015 12:30:00 4.1 C 4.86 g/m*3 0.02 C 19.3 km/h
1619 08-02-2015 12:35:00 4.2 C 4.96 g/m*3 1.12 C 12.9 km/h
1620 08-02-2015 12:40:00 4.2 C 4.9 g/m*3 1.43 C 11.3 km/h
1621 08-02-2015 12:45:00 4.3 C 4.86 g/m*3 0.72 C 16.1 km/h
1622 08-02-2015 12:50:00 4.5 C 4.73 g/m*3 0.52 C 19.3 km/h
1623 08-02-2015 12:55:00 4.6 C 4.57 g/m*3 0.65 C 19.3 km/h
1624 08-02-2015 13:00:00 4.6 C 4.63 g/m*3 0.86 C 17.7 km/h
1625 08-02-2015 13:05:00 4.5 C 4.54 g/m*3 0.96 C 16.1 km/h
Sensor: Nr:Datum:Temp:Abs-Feuchte:Windchill:Wind:
Aussen-T/F 1626 08-02-2015 13:10:00 4.5 C 4.54 g/m*3 1.21 C 14.5 km/h
1627 08-02-2015 13:15:00 4.6 C 4.5 g/m*3 0.45 C 20.9 km/h
1628 08-02-2015 13:20:00 4.7 C 4.6 g/m*3 0.58 C 20.9 km/h
1629 08-02-2015 13:25:00 4.8 C 4.56 g/m*3 0.52 C 22.5 km/h
1630 08-02-2015 13:30:00 4.8 C 4.49 g/m*3 1.11 C 17.7 km/h
1631 08-02-2015 13:35:00 4.7 C 4.4 g/m*3 1.73 C 12.9 km/h
1632 08-02-2015 13:40:00 4.8 C 4.56 g/m*3 1.58 C 14.5 km/h
1633 08-02-2015 13:45:00 4.9 C 4.52 g/m*3 0.83 C 20.9 km/h
1634 08-02-2015 13:50:00 4.9 C 4.46 g/m*3 0.65 C 22.5 km/h
1635 08-02-2015 13:55:00 4.8 C 4.49 g/m*3 1.34 C 16.1 km/h
1636 08-02-2015 14:00:00 4.9 C 4.59 g/m*3 1.24 C 17.7 km/h
1637 08-02-2015 14:05:00 5 C 4.48 g/m*3 0.78 C 22.5 km/h
1638 08-02-2015 14:10:00 4.9 C 4.46 g/m*3 0.83 C 20.9 km/h
1639 08-02-2015 14:15:00 4.8 C 4.43 g/m*3 1.58 C 14.5 km/h
1640 08-02-2015 14:20:00 4.7 C 4.46 g/m*3 0.78 C 19.3 km/h
1641 08-02-2015 14:25:00 4.8 C 4.49 g/m*3 1.11 C 17.7 km/h
1642 08-02-2015 14:30:00 4.9 C 4.46 g/m*3 0.83 C 20.9 km/h
1643 08-02-2015 14:35:00 5 C 4.48 g/m*3 0.78 C 22.5 km/h
1644 08-02-2015 14:40:00 5 C 4.28 g/m*3 1.15 C 19.3 km/h
1645 08-02-2015 14:45:00 4.9 C 4.25 g/m*3 0.65 C 22.5 km/h
1646 08-02-2015 14:50:00 4.9 C 4.32 g/m*3 1.46 C 16.1 km/h
1647 08-02-2015 14:55:00 4.9 C 4.32 g/m*3 1.24 C 17.7 km/h
1648 08-02-2015 15:00:00 4.8 C 4.22 g/m*3 1.11 C 17.7 km/h
1649 08-02-2015 15:05:00 4.9 C 4.19 g/m*3 1.46 C 16.1 km/h
1650 08-02-2015 15:10:00 5 C 4.28 g/m*3 1.15 C 19.3 km/h
Sensor: Nr:Datum:Temp:Abs-Feuchte:Windchill:Wind:
Aussen-T/F 1651 08-02-2015 15:15:00 5.1 C 4.31 g/m*3 2.22 C 12.9 km/h
1652 08-02-2015 15:20:00 5.1 C 4.17 g/m*3 0.74 C 24.1 km/h
1653 08-02-2015 15:25:00 4.9 C 4.19 g/m*3 0.83 C 20.9 km/h
1654 08-02-2015 15:30:00 4.8 C 4.16 g/m*3 0.71 C 20.9 km/h
1655 08-02-2015 15:35:00 4.8 C 4.09 g/m*3 1.11 C 17.7 km/h
1656 08-02-2015 15:40:00 4.7 C 4 g/m*3 1.46 C 14.5 km/h
1657 08-02-2015 15:45:00 4.6 C 3.97 g/m*3 1.34 C 14.5 km/h
1658 08-02-2015 15:50:00 4.5 C 3.94 g/m*3 0.96 C 16.1 km/h
1659 08-02-2015 15:55:00 4.5 C 4.01 g/m*3 0.96 C 16.1 km/h
1660 08-02-2015 16:00:00 4.4 C 3.98 g/m*3 0.61 C 17.7 km/h
1661 08-02-2015 16:05:00 4.4 C 3.92 g/m*3 1.09 C 14.5 km/h
1662 08-02-2015 16:10:00 4.4 C 3.92 g/m*3 0.84 C 16.1 km/h
1663 08-02-2015 16:15:00 4.3 C 3.89 g/m*3 1.55 C 11.3 km/h
1664 08-02-2015 16:20:00 4.3 C 3.89 g/m*3 0.72 C 16.1 km/h
1665 08-02-2015 16:25:00 4.3 C 3.89 g/m*3 1.55 C 11.3 km/h
1666 08-02-2015 16:30:00 4.3 C 3.89 g/m*3 0.27 C 19.3 km/h
1667 08-02-2015 16:35:00 4.2 C 3.87 g/m*3 0.15 C 19.3 km/h
1668 08-02-2015 16:40:00 4.2 C 3.93 g/m*3 1.43 C 11.3 km/h
1669 08-02-2015 16:45:00 4.1 C 3.9 g/m*3 1.31 C 11.3 km/h
1670 08-02-2015 16:50:00 3.9 C 3.92 g/m*3 0.75 C 12.9 km/h
1671 08-02-2015 16:55:00 3.9 C 3.92 g/m*3 2.32 C 6.4 km/h
1672 08-02-2015 17:00:00 3.8 C 3.89 g/m*3 1.7 C 8.1 km/h
1673 08-02-2015 17:05:00 3.7 C 4.05 g/m*3 3.7 C 4.8 km/h
1674 08-02-2015 17:10:00 3.4 C 4.09 g/m*3 3.4 C 4.8 km/h
1675 08-02-2015 17:15:00 3.3 C 4.13 g/m*3 1.63 C 6.4 km/h
Sensor: Nr:Datum:Temp:Abs-Feuchte:Windchill:Wind:
Aussen-T/F 1676 08-02-2015 17:20:00 3.3 C 4.13 g/m*3 1.63 C 6.4 km/h
1677 08-02-2015 17:25:00 3.2 C 4.22 g/m*3 3.2 C 1.6 km/h
1678 08-02-2015 17:30:00 2.9 C 4.19 g/m*3 0.64 C 8.1 km/h
1679 08-02-2015 17:35:00 2.9 C 4.25 g/m*3 1.17 C 6.4 km/h
1680 08-02-2015 17:40:00 2.9 C 4.25 g/m*3 2.9 C 3.2 km/h
1681 08-02-2015 17:45:00 2.9 C 4.19 g/m*3 2.9 C 4.8 km/h
1682 08-02-2015 17:50:00 2.7 C 4.31 g/m*3 2.7 C 3.2 km/h
1683 08-02-2015 17:55:00 2.5 C 4.31 g/m*3 2.5 C 1.6 km/h
1684 08-02-2015 18:00:00 2.2 C 4.28 g/m*3 2.2 C 1.6 km/h
1685 08-02-2015 18:05:00 2.1 C 4.25 g/m*3 2.1 C 3.2 km/h
1686 08-02-2015 18:10:00 1.9 C 4.25 g/m*3 1.9 C 3.2 km/h
1687 08-02-2015 18:15:00 1.7 C 4.19 g/m*3 1.7 C 3.2 km/h
1688 08-02-2015 18:20:00 1.6 C 4.22 g/m*3 1.6 C 3.2 km/h
1689 08-02-2015 18:25:00 1.4 C 4.21 g/m*3 1.4 C 3.2 km/h
1690 08-02-2015 18:30:00 1.3 C 4.24 g/m*3 1.3 C 3.2 km/h
1691 08-02-2015 18:35:00 1.2 C 4.26 g/m*3 1.2 C 3.2 km/h
1692 08-02-2015 18:40:00 1.1 C 4.29 g/m*3 1.1 C 3.2 km/h
1693 08-02-2015 18:45:00 1 C 4.26 g/m*3 1 C 3.2 km/h
1694 08-02-2015 18:50:00 1 C 4.26 g/m*3 1 C 3.2 km/h
1695 08-02-2015 18:55:00 1.1 C 4.29 g/m*3 1.1 C 3.2 km/h
1696 08-02-2015 19:00:00 1.2 C 4.26 g/m*3 1.2 C 3.2 km/h
1697 08-02-2015 19:05:00 1.3 C 4.29 g/m*3 1.3 C 3.2 km/h
1698 08-02-2015 19:10:00 1.3 C 4.29 g/m*3 1.3 C 3.2 km/h
1699 08-02-2015 19:15:00 1.3 C 4.29 g/m*3 1.3 C 1.6 km/h
1700 08-02-2015 19:20:00 1.2 C 4.26 g/m*3 1.2 C 3.2 km/h
Sensor: Nr:Datum:Temp:Abs-Feuchte:Windchill:Wind:
Aussen-T/F 1701 08-02-2015 19:25:00 1.1 C 4.29 g/m*3 1.1 C 4.8 km/h
1702 08-02-2015 19:30:00 0.9 C 4.28 g/m*3 0.9 C 4.8 km/h
1703 08-02-2015 19:35:00 0.9 C 4.28 g/m*3 0.9 C 1.6 km/h
1704 08-02-2015 19:40:00 1.2 C 4.26 g/m*3 1.2 C 3.2 km/h
1705 08-02-2015 19:45:00 1.3 C 4.24 g/m*3 1.3 C 3.2 km/h
1706 08-02-2015 19:50:00 1.3 C 4.24 g/m*3 1.3 C 4.8 km/h
1707 08-02-2015 19:55:00 1.3 C 4.19 g/m*3 1.3 C 4.8 km/h
1708 08-02-2015 20:00:00 1.3 C 4.24 g/m*3 1.3 C 3.2 km/h
1709 08-02-2015 20:05:00 1.1 C 4.23 g/m*3 1.1 C 3.2 km/h
1710 08-02-2015 20:10:00 1 C 4.31 g/m*3 1 C 3.2 km/h
1711 08-02-2015 20:15:00 0.9 C 4.23 g/m*3 0.9 C 1.6 km/h
1712 08-02-2015 20:20:00 0.7 C 4.17 g/m*3 0.7 C 3.2 km/h
1713 08-02-2015 20:25:00 0.7 C 4.22 g/m*3 0.7 C 4.8 km/h
1714 08-02-2015 20:30:00 0.6 C 4.24 g/m*3 0.6 C 1.6 km/h
1715 08-02-2015 20:35:00 0.5 C 4.21 g/m*3 0.5 C 1.6 km/h
1716 08-02-2015 20:40:00 0.4 C 4.23 g/m*3 0.4 C 3.2 km/h
1717 08-02-2015 20:45:00 0.3 C 4.25 g/m*3 0.3 C 1.6 km/h
1718 08-02-2015 20:50:00 0.2 C 4.22 g/m*3 0.2 C 1.6 km/h
1719 08-02-2015 20:55:00 0.1 C 4.2 g/m*3 0.1 C 4.8 km/h
1720 08-02-2015 21:00:00 0.1 C 4.24 g/m*3 0.1 C 3.2 km/h
1721 08-02-2015 21:05:00 0.1 C 4.24 g/m*3 0.1 C 1.6 km/h
1722 08-02-2015 21:10:00 0.1 C 4.29 g/m*3 0.1 C 1.6 km/h
1723 08-02-2015 21:15:00 0.1 C 4.29 g/m*3 0.1 C 3.2 km/h
1724 08-02-2015 21:20:00 0.1 C 4.29 g/m*3 0.1 C 1.6 km/h
1725 08-02-2015 21:25:00 0.1 C 4.29 g/m*3 0.1 C 1.6 km/h
Sensor: Nr:Datum:Temp:Abs-Feuchte:Windchill:Wind:
Aussen-T/F 1726 08-02-2015 21:30:00 0.1 C 4.29 g/m*3 0.1 C 1.6 km/h
1727 08-02-2015 21:35:00 0.1 C 4.29 g/m*3 0.1 C 3.2 km/h
1728 08-02-2015 21:40:00 0.1 C 4.29 g/m*3 -2.07 C 6.4 km/h
1729 08-02-2015 21:45:00 0.2 C 4.32 g/m*3 0.2 C 1.6 km/h
1730 08-02-2015 21:50:00 0.2 C 4.37 g/m*3 0.2 C 1.6 km/h
1731 08-02-2015 21:55:00 0.3 C 4.4 g/m*3 0.3 C 1.6 km/h
1732 08-02-2015 22:00:00 0.4 C 4.38 g/m*3 0.4 C 3.2 km/h
1733 08-02-2015 22:05:00 0.4 C 4.38 g/m*3 0.4 C 3.2 km/h
1734 08-02-2015 22:10:00 0.5 C 4.41 g/m*3 0.5 C 3.2 km/h
1735 08-02-2015 22:15:00 0.6 C 4.44 g/m*3 0.6 C 4.8 km/h
1736 08-02-2015 22:20:00 0.6 C 4.44 g/m*3 0.6 C 0 km/h
1737 08-02-2015 22:25:00 0.6 C 4.44 g/m*3 0.6 C 0 km/h
1738 08-02-2015 22:30:00 0.7 C 4.53 g/m*3 0.7 C 3.2 km/h
1739 08-02-2015 22:35:00 0.7 C 4.53 g/m*3 0.7 C 3.2 km/h
1740 08-02-2015 22:40:00 0.8 C 4.51 g/m*3 0.8 C 3.2 km/h
1741 08-02-2015 22:45:00 0.8 C 4.51 g/m*3 0.8 C 0 km/h
1742 08-02-2015 22:50:00 0.8 C 4.51 g/m*3 0.8 C 0 km/h
1743 08-02-2015 22:55:00 0.9 C 4.54 g/m*3 0.9 C 1.6 km/h
1744 08-02-2015 23:00:00 1 C 4.62 g/m*3 1 C 1.6 km/h
1745 08-02-2015 23:05:00 1.1 C 4.6 g/m*3 1.1 C 4.8 km/h
1746 08-02-2015 23:10:00 1.1 C 4.6 g/m*3 1.1 C 0 km/h
1747 08-02-2015 23:15:00 1.1 C 4.6 g/m*3 1.1 C 4.8 km/h
1748 08-02-2015 23:20:00 1.2 C 4.68 g/m*3 1.2 C 3.2 km/h
1749 08-02-2015 23:25:00 1.3 C 4.72 g/m*3 1.3 C 3.2 km/h
1750 08-02-2015 23:30:00 1.3 C 4.66 g/m*3 -0.68 C 6.4 km/h
Sensor: Nr:Datum:Temp:Abs-Feuchte:Windchill:Wind:
Aussen-T/F 1751 08-02-2015 23:35:00 1.3 C 4.61 g/m*3 1.3 C 4.8 km/h
1752 08-02-2015 23:40:00 1.4 C 4.69 g/m*3 1.4 C 3.2 km/h
1753 08-02-2015 23:45:00 1.4 C 4.69 g/m*3 1.4 C 1.6 km/h
1754 08-02-2015 23:50:00 1.5 C 4.67 g/m*3 1.5 C 4.8 km/h
1755 08-02-2015 23:55:00 1.6 C 4.7 g/m*3 1.6 C 3.2 km/h
1756 09-02-2015 00:00:00 1.5 C 4.67 g/m*3 1.5 C 3.2 km/h
1757 09-02-2015 00:05:00 1.5 C 4.67 g/m*3 1.5 C 1.6 km/h
1758 09-02-2015 00:10:00 1.5 C 4.67 g/m*3 1.5 C 1.6 km/h
1759 09-02-2015 00:15:00 1.4 C 4.64 g/m*3 1.4 C 3.2 km/h
1760 09-02-2015 00:20:00 1.4 C 4.64 g/m*3 1.4 C 3.2 km/h
1761 09-02-2015 00:25:00 1.4 C 4.64 g/m*3 1.4 C 0 km/h
1762 09-02-2015 00:30:00 1.4 C 4.69 g/m*3 1.4 C 1.6 km/h
1763 09-02-2015 00:35:00 1.4 C 4.69 g/m*3 1.4 C 0 km/h
1764 09-02-2015 00:40:00 1.4 C 4.69 g/m*3 1.4 C 0 km/h
1765 09-02-2015 00:45:00 1.4 C 4.69 g/m*3 1.4 C 3.2 km/h
1766 09-02-2015 00:50:00 1.4 C 4.69 g/m*3 1.4 C 0 km/h
1767 09-02-2015 00:55:00 1.4 C 4.69 g/m*3 1.4 C 0 km/h
1768 09-02-2015 01:00:00 1.4 C 4.75 g/m*3 1.4 C 0 km/h
1769 09-02-2015 01:05:00 1.4 C 4.75 g/m*3 1.4 C 1.6 km/h
1770 09-02-2015 01:10:00 1.4 C 4.75 g/m*3 1.4 C 1.6 km/h
1771 09-02-2015 01:15:00 1.5 C 4.78 g/m*3 1.5 C 0 km/h
1772 09-02-2015 01:20:00 1.5 C 4.78 g/m*3 1.5 C 1.6 km/h
1773 09-02-2015 01:25:00 1.4 C 4.75 g/m*3 1.4 C 0 km/h
1774 09-02-2015 01:30:00 1.4 C 4.75 g/m*3 1.4 C 0 km/h
1775 09-02-2015 01:35:00 1.5 C 4.78 g/m*3 1.5 C 0 km/h
Sensor: Nr:Datum:Temp:Abs-Feuchte:Windchill:Wind:
Aussen-T/F 1776 09-02-2015 01:40:00 1.6 C 4.87 g/m*3 1.6 C 3.2 km/h
1777 09-02-2015 01:45:00 1.6 C 4.87 g/m*3 1.6 C 4.8 km/h
1778 09-02-2015 01:50:00 1.7 C 4.85 g/m*3 1.7 C 3.2 km/h
1779 09-02-2015 01:55:00 1.7 C 4.9 g/m*3 1.7 C 0 km/h
1780 09-02-2015 02:00:00 1.7 C 4.9 g/m*3 1.7 C 0 km/h
1781 09-02-2015 02:05:00 1.7 C 4.9 g/m*3 1.7 C 1.6 km/h
1782 09-02-2015 02:10:00 1.7 C 4.9 g/m*3 1.7 C 1.6 km/h
1783 09-02-2015 02:15:00 1.7 C 4.9 g/m*3 1.7 C 1.6 km/h
1784 09-02-2015 02:20:00 1.7 C 4.9 g/m*3 1.7 C 3.2 km/h
1785 09-02-2015 02:25:00 1.7 C 4.9 g/m*3 1.7 C 1.6 km/h
1786 09-02-2015 02:30:00 1.7 C 4.9 g/m*3 1.7 C 0 km/h
1787 09-02-2015 02:35:00 1.7 C 4.9 g/m*3 1.7 C 1.6 km/h
1788 09-02-2015 02:40:00 1.7 C 4.9 g/m*3 1.7 C 1.6 km/h
1789 09-02-2015 02:45:00 1.7 C 4.9 g/m*3 1.7 C 0 km/h
1790 09-02-2015 02:50:00 1.7 C 4.9 g/m*3 1.7 C 0 km/h
1791 09-02-2015 02:55:00 1.7 C 4.9 g/m*3 1.7 C 1.6 km/h
1792 09-02-2015 03:00:00 1.7 C 4.9 g/m*3 1.7 C 1.6 km/h
1793 09-02-2015 03:05:00 1.7 C 4.9 g/m*3 1.7 C 3.2 km/h
1794 09-02-2015 03:10:00 1.8 C 4.93 g/m*3 1.8 C 0 km/h
1795 09-02-2015 03:15:00 1.8 C 4.99 g/m*3 1.8 C 1.6 km/h
1796 09-02-2015 03:20:00 1.8 C 4.93 g/m*3 1.8 C 3.2 km/h
1797 09-02-2015 03:25:00 1.8 C 4.93 g/m*3 1.8 C 0 km/h
1798 09-02-2015 03:30:00 1.8 C 4.93 g/m*3 1.8 C 0 km/h
1799 09-02-2015 03:35:00 1.7 C 4.9 g/m*3 1.7 C 1.6 km/h
1800 09-02-2015 03:40:00 1.7 C 4.9 g/m*3 1.7 C 4.8 km/h
Sensor: Nr:Datum:Temp:Abs-Feuchte:Windchill:Wind:
Aussen-T/F 1801 09-02-2015 03:45:00 1.9 C 5.08 g/m*3 1.9 C 4.8 km/h
1802 09-02-2015 03:50:00 2.1 C 5.09 g/m*3 2.1 C 4.8 km/h
1803 09-02-2015 03:55:00 2.1 C 5.04 g/m*3 2.1 C 3.2 km/h
1804 09-02-2015 04:00:00 2.2 C 5.13 g/m*3 2.2 C 1.6 km/h
1805 09-02-2015 04:05:00 2.3 C 5.16 g/m*3 2.3 C 4.8 km/h
1806 09-02-2015 04:10:00 2.4 C 5.2 g/m*3 2.4 C 3.2 km/h
1807 09-02-2015 04:15:00 2.5 C 5.29 g/m*3 2.5 C 3.2 km/h
1808 09-02-2015 04:20:00 2.6 C 5.27 g/m*3 0.82 C 6.4 km/h
1809 09-02-2015 04:25:00 2.5 C 5.23 g/m*3 2.5 C 4.8 km/h
1810 09-02-2015 04:30:00 2.5 C 5.23 g/m*3 2.5 C 4.8 km/h
1811 09-02-2015 04:35:00 2.4 C 5.2 g/m*3 2.4 C 1.6 km/h
1812 09-02-2015 04:40:00 2.4 C 5.25 g/m*3 2.4 C 3.2 km/h
1813 09-02-2015 04:45:00 2.4 C 5.25 g/m*3 2.4 C 1.6 km/h
1814 09-02-2015 04:50:00 2.4 C 5.25 g/m*3 2.4 C 1.6 km/h
1815 09-02-2015 04:55:00 2.4 C 5.25 g/m*3 2.4 C 4.8 km/h
1816 09-02-2015 05:00:00 2.4 C 5.25 g/m*3 2.4 C 3.2 km/h
1817 09-02-2015 05:05:00 2.4 C 5.25 g/m*3 2.4 C 3.2 km/h
1818 09-02-2015 05:10:00 2.4 C 5.25 g/m*3 2.4 C 0 km/h
1819 09-02-2015 05:15:00 2.3 C 5.22 g/m*3 2.3 C 4.8 km/h
1820 09-02-2015 05:20:00 2.3 C 5.22 g/m*3 2.3 C 1.6 km/h
1821 09-02-2015 05:25:00 2.3 C 5.27 g/m*3 2.3 C 1.6 km/h
1822 09-02-2015 05:30:00 2.3 C 5.27 g/m*3 2.3 C 4.8 km/h
1823 09-02-2015 05:35:00 2.3 C 5.27 g/m*3 2.3 C 1.6 km/h
1824 09-02-2015 05:40:00 2.3 C 5.27 g/m*3 2.3 C 1.6 km/h
1825 09-02-2015 05:45:00 2.4 C 5.31 g/m*3 2.4 C 1.6 km/h
Sensor: Nr:Datum:Temp:Abs-Feuchte:Windchill:Wind:
Aussen-T/F 1826 09-02-2015 05:50:00 2.4 C 5.31 g/m*3 2.4 C 3.2 km/h
1827 09-02-2015 05:55:00 2.5 C 5.35 g/m*3 2.5 C 3.2 km/h
1828 09-02-2015 06:00:00 2.5 C 5.35 g/m*3 2.5 C 3.2 km/h
1829 09-02-2015 06:05:00 2.5 C 5.35 g/m*3 2.5 C 3.2 km/h
1830 09-02-2015 06:10:00 2.6 C 5.38 g/m*3 2.6 C 4.8 km/h
1831 09-02-2015 06:15:00 2.6 C 5.32 g/m*3 2.6 C 1.6 km/h
1832 09-02-2015 06:20:00 2.6 C 5.32 g/m*3 2.6 C 3.2 km/h
1833 09-02-2015 06:25:00 2.7 C 5.36 g/m*3 0.94 C 6.4 km/h
1834 09-02-2015 06:30:00 2.8 C 5.34 g/m*3 2.8 C 3.2 km/h
1835 09-02-2015 06:35:00 2.9 C 5.37 g/m*3 2.9 C 1.6 km/h
1836 09-02-2015 06:40:00 2.9 C 5.32 g/m*3 2.9 C 1.6 km/h
1837 09-02-2015 06:45:00 2.9 C 5.32 g/m*3 2.9 C 1.6 km/h
1838 09-02-2015 06:50:00 2.9 C 5.32 g/m*3 2.9 C 0 km/h
1839 09-02-2015 06:55:00 2.8 C 5.34 g/m*3 2.8 C 3.2 km/h
1840 09-02-2015 07:00:00 2.8 C 5.34 g/m*3 2.8 C 1.6 km/h
1841 09-02-2015 07:05:00 2.8 C 5.34 g/m*3 2.8 C 1.6 km/h
1842 09-02-2015 07:10:00 2.8 C 5.34 g/m*3 2.8 C 4.8 km/h
1843 09-02-2015 07:15:00 2.8 C 5.34 g/m*3 2.8 C 3.2 km/h
1844 09-02-2015 07:20:00 2.9 C 5.37 g/m*3 2.9 C 1.6 km/h
1845 09-02-2015 07:25:00 3.1 C 5.45 g/m*3 0.87 C 8.1 km/h
1846 09-02-2015 07:30:00 3.3 C 5.52 g/m*3 1.11 C 8.1 km/h
1847 09-02-2015 07:35:00 3.6 C 5.57 g/m*3 1.98 C 6.4 km/h
1848 09-02-2015 07:40:00 3.7 C 5.61 g/m*3 1.58 C 8.1 km/h
1849 09-02-2015 07:45:00 4.1 C 5.76 g/m*3 1 C 12.9 km/h
1850 09-02-2015 07:50:00 4.3 C 5.77 g/m*3 1.89 C 9.7 km/h
Sensor: Nr:Datum:Temp:Abs-Feuchte:Windchill:Wind:
Aussen-T/F 1851 09-02-2015 07:55:00 4.3 C 5.77 g/m*3 1.24 C 12.9 km/h
1852 09-02-2015 08:00:00 4.4 C 5.81 g/m*3 1.67 C 11.3 km/h
1853 09-02-2015 08:05:00 4.3 C 5.77 g/m*3 1.89 C 9.7 km/h
1854 09-02-2015 08:10:00 4.3 C 5.77 g/m*3 1.89 C 9.7 km/h
1855 09-02-2015 08:15:00 4.3 C 5.77 g/m*3 2.29 C 8.1 km/h
1856 09-02-2015 08:20:00 4.2 C 5.73 g/m*3 4.2 C 4.8 km/h
1857 09-02-2015 08:25:00 4.2 C 5.67 g/m*3 1.77 C 9.7 km/h
1858 09-02-2015 08:30:00 4.2 C 5.67 g/m*3 2.17 C 8.1 km/h
1859 09-02-2015 08:35:00 4.3 C 5.64 g/m*3 0.97 C 14.5 km/h
1860 09-02-2015 08:40:00 4.3 C 5.64 g/m*3 0.97 C 14.5 km/h
1861 09-02-2015 08:45:00 4.4 C 5.68 g/m*3 0.84 C 16.1 km/h
1862 09-02-2015 08:50:00 4.4 C 5.62 g/m*3 0.84 C 16.1 km/h
1863 09-02-2015 08:55:00 4.4 C 5.62 g/m*3 4.4 C 4.8 km/h
1864 09-02-2015 09:00:00 4.5 C 5.65 g/m*3 1.79 C 11.3 km/h
1865 09-02-2015 09:05:00 4.6 C 5.69 g/m*3 2.25 C 9.7 km/h
1866 09-02-2015 09:10:00 4.6 C 5.62 g/m*3 2.64 C 8.1 km/h
1867 09-02-2015 09:15:00 4.6 C 5.62 g/m*3 3.13 C 6.4 km/h
1868 09-02-2015 09:20:00 4.7 C 5.6 g/m*3 3.25 C 6.4 km/h
1869 09-02-2015 09:25:00 4.7 C 5.6 g/m*3 2.76 C 8.1 km/h
1870 09-02-2015 09:30:00 4.7 C 5.6 g/m*3 2.37 C 9.7 km/h
1871 09-02-2015 09:35:00 4.7 C 5.6 g/m*3 2.76 C 8.1 km/h
1872 09-02-2015 09:40:00 4.7 C 5.6 g/m*3 4.7 C 4.8 km/h
1873 09-02-2015 09:45:00 4.7 C 5.6 g/m*3 2.37 C 9.7 km/h
1874 09-02-2015 09:50:00 4.7 C 5.6 g/m*3 2.76 C 8.1 km/h
1875 09-02-2015 09:55:00 4.7 C 5.6 g/m*3 2.37 C 9.7 km/h
Sensor: Nr:Datum:Temp:Abs-Feuchte:Windchill:Wind:
Aussen-T/F 1876 09-02-2015 10:00:00 4.8 C 5.63 g/m*3 2.87 C 8.1 km/h
1877 09-02-2015 10:05:00 4.8 C 5.63 g/m*3 2.15 C 11.3 km/h
1878 09-02-2015 10:10:00 4.9 C 5.67 g/m*3 2.99 C 8.1 km/h
1879 09-02-2015 10:15:00 4.9 C 5.74 g/m*3 3.48 C 6.4 km/h
1880 09-02-2015 10:20:00 4.9 C 5.74 g/m*3 2.61 C 9.7 km/h
1881 09-02-2015 10:25:00 4.9 C 5.81 g/m*3 2.61 C 9.7 km/h
1882 09-02-2015 10:30:00 4.9 C 5.81 g/m*3 3.48 C 6.4 km/h
1883 09-02-2015 10:35:00 4.9 C 5.87 g/m*3 2.99 C 8.1 km/h
1884 09-02-2015 10:40:00 4.9 C 5.94 g/m*3 3.48 C 6.4 km/h
1885 09-02-2015 10:45:00 4.8 C 5.9 g/m*3 3.36 C 6.4 km/h
1886 09-02-2015 10:50:00 4.7 C 5.93 g/m*3 2.37 C 9.7 km/h
1887 09-02-2015 10:55:00 4.7 C 5.93 g/m*3 4.7 C 4.8 km/h
1888 09-02-2015 11:00:00 4.7 C 6 g/m*3 2.76 C 8.1 km/h
1889 09-02-2015 11:05:00 4.6 C 5.96 g/m*3 3.13 C 6.4 km/h
1890 09-02-2015 11:10:00 4.6 C 6.02 g/m*3 3.13 C 6.4 km/h
1891 09-02-2015 11:15:00 4.6 C 6.02 g/m*3 2.64 C 8.1 km/h
1892 09-02-2015 11:20:00 4.7 C 6.06 g/m*3 4.7 C 4.8 km/h
1893 09-02-2015 11:25:00 4.7 C 6.06 g/m*3 4.7 C 4.8 km/h
1894 09-02-2015 11:30:00 4.8 C 6.04 g/m*3 2.87 C 8.1 km/h
1895 09-02-2015 11:35:00 4.8 C 6.04 g/m*3 4.8 C 4.8 km/h
1896 09-02-2015 11:40:00 4.8 C 6.04 g/m*3 3.36 C 6.4 km/h
1897 09-02-2015 11:45:00 4.8 C 5.97 g/m*3 3.36 C 6.4 km/h
1898 09-02-2015 11:50:00 4.9 C 6.08 g/m*3 2.99 C 8.1 km/h
1899 09-02-2015 11:55:00 5 C 6.05 g/m*3 2.39 C 11.3 km/h
1900 09-02-2015 12:00:00 5.1 C 6.09 g/m*3 2.84 C 9.7 km/h
Sensor: Nr:Datum:Temp:Abs-Feuchte:Windchill:Wind:
Aussen-T/F 1901 09-02-2015 12:05:00 5.1 C 6.09 g/m*3 3.71 C 6.4 km/h
1902 09-02-2015 12:10:00 5.2 C 6.13 g/m*3 5.2 C 4.8 km/h
1903 09-02-2015 12:15:00 5.3 C 6.17 g/m*3 5.3 C 4.8 km/h
1904 09-02-2015 12:20:00 5.4 C 6.21 g/m*3 4.06 C 6.4 km/h
1905 09-02-2015 12:25:00 5.6 C 6.29 g/m*3 3.44 C 9.7 km/h
1906 09-02-2015 12:30:00 5.7 C 6.26 g/m*3 3.56 C 9.7 km/h
1907 09-02-2015 12:35:00 5.8 C 6.3 g/m*3 3.07 C 12.9 km/h
1908 09-02-2015 12:40:00 5.8 C 6.3 g/m*3 3.07 C 12.9 km/h
1909 09-02-2015 12:45:00 5.8 C 6.3 g/m*3 4.05 C 8.1 km/h
1910 09-02-2015 12:50:00 5.8 C 6.3 g/m*3 4.52 C 6.4 km/h
1911 09-02-2015 12:55:00 5.9 C 6.42 g/m*3 3.48 C 11.3 km/h
1912 09-02-2015 13:00:00 5.9 C 6.35 g/m*3 2.93 C 14.5 km/h
1913 09-02-2015 13:05:00 5.9 C 6.42 g/m*3 3.19 C 12.9 km/h
1914 09-02-2015 13:10:00 5.9 C 6.42 g/m*3 3.8 C 9.7 km/h
1915 09-02-2015 13:15:00 5.9 C 6.35 g/m*3 5.9 C 4.8 km/h
1916 09-02-2015 13:20:00 5.9 C 6.35 g/m*3 4.17 C 8.1 km/h
1917 09-02-2015 13:25:00 5.9 C 6.35 g/m*3 5.9 C 3.2 km/h
1918 09-02-2015 13:30:00 5.8 C 6.38 g/m*3 3.36 C 11.3 km/h
1919 09-02-2015 13:35:00 5.8 C 6.38 g/m*3 3.36 C 11.3 km/h
1920 09-02-2015 13:40:00 5.7 C 6.33 g/m*3 2.45 C 16.1 km/h
1921 09-02-2015 13:45:00 5.7 C 6.33 g/m*3 3.93 C 8.1 km/h
1922 09-02-2015 13:50:00 5.7 C 6.33 g/m*3 2.95 C 12.9 km/h
1923 09-02-2015 13:55:00 5.8 C 6.38 g/m*3 3.07 C 12.9 km/h
1924 09-02-2015 14:00:00 5.8 C 6.3 g/m*3 4.05 C 8.1 km/h
1925 09-02-2015 14:05:00 5.8 C 6.38 g/m*3 5.8 C 3.2 km/h
Sensor: Nr:Datum:Temp:Abs-Feuchte:Windchill:Wind:
Aussen-T/F 1926 09-02-2015 14:10:00 5.8 C 6.38 g/m*3 3.68 C 9.7 km/h
1927 09-02-2015 14:15:00 5.7 C 6.33 g/m*3 2.95 C 12.9 km/h
1928 09-02-2015 14:20:00 5.7 C 6.4 g/m*3 3.56 C 9.7 km/h
1929 09-02-2015 14:25:00 5.6 C 6.36 g/m*3 3.81 C 8.1 km/h
1930 09-02-2015 14:30:00 5.4 C 6.35 g/m*3 3.2 C 9.7 km/h
1931 09-02-2015 14:35:00 5.4 C 6.35 g/m*3 4.06 C 6.4 km/h
1932 09-02-2015 14:40:00 5.3 C 6.31 g/m*3 5.3 C 4.8 km/h
1933 09-02-2015 14:45:00 5.3 C 6.31 g/m*3 5.3 C 3.2 km/h
1934 09-02-2015 14:50:00 5.3 C 6.31 g/m*3 5.3 C 1.6 km/h
1935 09-02-2015 14:55:00 5.3 C 6.31 g/m*3 3.94 C 6.4 km/h
1936 09-02-2015 15:00:00 5.3 C 6.31 g/m*3 3.08 C 9.7 km/h
1937 09-02-2015 15:05:00 5.3 C 6.31 g/m*3 3.94 C 6.4 km/h
1938 09-02-2015 15:10:00 5.3 C 6.31 g/m*3 3.46 C 8.1 km/h
1939 09-02-2015 15:15:00 5.3 C 6.31 g/m*3 3.08 C 9.7 km/h
1940 09-02-2015 15:20:00 5.3 C 6.31 g/m*3 3.08 C 9.7 km/h
1941 09-02-2015 15:25:00 5.3 C 6.31 g/m*3 5.3 C 4.8 km/h
1942 09-02-2015 15:30:00 5.3 C 6.38 g/m*3 5.3 C 4.8 km/h
1943 09-02-2015 15:35:00 5.2 C 6.33 g/m*3 5.2 C 4.8 km/h
1944 09-02-2015 15:40:00 5.2 C 6.33 g/m*3 5.2 C 4.8 km/h
1945 09-02-2015 15:45:00 5.2 C 6.33 g/m*3 3.82 C 6.4 km/h
1946 09-02-2015 15:50:00 5.2 C 6.4 g/m*3 5.2 C 0 km/h
1947 09-02-2015 15:55:00 5.1 C 6.36 g/m*3 5.1 C 4.8 km/h
1948 09-02-2015 16:00:00 5.1 C 6.36 g/m*3 5.1 C 4.8 km/h
1949 09-02-2015 16:05:00 5.1 C 6.36 g/m*3 5.1 C 4.8 km/h
1950 09-02-2015 16:10:00 5.1 C 6.36 g/m*3 3.71 C 6.4 km/h
Sensor: Nr:Datum:Temp:Abs-Feuchte:Windchill:Wind:
Aussen-T/F 1951 09-02-2015 16:15:00 5.1 C 6.36 g/m*3 2.51 C 11.3 km/h
1952 09-02-2015 16:20:00 5.1 C 6.36 g/m*3 5.1 C 3.2 km/h
1953 09-02-2015 16:25:00 5.1 C 6.36 g/m*3 5.1 C 3.2 km/h
1954 09-02-2015 16:30:00 5.1 C 6.36 g/m*3 5.1 C 1.6 km/h
1955 09-02-2015 16:35:00 5.1 C 6.36 g/m*3 5.1 C 3.2 km/h
1956 09-02-2015 16:40:00 5 C 6.32 g/m*3 5 C 4.8 km/h
1957 09-02-2015 16:45:00 5.1 C 6.36 g/m*3 5.1 C 3.2 km/h
1958 09-02-2015 16:50:00 5.1 C 6.36 g/m*3 5.1 C 4.8 km/h
1959 09-02-2015 16:55:00 5.1 C 6.36 g/m*3 5.1 C 3.2 km/h
1960 09-02-2015 17:00:00 5 C 6.32 g/m*3 5 C 3.2 km/h
1961 09-02-2015 17:05:00 5 C 6.32 g/m*3 5 C 3.2 km/h
1962 09-02-2015 17:10:00 4.9 C 6.28 g/m*3 4.9 C 3.2 km/h
1963 09-02-2015 17:15:00 4.9 C 6.28 g/m*3 4.9 C 3.2 km/h
1964 09-02-2015 17:20:00 4.9 C 6.28 g/m*3 4.9 C 3.2 km/h
1965 09-02-2015 17:25:00 4.9 C 6.28 g/m*3 3.48 C 6.4 km/h
1966 09-02-2015 17:30:00 4.9 C 6.28 g/m*3 4.9 C 1.6 km/h
1967 09-02-2015 17:35:00 4.9 C 6.28 g/m*3 4.9 C 4.8 km/h
1968 09-02-2015 17:40:00 4.9 C 6.35 g/m*3 4.9 C 3.2 km/h
1969 09-02-2015 17:45:00 4.9 C 6.35 g/m*3 4.9 C 3.2 km/h
1970 09-02-2015 17:50:00 4.9 C 6.28 g/m*3 4.9 C 4.8 km/h
1971 09-02-2015 17:55:00 4.9 C 6.28 g/m*3 4.9 C 4.8 km/h
1972 09-02-2015 18:00:00 5 C 6.32 g/m*3 5 C 3.2 km/h
1973 09-02-2015 18:05:00 5 C 6.32 g/m*3 5 C 4.8 km/h
1974 09-02-2015 18:10:00 5 C 6.32 g/m*3 5 C 4.8 km/h
1975 09-02-2015 18:15:00 5.1 C 6.36 g/m*3 3.23 C 8.1 km/h
Sensor: Nr:Datum:Temp:Abs-Feuchte:Windchill:Wind:
Aussen-T/F 1976 09-02-2015 18:20:00 5.1 C 6.36 g/m*3 3.71 C 6.4 km/h
1977 09-02-2015 18:25:00 5.1 C 6.36 g/m*3 5.1 C 3.2 km/h
1978 09-02-2015 18:30:00 5.1 C 6.36 g/m*3 3.23 C 8.1 km/h
1979 09-02-2015 18:35:00 5.1 C 6.36 g/m*3 5.1 C 3.2 km/h
1980 09-02-2015 18:40:00 5.1 C 6.36 g/m*3 3.71 C 6.4 km/h
1981 09-02-2015 18:45:00 5.1 C 6.36 g/m*3 3.71 C 6.4 km/h
1982 09-02-2015 18:50:00 5.1 C 6.36 g/m*3 5.1 C 1.6 km/h
1983 09-02-2015 18:55:00 5.1 C 6.36 g/m*3 5.1 C 1.6 km/h
1984 09-02-2015 19:00:00 5.1 C 6.36 g/m*3 5.1 C 3.2 km/h
1985 09-02-2015 19:05:00 5.1 C 6.36 g/m*3 5.1 C 3.2 km/h
1986 09-02-2015 19:10:00 5.1 C 6.36 g/m*3 5.1 C 0 km/h
1987 09-02-2015 19:15:00 5.1 C 6.36 g/m*3 3.71 C 6.4 km/h
1988 09-02-2015 19:20:00 5.1 C 6.36 g/m*3 5.1 C 0 km/h
1989 09-02-2015 19:25:00 5.1 C 6.36 g/m*3 5.1 C 3.2 km/h
1990 09-02-2015 19:30:00 5.1 C 6.43 g/m*3 5.1 C 1.6 km/h
1991 09-02-2015 19:35:00 5 C 6.39 g/m*3 5 C 4.8 km/h
1992 09-02-2015 19:40:00 5 C 6.39 g/m*3 5 C 3.2 km/h
1993 09-02-2015 19:45:00 5 C 6.39 g/m*3 2.09 C 12.9 km/h
1994 09-02-2015 19:50:00 5.1 C 6.43 g/m*3 5.1 C 1.6 km/h
1995 09-02-2015 19:55:00 5.1 C 6.43 g/m*3 5.1 C 3.2 km/h
1996 09-02-2015 20:00:00 5.1 C 6.43 g/m*3 5.1 C 3.2 km/h
1997 09-02-2015 20:05:00 5.1 C 6.36 g/m*3 5.1 C 1.6 km/h
1998 09-02-2015 20:10:00 5 C 6.32 g/m*3 5 C 1.6 km/h
1999 09-02-2015 20:15:00 5 C 6.39 g/m*3 5 C 1.6 km/h
2000 09-02-2015 20:20:00 5 C 6.39 g/m*3 5 C 1.6 km/h
Sensor: Nr:Datum:Temp:Abs-Feuchte:Windchill:Wind:
Aussen-T/F 2001 09-02-2015 20:25:00 4.9 C 6.28 g/m*3 4.9 C 3.2 km/h
2002 09-02-2015 20:30:00 5 C 6.39 g/m*3 5 C 3.2 km/h
2003 09-02-2015 20:35:00 5 C 6.32 g/m*3 5 C 0 km/h
2004 09-02-2015 20:40:00 5 C 6.32 g/m*3 5 C 1.6 km/h
2005 09-02-2015 20:45:00 5 C 6.32 g/m*3 5 C 0 km/h
2006 09-02-2015 20:50:00 4.9 C 6.35 g/m*3 4.9 C 3.2 km/h
2007 09-02-2015 20:55:00 5 C 6.39 g/m*3 5 C 1.6 km/h
2008 09-02-2015 21:00:00 5 C 6.39 g/m*3 5 C 0 km/h
2009 09-02-2015 21:05:00 5 C 6.39 g/m*3 5 C 4.8 km/h
2010 09-02-2015 21:10:00 5 C 6.39 g/m*3 5 C 0 km/h
2011 09-02-2015 21:15:00 5 C 6.39 g/m*3 5 C 4.8 km/h
2012 09-02-2015 21:20:00 5.1 C 6.43 g/m*3 5.1 C 4.8 km/h
2013 09-02-2015 21:25:00 5.1 C 6.43 g/m*3 5.1 C 4.8 km/h
2014 09-02-2015 21:30:00 5.1 C 6.43 g/m*3 5.1 C 0 km/h
2015 09-02-2015 21:35:00 5.1 C 6.5 g/m*3 5.1 C 1.6 km/h
2016 09-02-2015 21:40:00 4.9 C 6.35 g/m*3 4.9 C 0 km/h
2017 09-02-2015 21:45:00 4.9 C 6.41 g/m*3 4.9 C 0 km/h
2018 09-02-2015 21:50:00 4.8 C 6.37 g/m*3 4.8 C 0 km/h
2019 09-02-2015 21:55:00 4.8 C 6.37 g/m*3 4.8 C 3.2 km/h
2020 09-02-2015 22:00:00 4.8 C 6.37 g/m*3 4.8 C 0 km/h
2021 09-02-2015 22:05:00 4.7 C 6.33 g/m*3 4.7 C 3.2 km/h
2022 09-02-2015 22:10:00 4.7 C 6.33 g/m*3 4.7 C 3.2 km/h
2023 09-02-2015 22:15:00 4.7 C 6.33 g/m*3 4.7 C 1.6 km/h
2024 09-02-2015 22:20:00 4.7 C 6.39 g/m*3 4.7 C 1.6 km/h
2025 09-02-2015 22:25:00 4.7 C 6.39 g/m*3 4.7 C 1.6 km/h
Sensor: Nr:Datum:Temp:Abs-Feuchte:Windchill:Wind:
Aussen-T/F 2026 09-02-2015 22:30:00 4.7 C 6.39 g/m*3 4.7 C 0 km/h
2027 09-02-2015 22:35:00 4.7 C 6.39 g/m*3 4.7 C 1.6 km/h
2028 09-02-2015 22:40:00 4.7 C 6.39 g/m*3 4.7 C 3.2 km/h
2029 09-02-2015 22:45:00 4.7 C 6.39 g/m*3 4.7 C 1.6 km/h
2030 09-02-2015 22:50:00 4.6 C 6.35 g/m*3 4.6 C 0 km/h
2031 09-02-2015 22:55:00 4.7 C 6.39 g/m*3 4.7 C 3.2 km/h
2032 09-02-2015 23:00:00 4.7 C 6.39 g/m*3 4.7 C 4.8 km/h
2033 09-02-2015 23:05:00 4.7 C 6.39 g/m*3 4.7 C 1.6 km/h
2034 09-02-2015 23:10:00 4.7 C 6.39 g/m*3 4.7 C 0 km/h
2035 09-02-2015 23:15:00 4.7 C 6.39 g/m*3 4.7 C 1.6 km/h
2036 09-02-2015 23:20:00 4.7 C 6.39 g/m*3 4.7 C 1.6 km/h
2037 09-02-2015 23:25:00 4.7 C 6.39 g/m*3 4.7 C 3.2 km/h
2038 09-02-2015 23:30:00 4.7 C 6.39 g/m*3 4.7 C 3.2 km/h
2039 09-02-2015 23:35:00 4.7 C 6.39 g/m*3 4.7 C 3.2 km/h
2040 09-02-2015 23:40:00 4.7 C 6.39 g/m*3 4.7 C 4.8 km/h
2041 09-02-2015 23:45:00 4.7 C 6.39 g/m*3 4.7 C 1.6 km/h
2042 09-02-2015 23:50:00 4.7 C 6.39 g/m*3 4.7 C 1.6 km/h
2043 09-02-2015 23:55:00 4.7 C 6.39 g/m*3 4.7 C 4.8 km/h
2044 10-02-2015 00:00:00 4.7 C 6.33 g/m*3 3.25 C 6.4 km/h
2045 10-02-2015 00:05:00 4.7 C 6.33 g/m*3 4.7 C 1.6 km/h
2046 10-02-2015 00:10:00 4.6 C 6.29 g/m*3 4.6 C 1.6 km/h
2047 10-02-2015 00:15:00 4.7 C 6.33 g/m*3 4.7 C 0 km/h
2048 10-02-2015 00:20:00 4.6 C 6.29 g/m*3 4.6 C 0 km/h
2049 10-02-2015 00:25:00 4.6 C 6.29 g/m*3 4.6 C 3.2 km/h
2050 10-02-2015 00:30:00 4.5 C 6.24 g/m*3 4.5 C 0 km/h
Sensor: Nr:Datum:Temp:Abs-Feuchte:Windchill:Wind:
Aussen-T/F 2051 10-02-2015 00:35:00 4.4 C 6.27 g/m*3 4.4 C 0 km/h
2052 10-02-2015 00:40:00 4.4 C 6.27 g/m*3 4.4 C 0 km/h
2053 10-02-2015 00:45:00 4.4 C 6.27 g/m*3 4.4 C 0 km/h
2054 10-02-2015 00:50:00 4.3 C 6.23 g/m*3 4.3 C 0 km/h
2055 10-02-2015 00:55:00 4.3 C 6.23 g/m*3 4.3 C 0 km/h
2056 10-02-2015 01:00:00 4.3 C 6.23 g/m*3 4.3 C 0 km/h
2057 10-02-2015 01:05:00 4.3 C 6.23 g/m*3 4.3 C 1.6 km/h
2058 10-02-2015 01:10:00 4.3 C 6.23 g/m*3 4.3 C 0 km/h
2059 10-02-2015 01:15:00 4.3 C 6.23 g/m*3 4.3 C 1.6 km/h
2060 10-02-2015 01:20:00 4.3 C 6.23 g/m*3 4.3 C 0 km/h
2061 10-02-2015 01:25:00 4.2 C 6.19 g/m*3 4.2 C 3.2 km/h
2062 10-02-2015 01:30:00 4.2 C 6.19 g/m*3 4.2 C 0 km/h
2063 10-02-2015 01:35:00 4.2 C 6.19 g/m*3 4.2 C 0 km/h
2064 10-02-2015 01:40:00 4.2 C 6.19 g/m*3 4.2 C 0 km/h
2065 10-02-2015 01:45:00 4.2 C 6.19 g/m*3 4.2 C 0 km/h
2066 10-02-2015 01:50:00 4.2 C 6.19 g/m*3 4.2 C 1.6 km/h
2067 10-02-2015 01:55:00 4.2 C 6.25 g/m*3 4.2 C 1.6 km/h
2068 10-02-2015 02:00:00 4.2 C 6.19 g/m*3 4.2 C 0 km/h
2069 10-02-2015 02:05:00 4.2 C 6.19 g/m*3 4.2 C 1.6 km/h
2070 10-02-2015 02:10:00 4.2 C 6.19 g/m*3 4.2 C 3.2 km/h
2071 10-02-2015 02:15:00 4.2 C 6.19 g/m*3 4.2 C 1.6 km/h
2072 10-02-2015 02:20:00 4.2 C 6.19 g/m*3 4.2 C 3.2 km/h
2073 10-02-2015 02:25:00 4.2 C 6.19 g/m*3 4.2 C 1.6 km/h
2074 10-02-2015 02:30:00 4.2 C 6.19 g/m*3 4.2 C 1.6 km/h
2075 10-02-2015 02:35:00 4.2 C 6.19 g/m*3 4.2 C 1.6 km/h
Sensor: Nr:Datum:Temp:Abs-Feuchte:Windchill:Wind:
Aussen-T/F 2076 10-02-2015 02:40:00 4.2 C 6.19 g/m*3 4.2 C 1.6 km/h
2077 10-02-2015 02:45:00 4.2 C 6.25 g/m*3 4.2 C 3.2 km/h
2078 10-02-2015 02:50:00 4.2 C 6.25 g/m*3 4.2 C 3.2 km/h
2079 10-02-2015 02:55:00 4.2 C 6.19 g/m*3 4.2 C 3.2 km/h
2080 10-02-2015 03:00:00 4.2 C 6.19 g/m*3 4.2 C 3.2 km/h
2081 10-02-2015 03:05:00 4.3 C 6.23 g/m*3 4.3 C 3.2 km/h
2082 10-02-2015 03:10:00 4.3 C 6.23 g/m*3 4.3 C 0 km/h
2083 10-02-2015 03:15:00 4.3 C 6.23 g/m*3 4.3 C 0 km/h
2084 10-02-2015 03:20:00 4.3 C 6.23 g/m*3 4.3 C 0 km/h
2085 10-02-2015 03:25:00 4.3 C 6.23 g/m*3 4.3 C 0 km/h
2086 10-02-2015 03:30:00 4.3 C 6.23 g/m*3 4.3 C 1.6 km/h
2087 10-02-2015 03:35:00 4.3 C 6.29 g/m*3 4.3 C 1.6 km/h
2088 10-02-2015 03:40:00 4.3 C 6.23 g/m*3 4.3 C 0 km/h
2089 10-02-2015 03:45:00 4.3 C 6.23 g/m*3 4.3 C 0 km/h
2090 10-02-2015 03:50:00 4.2 C 6.19 g/m*3 4.2 C 3.2 km/h
2091 10-02-2015 03:55:00 4.3 C 6.23 g/m*3 4.3 C 3.2 km/h
2092 10-02-2015 04:00:00 4.2 C 6.19 g/m*3 4.2 C 1.6 km/h
2093 10-02-2015 04:05:00 4.2 C 6.19 g/m*3 4.2 C 1.6 km/h
2094 10-02-2015 04:10:00 4.2 C 6.25 g/m*3 4.2 C 3.2 km/h
2095 10-02-2015 04:15:00 4.2 C 6.25 g/m*3 4.2 C 0 km/h
2096 10-02-2015 04:20:00 4.3 C 6.29 g/m*3 4.3 C 0 km/h
2097 10-02-2015 04:25:00 4.3 C 6.29 g/m*3 4.3 C 0 km/h
2098 10-02-2015 04:30:00 4.3 C 6.29 g/m*3 4.3 C 0 km/h
2099 10-02-2015 04:35:00 4.3 C 6.23 g/m*3 4.3 C 0 km/h
2100 10-02-2015 04:40:00 4.3 C 6.29 g/m*3 4.3 C 0 km/h
Sensor: Nr:Datum:Temp:Abs-Feuchte:Windchill:Wind:
Aussen-T/F 2101 10-02-2015 04:45:00 4.3 C 6.29 g/m*3 4.3 C 0 km/h
2102 10-02-2015 04:50:00 4.3 C 6.29 g/m*3 4.3 C 1.6 km/h
2103 10-02-2015 04:55:00 4.3 C 6.29 g/m*3 4.3 C 1.6 km/h
2104 10-02-2015 05:00:00 4.3 C 6.29 g/m*3 4.3 C 0 km/h
2105 10-02-2015 05:05:00 4.3 C 6.29 g/m*3 4.3 C 0 km/h
2106 10-02-2015 05:10:00 4.3 C 6.29 g/m*3 4.3 C 0 km/h
2107 10-02-2015 05:15:00 4.3 C 6.29 g/m*3 4.3 C 1.6 km/h
2108 10-02-2015 05:20:00 4.3 C 6.29 g/m*3 4.3 C 0 km/h
2109 10-02-2015 05:25:00 4.3 C 6.29 g/m*3 4.3 C 0 km/h
2110 10-02-2015 05:30:00 4.3 C 6.29 g/m*3 4.3 C 0 km/h
2111 10-02-2015 05:35:00 4.3 C 6.29 g/m*3 4.3 C 0 km/h
2112 10-02-2015 05:40:00 4.2 C 6.25 g/m*3 4.2 C 0 km/h
2113 10-02-2015 05:45:00 4.2 C 6.25 g/m*3 4.2 C 1.6 km/h
2114 10-02-2015 05:50:00 4.2 C 6.25 g/m*3 4.2 C 0 km/h
2115 10-02-2015 05:55:00 4.3 C 6.29 g/m*3 4.3 C 0 km/h
2116 10-02-2015 06:00:00 4.2 C 6.25 g/m*3 4.2 C 0 km/h
2117 10-02-2015 06:05:00 4.2 C 6.25 g/m*3 4.2 C 0 km/h
2118 10-02-2015 06:10:00 4.2 C 6.25 g/m*3 4.2 C 0 km/h
2119 10-02-2015 06:15:00 4.2 C 6.25 g/m*3 4.2 C 0 km/h
2120 10-02-2015 06:20:00 4.2 C 6.25 g/m*3 4.2 C 0 km/h
2121 10-02-2015 06:25:00 4.2 C 6.25 g/m*3 4.2 C 0 km/h
2122 10-02-2015 06:30:00 4.3 C 6.29 g/m*3 4.3 C 0 km/h
2123 10-02-2015 06:35:00 4.3 C 6.29 g/m*3 4.3 C 0 km/h
2124 10-02-2015 06:40:00 4.2 C 6.25 g/m*3 4.2 C 0 km/h
2125 10-02-2015 06:45:00 4.2 C 6.25 g/m*3 4.2 C 1.6 km/h
Sensor: Nr:Datum:Temp:Abs-Feuchte:Windchill:Wind:
Aussen-T/F 2126 10-02-2015 06:50:00 4.3 C 6.29 g/m*3 4.3 C 0 km/h
2127 10-02-2015 06:55:00 4.3 C 6.29 g/m*3 4.3 C 0 km/h
2128 10-02-2015 07:00:00 4.3 C 6.29 g/m*3 4.3 C 3.2 km/h
2129 10-02-2015 07:05:00 4.4 C 6.33 g/m*3 4.4 C 0 km/h
2130 10-02-2015 07:10:00 4.4 C 6.33 g/m*3 4.4 C 0 km/h
2131 10-02-2015 07:15:00 4.4 C 6.33 g/m*3 4.4 C 3.2 km/h
2132 10-02-2015 07:20:00 4.4 C 6.33 g/m*3 4.4 C 1.6 km/h
2133 10-02-2015 07:25:00 4.4 C 6.33 g/m*3 4.4 C 0 km/h
2134 10-02-2015 07:30:00 4.4 C 6.33 g/m*3 4.4 C 1.6 km/h
2135 10-02-2015 07:35:00 4.4 C 6.33 g/m*3 4.4 C 0 km/h
2136 10-02-2015 07:40:00 4.4 C 6.33 g/m*3 4.4 C 0 km/h
2137 10-02-2015 07:45:00 4.4 C 6.33 g/m*3 4.4 C 0 km/h
2138 10-02-2015 07:50:00 4.4 C 6.33 g/m*3 4.4 C 1.6 km/h
2139 10-02-2015 07:55:00 4.4 C 6.33 g/m*3 4.4 C 0 km/h
2140 10-02-2015 08:00:00 4.4 C 6.33 g/m*3 4.4 C 0 km/h
2141 10-02-2015 08:05:00 4.4 C 6.33 g/m*3 4.4 C 3.2 km/h
2142 10-02-2015 08:10:00 4.3 C 6.29 g/m*3 4.3 C 1.6 km/h
2143 10-02-2015 08:15:00 4.4 C 6.33 g/m*3 4.4 C 0 km/h
2144 10-02-2015 08:20:00 4.4 C 6.33 g/m*3 4.4 C 1.6 km/h
2145 10-02-2015 08:25:00 4.4 C 6.33 g/m*3 4.4 C 1.6 km/h
2146 10-02-2015 08:30:00 4.4 C 6.33 g/m*3 4.4 C 0 km/h
2147 10-02-2015 08:35:00 4.4 C 6.33 g/m*3 4.4 C 1.6 km/h
2148 10-02-2015 08:40:00 4.4 C 6.33 g/m*3 4.4 C 0 km/h
2149 10-02-2015 08:45:00 4.4 C 6.33 g/m*3 4.4 C 1.6 km/h
2150 10-02-2015 08:50:00 4.5 C 6.38 g/m*3 4.5 C 1.6 km/h
Sensor: Nr:Datum:Temp:Abs-Feuchte:Windchill:Wind:
Aussen-T/F 2151 10-02-2015 08:55:00 4.6 C 6.42 g/m*3 4.6 C 0 km/h
2152 10-02-2015 09:00:00 4.6 C 6.42 g/m*3 4.6 C 1.6 km/h
2153 10-02-2015 09:05:00 4.6 C 6.42 g/m*3 4.6 C 0 km/h
2154 10-02-2015 09:10:00 4.6 C 6.42 g/m*3 4.6 C 0 km/h
2155 10-02-2015 09:15:00 4.5 C 6.38 g/m*3 4.5 C 0 km/h
2156 10-02-2015 09:20:00 4.5 C 6.38 g/m*3 4.5 C 0 km/h
2157 10-02-2015 09:25:00 4.6 C 6.42 g/m*3 4.6 C 0 km/h
2158 10-02-2015 09:30:00 4.7 C 6.46 g/m*3 4.7 C 0 km/h
2159 10-02-2015 09:35:00 4.7 C 6.46 g/m*3 4.7 C 0 km/h
2160 10-02-2015 09:40:00 4.8 C 6.5 g/m*3 4.8 C 0 km/h
2161 10-02-2015 09:45:00 4.8 C 6.5 g/m*3 4.8 C 0 km/h
2162 10-02-2015 09:50:00 4.8 C 6.5 g/m*3 4.8 C 0 km/h
2163 10-02-2015 09:55:00 4.8 C 6.5 g/m*3 4.8 C 0 km/h
2164 10-02-2015 10:00:00 4.8 C 6.5 g/m*3 4.8 C 3.2 km/h
2165 10-02-2015 10:05:00 4.9 C 6.55 g/m*3 4.9 C 1.6 km/h
2166 10-02-2015 10:10:00 4.9 C 6.55 g/m*3 4.9 C 3.2 km/h
2167 10-02-2015 10:15:00 4.9 C 6.55 g/m*3 4.9 C 0 km/h
2168 10-02-2015 10:20:00 5 C 6.59 g/m*3 5 C 0 km/h
2169 10-02-2015 10:25:00 5.1 C 6.63 g/m*3 5.1 C 1.6 km/h
2170 10-02-2015 10:30:00 5.1 C 6.63 g/m*3 5.1 C 0 km/h
2171 10-02-2015 10:35:00 5.2 C 6.68 g/m*3 5.2 C 0 km/h
2172 10-02-2015 10:40:00 5.2 C 6.68 g/m*3 5.2 C 0 km/h
2173 10-02-2015 10:45:00 5.3 C 6.72 g/m*3 5.3 C 1.6 km/h
2174 10-02-2015 10:50:00 5.4 C 6.77 g/m*3 5.4 C 1.6 km/h
2175 10-02-2015 10:55:00 5.5 C 6.74 g/m*3 5.5 C 4.8 km/h
Sensor: Nr:Datum:Temp:Abs-Feuchte:Windchill:Wind:
Aussen-T/F 2176 10-02-2015 11:00:00 5.6 C 6.79 g/m*3 5.6 C 1.6 km/h
2177 10-02-2015 11:05:00 5.6 C 6.79 g/m*3 5.6 C 3.2 km/h
2178 10-02-2015 11:10:00 5.6 C 6.72 g/m*3 5.6 C 0 km/h
2179 10-02-2015 11:15:00 5.6 C 6.72 g/m*3 5.6 C 0 km/h
2180 10-02-2015 11:20:00 5.7 C 6.76 g/m*3 5.7 C 0 km/h
2181 10-02-2015 11:25:00 5.7 C 6.76 g/m*3 5.7 C 0 km/h
2182 10-02-2015 11:30:00 5.7 C 6.69 g/m*3 5.7 C 3.2 km/h
2183 10-02-2015 11:35:00 5.8 C 6.73 g/m*3 5.8 C 0 km/h
2184 10-02-2015 11:40:00 5.8 C 6.66 g/m*3 5.8 C 3.2 km/h
2185 10-02-2015 11:45:00 5.8 C 6.66 g/m*3 5.8 C 1.6 km/h
2186 10-02-2015 11:50:00 5.8 C 6.66 g/m*3 5.8 C 1.6 km/h
2187 10-02-2015 11:55:00 5.8 C 6.66 g/m*3 5.8 C 4.8 km/h
2188 10-02-2015 12:00:00 5.8 C 6.59 g/m*3 5.8 C 1.6 km/h
2189 10-02-2015 12:05:00 5.8 C 6.59 g/m*3 5.8 C 4.8 km/h
2190 10-02-2015 12:10:00 5.8 C 6.52 g/m*3 4.05 C 8.1 km/h
2191 10-02-2015 12:15:00 5.9 C 6.49 g/m*3 3.19 C 12.9 km/h
2192 10-02-2015 12:20:00 5.9 C 6.42 g/m*3 3.48 C 11.3 km/h
2193 10-02-2015 12:25:00 6 C 6.39 g/m*3 3.92 C 9.7 km/h
2194 10-02-2015 12:30:00 6.1 C 6.36 g/m*3 4.04 C 9.7 km/h
2195 10-02-2015 12:35:00 6.2 C 6.4 g/m*3 4.15 C 9.7 km/h
2196 10-02-2015 12:40:00 6.2 C 6.4 g/m*3 4.52 C 8.1 km/h
2197 10-02-2015 12:45:00 6.3 C 6.37 g/m*3 2.98 C 17.7 km/h
2198 10-02-2015 12:50:00 6.3 C 6.37 g/m*3 2.98 C 17.7 km/h
2199 10-02-2015 12:55:00 6.3 C 6.37 g/m*3 4.64 C 8.1 km/h
2200 10-02-2015 13:00:00 6.3 C 6.37 g/m*3 4.27 C 9.7 km/h
Sensor: Nr:Datum:Temp:Abs-Feuchte:Windchill:Wind:
Aussen-T/F 2201 10-02-2015 13:05:00 6.3 C 6.37 g/m*3 5.1 C 6.4 km/h
2202 10-02-2015 13:10:00 6.3 C 6.37 g/m*3 4.27 C 9.7 km/h
2203 10-02-2015 13:15:00 6.4 C 6.33 g/m*3 4.75 C 8.1 km/h
2204 10-02-2015 13:20:00 6.4 C 6.33 g/m*3 4.39 C 9.7 km/h
2205 10-02-2015 13:25:00 6.3 C 6.29 g/m*3 5.1 C 6.4 km/h
2206 10-02-2015 13:30:00 6.3 C 6.29 g/m*3 6.3 C 4.8 km/h
2207 10-02-2015 13:35:00 6.3 C 6.29 g/m*3 4.64 C 8.1 km/h
2208 10-02-2015 13:40:00 6.3 C 6.29 g/m*3 4.64 C 8.1 km/h
2209 10-02-2015 13:45:00 6.3 C 6.29 g/m*3 5.1 C 6.4 km/h
2210 10-02-2015 13:50:00 6.3 C 6.37 g/m*3 4.64 C 8.1 km/h
2211 10-02-2015 13:55:00 6.3 C 6.37 g/m*3 4.64 C 8.1 km/h
2212 10-02-2015 14:00:00 6.2 C 6.32 g/m*3 6.2 C 4.8 km/h
2213 10-02-2015 14:05:00 6.2 C 6.32 g/m*3 6.2 C 4.8 km/h
2214 10-02-2015 14:10:00 6.2 C 6.32 g/m*3 6.2 C 3.2 km/h
2215 10-02-2015 14:15:00 6.2 C 6.32 g/m*3 6.2 C 3.2 km/h
2216 10-02-2015 14:20:00 6.2 C 6.32 g/m*3 6.2 C 4.8 km/h
2217 10-02-2015 14:25:00 6.2 C 6.4 g/m*3 6.2 C 4.8 km/h
2218 10-02-2015 14:30:00 6.2 C 6.32 g/m*3 4.98 C 6.4 km/h
2219 10-02-2015 14:35:00 6.2 C 6.25 g/m*3 6.2 C 3.2 km/h
2220 10-02-2015 14:40:00 6.2 C 6.25 g/m*3 6.2 C 4.8 km/h
2221 10-02-2015 14:45:00 6.2 C 6.25 g/m*3 6.2 C 4.8 km/h
2222 10-02-2015 14:50:00 6.2 C 6.32 g/m*3 6.2 C 4.8 km/h
2223 10-02-2015 14:55:00 6.2 C 6.25 g/m*3 6.2 C 4.8 km/h
2224 10-02-2015 15:00:00 6.2 C 6.25 g/m*3 4.98 C 6.4 km/h
2225 10-02-2015 15:05:00 6.2 C 6.25 g/m*3 6.2 C 1.6 km/h
Sensor: Nr:Datum:Temp:Abs-Feuchte:Windchill:Wind:
Aussen-T/F 2226 10-02-2015 15:10:00 6.2 C 6.18 g/m*3 6.2 C 3.2 km/h
2227 10-02-2015 15:15:00 6.1 C 6.21 g/m*3 6.1 C 1.6 km/h
2228 10-02-2015 15:20:00 6.1 C 6.28 g/m*3 4.86 C 6.4 km/h
2229 10-02-2015 15:25:00 6.1 C 6.28 g/m*3 4.86 C 6.4 km/h
2230 10-02-2015 15:30:00 6.1 C 6.28 g/m*3 6.1 C 3.2 km/h
2231 10-02-2015 15:35:00 6.1 C 6.21 g/m*3 6.1 C 4.8 km/h
2232 10-02-2015 15:40:00 6.1 C 6.21 g/m*3 6.1 C 3.2 km/h
2233 10-02-2015 15:45:00 6.1 C 6.21 g/m*3 6.1 C 4.8 km/h
2234 10-02-2015 15:50:00 6 C 6.1 g/m*3 4.75 C 6.4 km/h
2235 10-02-2015 15:55:00 6 C 6.1 g/m*3 3.92 C 9.7 km/h
2236 10-02-2015 16:00:00 6 C 6.17 g/m*3 4.75 C 6.4 km/h
2237 10-02-2015 16:05:00 5.9 C 6.13 g/m*3 4.17 C 8.1 km/h
2238 10-02-2015 16:10:00 5.9 C 6.13 g/m*3 5.9 C 4.8 km/h
2239 10-02-2015 16:15:00 5.9 C 6.06 g/m*3 3.48 C 11.3 km/h
2240 10-02-2015 16:20:00 5.9 C 6.13 g/m*3 3.8 C 9.7 km/h
2241 10-02-2015 16:25:00 5.9 C 6.06 g/m*3 4.17 C 8.1 km/h
2242 10-02-2015 16:30:00 5.8 C 6.02 g/m*3 4.52 C 6.4 km/h
2243 10-02-2015 16:35:00 5.8 C 6.02 g/m*3 4.05 C 8.1 km/h
2244 10-02-2015 16:40:00 5.8 C 6.02 g/m*3 5.8 C 4.8 km/h
2245 10-02-2015 16:45:00 5.8 C 6.02 g/m*3 4.52 C 6.4 km/h
2246 10-02-2015 16:50:00 5.8 C 6.09 g/m*3 5.8 C 4.8 km/h
2247 10-02-2015 16:55:00 5.7 C 6.05 g/m*3 5.7 C 1.6 km/h
2248 10-02-2015 17:00:00 5.7 C 5.98 g/m*3 5.7 C 3.2 km/h
2249 10-02-2015 17:05:00 5.7 C 5.98 g/m*3 4.4 C 6.4 km/h
2250 10-02-2015 17:10:00 5.7 C 5.98 g/m*3 4.4 C 6.4 km/h
Sensor: Nr:Datum:Temp:Abs-Feuchte:Windchill:Wind:
Aussen-T/F 2251 10-02-2015 17:15:00 5.7 C 5.98 g/m*3 3.56 C 9.7 km/h
2252 10-02-2015 17:20:00 5.7 C 6.05 g/m*3 3.93 C 8.1 km/h
2253 10-02-2015 17:25:00 5.7 C 6.05 g/m*3 5.7 C 4.8 km/h
2254 10-02-2015 17:30:00 5.6 C 6.01 g/m*3 5.6 C 4.8 km/h
2255 10-02-2015 17:35:00 5.6 C 6.01 g/m*3 5.6 C 1.6 km/h
2256 10-02-2015 17:40:00 5.6 C 6.01 g/m*3 5.6 C 4.8 km/h
2257 10-02-2015 17:45:00 5.6 C 6.01 g/m*3 5.6 C 4.8 km/h
2258 10-02-2015 17:50:00 5.6 C 6.01 g/m*3 3.81 C 8.1 km/h
2259 10-02-2015 17:55:00 5.6 C 6.01 g/m*3 5.6 C 3.2 km/h
2260 10-02-2015 18:00:00 5.6 C 6.01 g/m*3 5.6 C 3.2 km/h
2261 10-02-2015 18:05:00 5.5 C 5.97 g/m*3 5.5 C 1.6 km/h
2262 10-02-2015 18:10:00 5.5 C 5.97 g/m*3 5.5 C 3.2 km/h
2263 10-02-2015 18:15:00 5.5 C 5.97 g/m*3 5.5 C 3.2 km/h
2264 10-02-2015 18:20:00 5.5 C 6.04 g/m*3 5.5 C 1.6 km/h
2265 10-02-2015 18:25:00 5.4 C 6 g/m*3 5.4 C 3.2 km/h
2266 10-02-2015 18:30:00 5.4 C 6 g/m*3 5.4 C 3.2 km/h
2267 10-02-2015 18:35:00 5.4 C 6 g/m*3 3.58 C 8.1 km/h
2268 10-02-2015 18:40:00 5.4 C 6 g/m*3 4.06 C 6.4 km/h
2269 10-02-2015 18:45:00 5.4 C 6 g/m*3 5.4 C 3.2 km/h
2270 10-02-2015 18:50:00 5.4 C 6 g/m*3 5.4 C 4.8 km/h
2271 10-02-2015 18:55:00 5.4 C 6 g/m*3 4.06 C 6.4 km/h
2272 10-02-2015 19:00:00 5.4 C 6 g/m*3 5.4 C 1.6 km/h
2273 10-02-2015 19:05:00 5.4 C 6.07 g/m*3 5.4 C 0 km/h
2274 10-02-2015 19:10:00 5.3 C 6.03 g/m*3 5.3 C 0 km/h
2275 10-02-2015 19:15:00 5.3 C 6.03 g/m*3 5.3 C 1.6 km/h
Sensor: Nr:Datum:Temp:Abs-Feuchte:Windchill:Wind:
Aussen-T/F 2276 10-02-2015 19:20:00 5.2 C 5.99 g/m*3 3.82 C 6.4 km/h
2277 10-02-2015 19:25:00 5.2 C 5.99 g/m*3 3.34 C 8.1 km/h
2278 10-02-2015 19:30:00 5.2 C 5.99 g/m*3 5.2 C 4.8 km/h
2279 10-02-2015 19:35:00 5.2 C 5.99 g/m*3 5.2 C 3.2 km/h
2280 10-02-2015 19:40:00 5.2 C 5.99 g/m*3 5.2 C 1.6 km/h
2281 10-02-2015 19:45:00 5.2 C 5.99 g/m*3 5.2 C 1.6 km/h
2282 10-02-2015 19:50:00 5.1 C 5.95 g/m*3 5.1 C 0 km/h
2283 10-02-2015 19:55:00 5.1 C 5.95 g/m*3 5.1 C 3.2 km/h
2284 10-02-2015 20:00:00 5.1 C 6.02 g/m*3 5.1 C 1.6 km/h
2285 10-02-2015 20:05:00 5.1 C 5.95 g/m*3 5.1 C 4.8 km/h
2286 10-02-2015 20:10:00 5 C 5.91 g/m*3 5 C 1.6 km/h
2287 10-02-2015 20:15:00 4.9 C 5.87 g/m*3 4.9 C 0 km/h
2288 10-02-2015 20:20:00 4.9 C 5.87 g/m*3 4.9 C 3.2 km/h
2289 10-02-2015 20:25:00 4.9 C 5.87 g/m*3 4.9 C 1.6 km/h
2290 10-02-2015 20:30:00 4.9 C 5.87 g/m*3 4.9 C 3.2 km/h
2291 10-02-2015 20:35:00 4.9 C 5.81 g/m*3 4.9 C 3.2 km/h
2292 10-02-2015 20:40:00 4.9 C 5.81 g/m*3 4.9 C 1.6 km/h
2293 10-02-2015 20:45:00 4.9 C 5.81 g/m*3 4.9 C 3.2 km/h
2294 10-02-2015 20:50:00 4.9 C 5.81 g/m*3 4.9 C 3.2 km/h
2295 10-02-2015 20:55:00 4.9 C 5.81 g/m*3 4.9 C 1.6 km/h
2296 10-02-2015 21:00:00 4.9 C 5.81 g/m*3 4.9 C 0 km/h
2297 10-02-2015 21:05:00 4.9 C 5.81 g/m*3 4.9 C 0 km/h
2298 10-02-2015 21:10:00 4.8 C 5.83 g/m*3 4.8 C 3.2 km/h
2299 10-02-2015 21:15:00 4.8 C 5.83 g/m*3 4.8 C 0 km/h
2300 10-02-2015 21:20:00 4.8 C 5.83 g/m*3 4.8 C 0 km/h
Sensor: Nr:Datum:Temp:Abs-Feuchte:Windchill:Wind:
Aussen-T/F 2301 10-02-2015 21:25:00 4.7 C 5.86 g/m*3 4.7 C 0 km/h
2302 10-02-2015 21:30:00 4.7 C 5.86 g/m*3 4.7 C 0 km/h
2303 10-02-2015 21:35:00 4.6 C 5.89 g/m*3 4.6 C 0 km/h
2304 10-02-2015 21:40:00 4.6 C 5.89 g/m*3 4.6 C 0 km/h
2305 10-02-2015 21:45:00 4.5 C 5.92 g/m*3 4.5 C 1.6 km/h
2306 10-02-2015 21:50:00 4.4 C 5.88 g/m*3 4.4 C 1.6 km/h
2307 10-02-2015 21:55:00 4.4 C 5.88 g/m*3 4.4 C 0 km/h
2308 10-02-2015 22:00:00 4.4 C 5.88 g/m*3 4.4 C 0 km/h
2309 10-02-2015 22:05:00 4.4 C 5.88 g/m*3 4.4 C 0 km/h
2310 10-02-2015 22:10:00 4.4 C 5.94 g/m*3 4.4 C 0 km/h
2311 10-02-2015 22:15:00 4.3 C 5.9 g/m*3 4.3 C 0 km/h
2312 10-02-2015 22:20:00 4.3 C 5.9 g/m*3 4.3 C 0 km/h
2313 10-02-2015 22:25:00 4.3 C 5.97 g/m*3 4.3 C 0 km/h
2314 10-02-2015 22:30:00 4.3 C 5.97 g/m*3 4.3 C 0 km/h
2315 10-02-2015 22:35:00 4.2 C 5.93 g/m*3 4.2 C 0 km/h
2316 10-02-2015 22:40:00 4.2 C 5.93 g/m*3 4.2 C 0 km/h
2317 10-02-2015 22:45:00 4.2 C 5.93 g/m*3 4.2 C 0 km/h
2318 10-02-2015 22:50:00 4.2 C 5.93 g/m*3 4.2 C 0 km/h
2319 10-02-2015 22:55:00 4.2 C 5.93 g/m*3 4.2 C 0 km/h
2320 10-02-2015 23:00:00 4.1 C 5.89 g/m*3 4.1 C 0 km/h
2321 10-02-2015 23:05:00 4.1 C 5.89 g/m*3 4.1 C 0 km/h
2322 10-02-2015 23:10:00 4.1 C 5.89 g/m*3 4.1 C 0 km/h
2323 10-02-2015 23:15:00 4.1 C 5.89 g/m*3 4.1 C 0 km/h
2324 10-02-2015 23:20:00 4.1 C 5.89 g/m*3 4.1 C 0 km/h
2325 10-02-2015 23:25:00 4.1 C 5.89 g/m*3 4.1 C 0 km/h
Sensor: Nr:Datum:Temp:Abs-Feuchte:Windchill:Wind:
Aussen-T/F 2326 10-02-2015 23:30:00 4.1 C 5.89 g/m*3 4.1 C 0 km/h
2327 10-02-2015 23:35:00 4.1 C 5.89 g/m*3 4.1 C 0 km/h
2328 10-02-2015 23:40:00 4.1 C 5.89 g/m*3 4.1 C 0 km/h
2329 10-02-2015 23:45:00 4.1 C 5.89 g/m*3 4.1 C 0 km/h
2330 10-02-2015 23:50:00 4.1 C 5.89 g/m*3 4.1 C 0 km/h
2331 10-02-2015 23:55:00 4.1 C 5.89 g/m*3 4.1 C 0 km/h
2332 11-02-2015 00:00:00 4.1 C 5.89 g/m*3 4.1 C 0 km/h
2333 11-02-2015 00:05:00 4.1 C 5.89 g/m*3 4.1 C 0 km/h
2334 11-02-2015 00:10:00 4 C 5.85 g/m*3 4 C 0 km/h
2335 11-02-2015 00:15:00 4 C 5.91 g/m*3 4 C 0 km/h
2336 11-02-2015 00:20:00 3.9 C 5.87 g/m*3 3.9 C 0 km/h
2337 11-02-2015 00:25:00 3.9 C 5.87 g/m*3 3.9 C 0 km/h
2338 11-02-2015 00:30:00 3.9 C 5.87 g/m*3 3.9 C 0 km/h
2339 11-02-2015 00:35:00 3.9 C 5.87 g/m*3 3.9 C 0 km/h
2340 11-02-2015 00:40:00 3.9 C 5.87 g/m*3 3.9 C 0 km/h
2341 11-02-2015 00:45:00 3.9 C 5.87 g/m*3 3.9 C 0 km/h
2342 11-02-2015 00:50:00 3.9 C 5.87 g/m*3 3.9 C 0 km/h
2343 11-02-2015 00:55:00 3.9 C 5.87 g/m*3 3.9 C 0 km/h
2344 11-02-2015 01:00:00 3.9 C 5.87 g/m*3 3.9 C 0 km/h
2345 11-02-2015 01:05:00 3.9 C 5.87 g/m*3 3.9 C 0 km/h
2346 11-02-2015 01:10:00 3.9 C 5.87 g/m*3 3.9 C 0 km/h
2347 11-02-2015 01:15:00 3.9 C 5.87 g/m*3 3.9 C 0 km/h
2348 11-02-2015 01:20:00 3.9 C 5.87 g/m*3 3.9 C 0 km/h
2349 11-02-2015 01:25:00 3.9 C 5.87 g/m*3 3.9 C 0 km/h
2350 11-02-2015 01:30:00 3.9 C 5.87 g/m*3 3.9 C 0 km/h
Sensor: Nr:Datum:Temp:Abs-Feuchte:Windchill:Wind:
Aussen-T/F 2351 11-02-2015 01:35:00 3.9 C 5.87 g/m*3 3.9 C 0 km/h
2352 11-02-2015 01:40:00 3.9 C 5.81 g/m*3 3.9 C 0 km/h
2353 11-02-2015 01:45:00 3.9 C 5.81 g/m*3 3.9 C 1.6 km/h
2354 11-02-2015 01:50:00 3.9 C 5.87 g/m*3 3.9 C 0 km/h
2355 11-02-2015 01:55:00 3.9 C 5.81 g/m*3 3.9 C 3.2 km/h
2356 11-02-2015 02:00:00 3.9 C 5.81 g/m*3 3.9 C 0 km/h
2357 11-02-2015 02:05:00 3.9 C 5.81 g/m*3 3.9 C 1.6 km/h
2358 11-02-2015 02:10:00 3.9 C 5.81 g/m*3 3.9 C 0 km/h
2359 11-02-2015 02:15:00 3.9 C 5.81 g/m*3 3.9 C 0 km/h
2360 11-02-2015 02:20:00 3.9 C 5.81 g/m*3 3.9 C 0 km/h
2361 11-02-2015 02:25:00 3.9 C 5.81 g/m*3 3.9 C 1.6 km/h
2362 11-02-2015 02:30:00 3.9 C 5.81 g/m*3 3.9 C 0 km/h
2363 11-02-2015 02:35:00 3.9 C 5.81 g/m*3 3.9 C 0 km/h
2364 11-02-2015 02:40:00 3.9 C 5.81 g/m*3 3.9 C 0 km/h
2365 11-02-2015 02:45:00 3.9 C 5.81 g/m*3 3.9 C 0 km/h
2366 11-02-2015 02:50:00 3.9 C 5.75 g/m*3 3.9 C 0 km/h
2367 11-02-2015 02:55:00 3.9 C 5.75 g/m*3 3.9 C 1.6 km/h
2368 11-02-2015 03:00:00 3.9 C 5.75 g/m*3 3.9 C 0 km/h
2369 11-02-2015 03:05:00 3.9 C 5.75 g/m*3 3.9 C 0 km/h
2370 11-02-2015 03:10:00 3.9 C 5.75 g/m*3 3.9 C 0 km/h
2371 11-02-2015 03:15:00 3.9 C 5.75 g/m*3 3.9 C 0 km/h
2372 11-02-2015 03:20:00 3.8 C 5.71 g/m*3 3.8 C 0 km/h
2373 11-02-2015 03:25:00 3.8 C 5.71 g/m*3 3.8 C 1.6 km/h
2374 11-02-2015 03:30:00 3.9 C 5.75 g/m*3 3.9 C 0 km/h
2375 11-02-2015 03:35:00 3.9 C 5.75 g/m*3 3.9 C 0 km/h
Sensor: Nr:Datum:Temp:Abs-Feuchte:Windchill:Wind:
Aussen-T/F 2376 11-02-2015 03:40:00 3.8 C 5.71 g/m*3 3.8 C 0 km/h
2377 11-02-2015 03:45:00 3.8 C 5.65 g/m*3 3.8 C 1.6 km/h
2378 11-02-2015 03:50:00 3.8 C 5.58 g/m*3 3.8 C 0 km/h
2379 11-02-2015 03:55:00 3.9 C 5.68 g/m*3 3.9 C 1.6 km/h
2380 11-02-2015 04:00:00 3.9 C 5.62 g/m*3 3.9 C 1.6 km/h
2381 11-02-2015 04:05:00 3.9 C 5.68 g/m*3 3.9 C 0 km/h
2382 11-02-2015 04:10:00 3.9 C 5.68 g/m*3 3.9 C 0 km/h
2383 11-02-2015 04:15:00 3.8 C 5.65 g/m*3 3.8 C 0 km/h
2384 11-02-2015 04:20:00 3.8 C 5.65 g/m*3 3.8 C 0 km/h
2385 11-02-2015 04:25:00 3.8 C 5.65 g/m*3 3.8 C 0 km/h
2386 11-02-2015 04:30:00 3.8 C 5.65 g/m*3 3.8 C 1.6 km/h
2387 11-02-2015 04:35:00 3.7 C 5.55 g/m*3 3.7 C 1.6 km/h
2388 11-02-2015 04:40:00 3.8 C 5.58 g/m*3 3.8 C 4.8 km/h
2389 11-02-2015 04:45:00 3.8 C 5.52 g/m*3 3.8 C 1.6 km/h
2390 11-02-2015 04:50:00 3.8 C 5.46 g/m*3 2.21 C 6.4 km/h
2391 11-02-2015 04:55:00 3.9 C 5.56 g/m*3 3.9 C 0 km/h
2392 11-02-2015 05:00:00 3.9 C 5.56 g/m*3 3.9 C 0 km/h
2393 11-02-2015 05:05:00 3.8 C 5.58 g/m*3 3.8 C 0 km/h
2394 11-02-2015 05:10:00 3.8 C 5.58 g/m*3 3.8 C 0 km/h
2395 11-02-2015 05:15:00 3.8 C 5.65 g/m*3 3.8 C 0 km/h
2396 11-02-2015 05:20:00 3.7 C 5.61 g/m*3 3.7 C 0 km/h
2397 11-02-2015 05:25:00 3.7 C 5.61 g/m*3 3.7 C 0 km/h
2398 11-02-2015 05:30:00 3.7 C 5.55 g/m*3 3.7 C 3.2 km/h
2399 11-02-2015 05:35:00 3.7 C 5.61 g/m*3 3.7 C 0 km/h
2400 11-02-2015 05:40:00 3.7 C 5.61 g/m*3 3.7 C 3.2 km/h
Sensor: Nr:Datum:Temp:Abs-Feuchte:Windchill:Wind:
Aussen-T/F 2401 11-02-2015 05:45:00 3.7 C 5.55 g/m*3 3.7 C 0 km/h
2402 11-02-2015 05:50:00 3.7 C 5.55 g/m*3 3.7 C 1.6 km/h
2403 11-02-2015 05:55:00 3.7 C 5.55 g/m*3 3.7 C 1.6 km/h
2404 11-02-2015 06:00:00 3.7 C 5.55 g/m*3 3.7 C 1.6 km/h
2405 11-02-2015 06:05:00 3.7 C 5.55 g/m*3 3.7 C 1.6 km/h
2406 11-02-2015 06:10:00 3.7 C 5.55 g/m*3 3.7 C 1.6 km/h
2407 11-02-2015 06:15:00 3.7 C 5.48 g/m*3 2.09 C 6.4 km/h
2408 11-02-2015 06:20:00 3.7 C 5.48 g/m*3 2.09 C 6.4 km/h
2409 11-02-2015 06:25:00 3.7 C 5.48 g/m*3 3.7 C 4.8 km/h
2410 11-02-2015 06:30:00 3.7 C 5.48 g/m*3 3.7 C 3.2 km/h
2411 11-02-2015 06:35:00 3.7 C 5.48 g/m*3 3.7 C 4.8 km/h
2412 11-02-2015 06:40:00 3.7 C 5.48 g/m*3 3.7 C 4.8 km/h
2413 11-02-2015 06:45:00 3.7 C 5.48 g/m*3 3.7 C 3.2 km/h
2414 11-02-2015 06:50:00 3.6 C 5.45 g/m*3 3.6 C 3.2 km/h
2415 11-02-2015 06:55:00 3.6 C 5.39 g/m*3 3.6 C 1.6 km/h
2416 11-02-2015 07:00:00 3.6 C 5.39 g/m*3 3.6 C 4.8 km/h
2417 11-02-2015 07:05:00 3.6 C 5.45 g/m*3 3.6 C 0 km/h
2418 11-02-2015 07:10:00 3.6 C 5.45 g/m*3 3.6 C 0 km/h
2419 11-02-2015 07:15:00 3.5 C 5.41 g/m*3 3.5 C 3.2 km/h
2420 11-02-2015 07:20:00 3.5 C 5.35 g/m*3 3.5 C 1.6 km/h
2421 11-02-2015 07:25:00 3.5 C 5.35 g/m*3 3.5 C 1.6 km/h
2422 11-02-2015 07:30:00 3.4 C 5.31 g/m*3 1.75 C 6.4 km/h
2423 11-02-2015 07:35:00 3.4 C 5.37 g/m*3 3.4 C 4.8 km/h
2424 11-02-2015 07:40:00 3.4 C 5.37 g/m*3 1.75 C 6.4 km/h
2425 11-02-2015 07:45:00 3.4 C 5.37 g/m*3 3.4 C 0 km/h
Sensor: Nr:Datum:Temp:Abs-Feuchte:Windchill:Wind:
Aussen-T/F 2426 11-02-2015 07:50:00 3.4 C 5.37 g/m*3 3.4 C 1.6 km/h
2427 11-02-2015 07:55:00 3.4 C 5.37 g/m*3 3.4 C 1.6 km/h
2428 11-02-2015 08:00:00 3.4 C 5.37 g/m*3 3.4 C 1.6 km/h
2429 11-02-2015 08:05:00 3.4 C 5.37 g/m*3 3.4 C 0 km/h
2430 11-02-2015 08:10:00 3.4 C 5.37 g/m*3 3.4 C 0 km/h
2431 11-02-2015 08:15:00 3.4 C 5.37 g/m*3 3.4 C 3.2 km/h
2432 11-02-2015 08:20:00 3.4 C 5.37 g/m*3 3.4 C 3.2 km/h
2433 11-02-2015 08:25:00 3.4 C 5.37 g/m*3 3.4 C 4.8 km/h
2434 11-02-2015 08:30:00 3.4 C 5.37 g/m*3 3.4 C 0 km/h
2435 11-02-2015 08:35:00 3.4 C 5.37 g/m*3 3.4 C 0 km/h
2436 11-02-2015 08:40:00 3.4 C 5.37 g/m*3 3.4 C 0 km/h
2437 11-02-2015 08:45:00 3.4 C 5.37 g/m*3 3.4 C 4.8 km/h
2438 11-02-2015 08:50:00 3.4 C 5.37 g/m*3 3.4 C 1.6 km/h
2439 11-02-2015 08:55:00 3.4 C 5.37 g/m*3 3.4 C 3.2 km/h
2440 11-02-2015 09:00:00 3.4 C 5.37 g/m*3 3.4 C 3.2 km/h
2441 11-02-2015 09:05:00 3.4 C 5.37 g/m*3 3.4 C 1.6 km/h
2442 11-02-2015 09:10:00 3.5 C 5.41 g/m*3 3.5 C 3.2 km/h
2443 11-02-2015 09:15:00 3.4 C 5.37 g/m*3 3.4 C 0 km/h
2444 11-02-2015 09:20:00 3.5 C 5.41 g/m*3 3.5 C 1.6 km/h
2445 11-02-2015 09:25:00 3.5 C 5.41 g/m*3 3.5 C 1.6 km/h
2446 11-02-2015 09:30:00 3.5 C 5.41 g/m*3 3.5 C 3.2 km/h
2447 11-02-2015 09:35:00 3.5 C 5.41 g/m*3 3.5 C 0 km/h
2448 11-02-2015 09:40:00 3.6 C 5.45 g/m*3 1.98 C 6.4 km/h
2449 11-02-2015 09:45:00 3.6 C 5.39 g/m*3 3.6 C 4.8 km/h
2450 11-02-2015 09:50:00 3.6 C 5.45 g/m*3 3.6 C 3.2 km/h
Sensor: Nr:Datum:Temp:Abs-Feuchte:Windchill:Wind:
Aussen-T/F 2451 11-02-2015 09:55:00 3.6 C 5.39 g/m*3 3.6 C 4.8 km/h
2452 11-02-2015 10:00:00 3.6 C 5.39 g/m*3 3.6 C 1.6 km/h
2453 11-02-2015 10:05:00 3.6 C 5.39 g/m*3 3.6 C 4.8 km/h
2454 11-02-2015 10:10:00 3.6 C 5.39 g/m*3 3.6 C 4.8 km/h
2455 11-02-2015 10:15:00 3.6 C 5.39 g/m*3 3.6 C 3.2 km/h
2456 11-02-2015 10:20:00 3.7 C 5.42 g/m*3 3.7 C 1.6 km/h
2457 11-02-2015 10:25:00 3.7 C 5.36 g/m*3 3.7 C 3.2 km/h
2458 11-02-2015 10:30:00 3.7 C 5.36 g/m*3 3.7 C 3.2 km/h
2459 11-02-2015 10:35:00 3.7 C 5.36 g/m*3 3.7 C 1.6 km/h
2460 11-02-2015 10:40:00 3.7 C 5.42 g/m*3 3.7 C 4.8 km/h
2461 11-02-2015 10:45:00 3.8 C 5.4 g/m*3 1.7 C 8.1 km/h
2462 11-02-2015 10:50:00 3.7 C 5.3 g/m*3 2.09 C 6.4 km/h
2463 11-02-2015 10:55:00 3.7 C 5.3 g/m*3 1.58 C 8.1 km/h
2464 11-02-2015 11:00:00 3.8 C 5.33 g/m*3 1.7 C 8.1 km/h
2465 11-02-2015 11:05:00 3.8 C 5.33 g/m*3 3.8 C 4.8 km/h
2466 11-02-2015 11:10:00 3.8 C 5.4 g/m*3 3.8 C 4.8 km/h
2467 11-02-2015 11:15:00 3.9 C 5.37 g/m*3 3.9 C 1.6 km/h
2468 11-02-2015 11:20:00 3.9 C 5.43 g/m*3 3.9 C 4.8 km/h
2469 11-02-2015 11:25:00 4.1 C 5.44 g/m*3 4.1 C 4.8 km/h
2470 11-02-2015 11:30:00 4.1 C 5.44 g/m*3 4.1 C 4.8 km/h
2471 11-02-2015 11:35:00 4.2 C 5.48 g/m*3 4.2 C 4.8 km/h
2472 11-02-2015 11:40:00 4.2 C 5.48 g/m*3 4.2 C 4.8 km/h
2473 11-02-2015 11:45:00 4.2 C 5.48 g/m*3 4.2 C 4.8 km/h
2474 11-02-2015 11:50:00 4.2 C 5.41 g/m*3 2.17 C 8.1 km/h
2475 11-02-2015 11:55:00 4.2 C 5.41 g/m*3 2.67 C 6.4 km/h
Sensor: Nr:Datum:Temp:Abs-Feuchte:Windchill:Wind:
Aussen-T/F 2476 11-02-2015 12:00:00 4.2 C 5.41 g/m*3 4.2 C 4.8 km/h
2477 11-02-2015 12:05:00 4.3 C 5.51 g/m*3 2.78 C 6.4 km/h
2478 11-02-2015 12:10:00 4.4 C 5.55 g/m*3 4.4 C 4.8 km/h
2479 11-02-2015 12:15:00 4.3 C 5.38 g/m*3 2.78 C 6.4 km/h
2480 11-02-2015 12:20:00 4.2 C 5.35 g/m*3 2.67 C 6.4 km/h
2481 11-02-2015 12:25:00 4.2 C 5.35 g/m*3 4.2 C 1.6 km/h
2482 11-02-2015 12:30:00 4.3 C 5.45 g/m*3 4.3 C 3.2 km/h
2483 11-02-2015 12:35:00 4.4 C 5.48 g/m*3 2.4 C 8.1 km/h
2484 11-02-2015 12:40:00 4.5 C 5.52 g/m*3 3.02 C 6.4 km/h
2485 11-02-2015 12:45:00 4.4 C 5.42 g/m*3 2.01 C 9.7 km/h
2486 11-02-2015 12:50:00 4.4 C 5.42 g/m*3 4.4 C 3.2 km/h
2487 11-02-2015 12:55:00 4.4 C 5.48 g/m*3 4.4 C 4.8 km/h
2488 11-02-2015 13:00:00 4.6 C 5.56 g/m*3 4.6 C 3.2 km/h
2489 11-02-2015 13:05:00 4.6 C 5.56 g/m*3 2.64 C 8.1 km/h
2490 11-02-2015 13:10:00 4.6 C 5.49 g/m*3 2.64 C 8.1 km/h
2491 11-02-2015 13:15:00 4.6 C 5.49 g/m*3 2.25 C 9.7 km/h
2492 11-02-2015 13:20:00 4.6 C 5.49 g/m*3 3.13 C 6.4 km/h
2493 11-02-2015 13:25:00 4.7 C 5.53 g/m*3 2.76 C 8.1 km/h
2494 11-02-2015 13:30:00 4.7 C 5.6 g/m*3 2.03 C 11.3 km/h
2495 11-02-2015 13:35:00 4.8 C 5.57 g/m*3 2.15 C 11.3 km/h
2496 11-02-2015 13:40:00 5 C 5.57 g/m*3 3.59 C 6.4 km/h
2497 11-02-2015 13:45:00 5 C 5.5 g/m*3 5 C 4.8 km/h
2498 11-02-2015 13:50:00 5 C 5.57 g/m*3 5 C 4.8 km/h
2499 11-02-2015 13:55:00 5.1 C 5.68 g/m*3 3.23 C 8.1 km/h
2500 11-02-2015 14:00:00 5.1 C 5.61 g/m*3 2.84 C 9.7 km/h
Sensor: Nr:Datum:Temp:Abs-Feuchte:Windchill:Wind:
Aussen-T/F 2501 11-02-2015 14:05:00 5.2 C 5.58 g/m*3 3.82 C 6.4 km/h
2502 11-02-2015 14:10:00 5.1 C 5.54 g/m*3 5.1 C 3.2 km/h
2503 11-02-2015 14:15:00 5.2 C 5.65 g/m*3 3.82 C 6.4 km/h
2504 11-02-2015 14:20:00 5.3 C 5.61 g/m*3 5.3 C 4.8 km/h
2505 11-02-2015 14:25:00 5.3 C 5.54 g/m*3 3.46 C 8.1 km/h
2506 11-02-2015 14:30:00 5.3 C 5.68 g/m*3 3.46 C 8.1 km/h
2507 11-02-2015 14:35:00 5.3 C 5.61 g/m*3 3.08 C 9.7 km/h
2508 11-02-2015 14:40:00 5.3 C 5.61 g/m*3 3.08 C 9.7 km/h
2509 11-02-2015 14:45:00 5.3 C 5.68 g/m*3 3.46 C 8.1 km/h
2510 11-02-2015 14:50:00 5.4 C 5.65 g/m*3 5.4 C 4.8 km/h
2511 11-02-2015 14:55:00 5.4 C 5.58 g/m*3 5.4 C 3.2 km/h
2512 11-02-2015 15:00:00 5.4 C 5.65 g/m*3 4.06 C 6.4 km/h
2513 11-02-2015 15:05:00 5.3 C 5.54 g/m*3 5.3 C 4.8 km/h
2514 11-02-2015 15:10:00 5.3 C 5.61 g/m*3 5.3 C 3.2 km/h
2515 11-02-2015 15:15:00 5.3 C 5.61 g/m*3 5.3 C 4.8 km/h
2516 11-02-2015 15:20:00 5.3 C 5.68 g/m*3 5.3 C 3.2 km/h
2517 11-02-2015 15:25:00 5.3 C 5.61 g/m*3 5.3 C 4.8 km/h
2518 11-02-2015 15:30:00 5.2 C 5.58 g/m*3 3.82 C 6.4 km/h
2519 11-02-2015 15:35:00 5.2 C 5.65 g/m*3 3.82 C 6.4 km/h
2520 11-02-2015 15:40:00 5.3 C 5.61 g/m*3 3.94 C 6.4 km/h
2521 11-02-2015 15:45:00 5.3 C 5.61 g/m*3 3.94 C 6.4 km/h
2522 11-02-2015 15:50:00 5.3 C 5.68 g/m*3 5.3 C 4.8 km/h
2523 11-02-2015 15:55:00 5.3 C 5.61 g/m*3 3.94 C 6.4 km/h
2524 11-02-2015 16:00:00 5.2 C 5.58 g/m*3 3.82 C 6.4 km/h
2525 11-02-2015 16:05:00 5.2 C 5.58 g/m*3 5.2 C 1.6 km/h
Sensor: Nr:Datum:Temp:Abs-Feuchte:Windchill:Wind:
Aussen-T/F 2526 11-02-2015 16:10:00 5.1 C 5.61 g/m*3 5.1 C 1.6 km/h
2527 11-02-2015 16:15:00 5 C 5.57 g/m*3 5 C 4.8 km/h
2528 11-02-2015 16:20:00 4.8 C 5.43 g/m*3 4.8 C 4.8 km/h
2529 11-02-2015 16:25:00 4.8 C 5.5 g/m*3 4.8 C 1.6 km/h
2530 11-02-2015 16:30:00 4.7 C 5.53 g/m*3 3.25 C 6.4 km/h
2531 11-02-2015 16:35:00 4.7 C 5.53 g/m*3 2.76 C 8.1 km/h
2532 11-02-2015 16:40:00 4.6 C 5.49 g/m*3 4.6 C 3.2 km/h
2533 11-02-2015 16:45:00 4.6 C 5.49 g/m*3 4.6 C 0 km/h
2534 11-02-2015 16:50:00 4.6 C 5.49 g/m*3 4.6 C 3.2 km/h
2535 11-02-2015 16:55:00 4.6 C 5.56 g/m*3 4.6 C 0 km/h
2536 11-02-2015 17:00:00 4.5 C 5.52 g/m*3 4.5 C 0 km/h
2537 11-02-2015 17:05:00 4.4 C 5.48 g/m*3 4.4 C 3.2 km/h
2538 11-02-2015 17:10:00 4.4 C 5.48 g/m*3 4.4 C 3.2 km/h
2539 11-02-2015 17:15:00 4.3 C 5.45 g/m*3 4.3 C 0 km/h
2540 11-02-2015 17:20:00 4.2 C 5.41 g/m*3 4.2 C 4.8 km/h
2541 11-02-2015 17:25:00 4.1 C 5.38 g/m*3 4.1 C 0 km/h
2542 11-02-2015 17:30:00 4 C 5.4 g/m*3 4 C 0 km/h
2543 11-02-2015 17:35:00 3.9 C 5.37 g/m*3 3.9 C 1.6 km/h
2544 11-02-2015 17:40:00 3.8 C 5.4 g/m*3 3.8 C 0 km/h
2545 11-02-2015 17:45:00 3.7 C 5.42 g/m*3 3.7 C 1.6 km/h
2546 11-02-2015 17:50:00 3.6 C 5.39 g/m*3 3.6 C 3.2 km/h
2547 11-02-2015 17:55:00 3.5 C 5.35 g/m*3 3.5 C 1.6 km/h
2548 11-02-2015 18:00:00 3.4 C 5.31 g/m*3 3.4 C 1.6 km/h
2549 11-02-2015 18:05:00 3.5 C 5.35 g/m*3 1.86 C 6.4 km/h
2550 11-02-2015 18:10:00 3.5 C 5.35 g/m*3 3.5 C 1.6 km/h
Sensor: Nr:Datum:Temp:Abs-Feuchte:Windchill:Wind:
Aussen-T/F 2551 11-02-2015 18:15:00 3.4 C 5.31 g/m*3 3.4 C 4.8 km/h
2552 11-02-2015 18:20:00 3.4 C 5.31 g/m*3 3.4 C 4.8 km/h
2553 11-02-2015 18:25:00 3.4 C 5.31 g/m*3 3.4 C 4.8 km/h
2554 11-02-2015 18:30:00 3.4 C 5.31 g/m*3 3.4 C 0 km/h
2555 11-02-2015 18:35:00 3.3 C 5.34 g/m*3 3.3 C 0 km/h
2556 11-02-2015 18:40:00 3.2 C 5.3 g/m*3 3.2 C 0 km/h
2557 11-02-2015 18:45:00 3.2 C 5.3 g/m*3 3.2 C 1.6 km/h
2558 11-02-2015 18:50:00 3.2 C 5.3 g/m*3 3.2 C 0 km/h
2559 11-02-2015 18:55:00 3.2 C 5.3 g/m*3 3.2 C 0 km/h
2560 11-02-2015 19:00:00 3.2 C 5.3 g/m*3 3.2 C 3.2 km/h
2561 11-02-2015 19:05:00 3.2 C 5.3 g/m*3 3.2 C 3.2 km/h
2562 11-02-2015 19:10:00 3.2 C 5.3 g/m*3 3.2 C 3.2 km/h
2563 11-02-2015 19:15:00 3.2 C 5.24 g/m*3 3.2 C 3.2 km/h
2564 11-02-2015 19:20:00 3.2 C 5.24 g/m*3 0.99 C 8.1 km/h
2565 11-02-2015 19:25:00 3.2 C 5.24 g/m*3 3.2 C 4.8 km/h
2566 11-02-2015 19:30:00 3.2 C 5.24 g/m*3 3.2 C 3.2 km/h
2567 11-02-2015 19:35:00 3.1 C 5.21 g/m*3 3.1 C 4.8 km/h
2568 11-02-2015 19:40:00 3.1 C 5.21 g/m*3 3.1 C 4.8 km/h
2569 11-02-2015 19:45:00 3.1 C 5.21 g/m*3 3.1 C 1.6 km/h
2570 11-02-2015 19:50:00 3.1 C 5.21 g/m*3 3.1 C 0 km/h
2571 11-02-2015 19:55:00 3.1 C 5.21 g/m*3 3.1 C 3.2 km/h
2572 11-02-2015 20:00:00 3.2 C 5.24 g/m*3 3.2 C 3.2 km/h
2573 11-02-2015 20:05:00 3.1 C 5.21 g/m*3 3.1 C 3.2 km/h
2574 11-02-2015 20:10:00 3.1 C 5.21 g/m*3 3.1 C 3.2 km/h
2575 11-02-2015 20:15:00 3.1 C 5.21 g/m*3 3.1 C 0 km/h
Sensor: Nr:Datum:Temp:Abs-Feuchte:Windchill:Wind:
Aussen-T/F 2576 11-02-2015 20:20:00 3.1 C 5.21 g/m*3 3.1 C 0 km/h
2577 11-02-2015 20:25:00 3.1 C 5.21 g/m*3 3.1 C 0 km/h
2578 11-02-2015 20:30:00 3.1 C 5.21 g/m*3 3.1 C 1.6 km/h
2579 11-02-2015 20:35:00 3.1 C 5.27 g/m*3 3.1 C 3.2 km/h
2580 11-02-2015 20:40:00 3.1 C 5.27 g/m*3 3.1 C 0 km/h
2581 11-02-2015 20:45:00 3.1 C 5.27 g/m*3 3.1 C 0 km/h
2582 11-02-2015 20:50:00 3.1 C 5.27 g/m*3 3.1 C 4.8 km/h
2583 11-02-2015 20:55:00 3.1 C 5.27 g/m*3 3.1 C 0 km/h
2584 11-02-2015 21:00:00 3.1 C 5.27 g/m*3 3.1 C 4.8 km/h
2585 11-02-2015 21:05:00 3 C 5.23 g/m*3 1.28 C 6.4 km/h
2586 11-02-2015 21:10:00 3.1 C 5.27 g/m*3 3.1 C 3.2 km/h
2587 11-02-2015 21:15:00 3.1 C 5.27 g/m*3 3.1 C 0 km/h
2588 11-02-2015 21:20:00 3.1 C 5.27 g/m*3 3.1 C 3.2 km/h
2589 11-02-2015 21:25:00 3 C 5.23 g/m*3 3 C 3.2 km/h
2590 11-02-2015 21:30:00 3.1 C 5.27 g/m*3 3.1 C 3.2 km/h
2591 11-02-2015 21:35:00 3.1 C 5.27 g/m*3 3.1 C 3.2 km/h
2592 11-02-2015 21:40:00 3 C 5.17 g/m*3 0.76 C 8.1 km/h
2593 11-02-2015 21:45:00 3 C 5.17 g/m*3 3 C 0 km/h
2594 11-02-2015 21:50:00 3 C 5.17 g/m*3 1.28 C 6.4 km/h
2595 11-02-2015 21:55:00 3 C 5.17 g/m*3 3 C 1.6 km/h
2596 11-02-2015 22:00:00 3 C 5.17 g/m*3 3 C 0 km/h
2597 11-02-2015 22:05:00 3 C 5.17 g/m*3 3 C 1.6 km/h
2598 11-02-2015 22:10:00 3 C 5.17 g/m*3 3 C 0 km/h
2599 11-02-2015 22:15:00 3 C 5.23 g/m*3 3 C 4.8 km/h
2600 11-02-2015 22:20:00 3 C 5.23 g/m*3 3 C 4.8 km/h
Sensor: Nr:Datum:Temp:Abs-Feuchte:Windchill:Wind:
Aussen-T/F 2601 11-02-2015 22:25:00 3 C 5.23 g/m*3 3 C 0 km/h
2602 11-02-2015 22:30:00 2.9 C 5.2 g/m*3 0.64 C 8.1 km/h
2603 11-02-2015 22:35:00 2.9 C 5.2 g/m*3 2.9 C 3.2 km/h
2604 11-02-2015 22:40:00 2.9 C 5.2 g/m*3 2.9 C 4.8 km/h
2605 11-02-2015 22:45:00 2.9 C 5.2 g/m*3 2.9 C 1.6 km/h
2606 11-02-2015 22:50:00 2.9 C 5.2 g/m*3 2.9 C 1.6 km/h
2607 11-02-2015 22:55:00 2.9 C 5.2 g/m*3 2.9 C 4.8 km/h
2608 11-02-2015 23:00:00 2.9 C 5.2 g/m*3 2.9 C 0 km/h
2609 11-02-2015 23:05:00 2.9 C 5.2 g/m*3 2.9 C 3.2 km/h
2610 11-02-2015 23:10:00 2.8 C 5.22 g/m*3 2.8 C 4.8 km/h
2611 11-02-2015 23:15:00 2.8 C 5.22 g/m*3 2.8 C 1.6 km/h
2612 11-02-2015 23:20:00 2.8 C 5.22 g/m*3 2.8 C 0 km/h
2613 11-02-2015 23:25:00 2.8 C 5.22 g/m*3 2.8 C 1.6 km/h
2614 11-02-2015 23:30:00 2.8 C 5.22 g/m*3 2.8 C 0 km/h
2615 11-02-2015 23:35:00 2.8 C 5.22 g/m*3 2.8 C 1.6 km/h
2616 11-02-2015 23:40:00 2.8 C 5.22 g/m*3 2.8 C 1.6 km/h
2617 11-02-2015 23:45:00 2.8 C 5.22 g/m*3 2.8 C 0 km/h
2618 11-02-2015 23:50:00 2.8 C 5.22 g/m*3 2.8 C 0 km/h
2619 11-02-2015 23:55:00 2.8 C 5.22 g/m*3 2.8 C 0 km/h
2620 12-02-2015 00:00:00 2.8 C 5.22 g/m*3 2.8 C 0 km/h
2621 12-02-2015 00:05:00 2.8 C 5.22 g/m*3 2.8 C 0 km/h
2622 12-02-2015 00:10:00 2.8 C 5.22 g/m*3 2.8 C 0 km/h
2623 12-02-2015 00:15:00 2.8 C 5.22 g/m*3 2.8 C 1.6 km/h
2624 12-02-2015 00:20:00 2.8 C 5.28 g/m*3 2.8 C 1.6 km/h
2625 12-02-2015 00:25:00 2.8 C 5.28 g/m*3 2.8 C 0 km/h
Sensor: Nr:Datum:Temp:Abs-Feuchte:Windchill:Wind:
Aussen-T/F 2626 12-02-2015 00:30:00 2.8 C 5.28 g/m*3 2.8 C 0 km/h
2627 12-02-2015 00:35:00 2.8 C 5.28 g/m*3 2.8 C 0 km/h
2628 12-02-2015 00:40:00 2.8 C 5.28 g/m*3 2.8 C 4.8 km/h
2629 12-02-2015 00:45:00 2.8 C 5.28 g/m*3 2.8 C 0 km/h
2630 12-02-2015 00:50:00 2.8 C 5.28 g/m*3 2.8 C 1.6 km/h
2631 12-02-2015 00:55:00 2.8 C 5.28 g/m*3 2.8 C 3.2 km/h
2632 12-02-2015 01:00:00 2.8 C 5.28 g/m*3 2.8 C 0 km/h
2633 12-02-2015 01:05:00 2.8 C 5.28 g/m*3 2.8 C 3.2 km/h
2634 12-02-2015 01:10:00 2.9 C 5.32 g/m*3 2.9 C 3.2 km/h
2635 12-02-2015 01:15:00 2.9 C 5.32 g/m*3 2.9 C 0 km/h
2636 12-02-2015 01:20:00 2.9 C 5.32 g/m*3 2.9 C 0 km/h
2637 12-02-2015 01:25:00 2.9 C 5.32 g/m*3 2.9 C 0 km/h
2638 12-02-2015 01:30:00 2.9 C 5.32 g/m*3 2.9 C 0 km/h
2639 12-02-2015 01:35:00 2.9 C 5.32 g/m*3 2.9 C 0 km/h
2640 12-02-2015 01:40:00 2.9 C 5.32 g/m*3 2.9 C 0 km/h
2641 12-02-2015 01:45:00 2.9 C 5.32 g/m*3 2.9 C 0 km/h
2642 12-02-2015 01:50:00 2.8 C 5.28 g/m*3 2.8 C 0 km/h
2643 12-02-2015 01:55:00 2.8 C 5.28 g/m*3 2.8 C 0 km/h
2644 12-02-2015 02:00:00 2.8 C 5.28 g/m*3 2.8 C 1.6 km/h
2645 12-02-2015 02:05:00 2.9 C 5.32 g/m*3 2.9 C 0 km/h
2646 12-02-2015 02:10:00 2.9 C 5.32 g/m*3 2.9 C 0 km/h
2647 12-02-2015 02:15:00 2.9 C 5.32 g/m*3 2.9 C 0 km/h
2648 12-02-2015 02:20:00 2.8 C 5.28 g/m*3 2.8 C 0 km/h
2649 12-02-2015 02:25:00 2.9 C 5.32 g/m*3 2.9 C 1.6 km/h
2650 12-02-2015 02:30:00 2.9 C 5.32 g/m*3 2.9 C 0 km/h
Sensor: Nr:Datum:Temp:Abs-Feuchte:Windchill:Wind:
Aussen-T/F 2651 12-02-2015 02:35:00 2.8 C 5.28 g/m*3 2.8 C 0 km/h
2652 12-02-2015 02:40:00 2.8 C 5.28 g/m*3 2.8 C 0 km/h
2653 12-02-2015 02:45:00 2.8 C 5.28 g/m*3 2.8 C 0 km/h
2654 12-02-2015 02:50:00 2.8 C 5.28 g/m*3 2.8 C 0 km/h
2655 12-02-2015 02:55:00 2.8 C 5.28 g/m*3 2.8 C 0 km/h
2656 12-02-2015 03:00:00 2.8 C 5.28 g/m*3 2.8 C 0 km/h
2657 12-02-2015 03:05:00 2.8 C 5.28 g/m*3 2.8 C 0 km/h
2658 12-02-2015 03:10:00 2.8 C 5.28 g/m*3 2.8 C 0 km/h
2659 12-02-2015 03:15:00 2.8 C 5.28 g/m*3 2.8 C 0 km/h
2660 12-02-2015 03:20:00 2.8 C 5.28 g/m*3 2.8 C 0 km/h
2661 12-02-2015 03:25:00 2.8 C 5.28 g/m*3 2.8 C 0 km/h
2662 12-02-2015 03:30:00 2.8 C 5.28 g/m*3 2.8 C 3.2 km/h
2663 12-02-2015 03:35:00 2.8 C 5.28 g/m*3 2.8 C 1.6 km/h
2664 12-02-2015 03:40:00 2.8 C 5.28 g/m*3 2.8 C 0 km/h
2665 12-02-2015 03:45:00 2.8 C 5.28 g/m*3 2.8 C 0 km/h
2666 12-02-2015 03:50:00 2.8 C 5.28 g/m*3 2.8 C 1.6 km/h
2667 12-02-2015 03:55:00 2.8 C 5.22 g/m*3 2.8 C 1.6 km/h
2668 12-02-2015 04:00:00 2.8 C 5.22 g/m*3 2.8 C 1.6 km/h
2669 12-02-2015 04:05:00 2.8 C 5.28 g/m*3 2.8 C 0 km/h
2670 12-02-2015 04:10:00 2.8 C 5.28 g/m*3 2.8 C 0 km/h
2671 12-02-2015 04:15:00 2.8 C 5.28 g/m*3 2.8 C 4.8 km/h
2672 12-02-2015 04:20:00 2.8 C 5.28 g/m*3 2.8 C 4.8 km/h
2673 12-02-2015 04:25:00 2.8 C 5.28 g/m*3 2.8 C 0 km/h
2674 12-02-2015 04:30:00 2.8 C 5.28 g/m*3 2.8 C 0 km/h
2675 12-02-2015 04:35:00 2.8 C 5.28 g/m*3 2.8 C 1.6 km/h
Sensor: Nr:Datum:Temp:Abs-Feuchte:Windchill:Wind:
Aussen-T/F 2676 12-02-2015 04:40:00 2.7 C 5.19 g/m*3 2.7 C 3.2 km/h
2677 12-02-2015 04:45:00 2.8 C 5.28 g/m*3 2.8 C 1.6 km/h
2678 12-02-2015 04:50:00 2.7 C 5.24 g/m*3 2.7 C 3.2 km/h
2679 12-02-2015 04:55:00 2.7 C 5.24 g/m*3 2.7 C 1.6 km/h
2680 12-02-2015 05:00:00 2.7 C 5.24 g/m*3 2.7 C 1.6 km/h
2681 12-02-2015 05:05:00 2.7 C 5.19 g/m*3 2.7 C 0 km/h
2682 12-02-2015 05:10:00 2.7 C 5.19 g/m*3 2.7 C 0 km/h
2683 12-02-2015 05:15:00 2.7 C 5.19 g/m*3 2.7 C 0 km/h
2684 12-02-2015 05:20:00 2.7 C 5.24 g/m*3 2.7 C 0 km/h
2685 12-02-2015 05:25:00 2.7 C 5.24 g/m*3 2.7 C 0 km/h
2686 12-02-2015 05:30:00 2.7 C 5.24 g/m*3 0.94 C 6.4 km/h
2687 12-02-2015 05:35:00 2.7 C 5.24 g/m*3 0.94 C 6.4 km/h
2688 12-02-2015 05:40:00 2.7 C 5.24 g/m*3 2.7 C 0 km/h
2689 12-02-2015 05:45:00 2.7 C 5.24 g/m*3 2.7 C 0 km/h
2690 12-02-2015 05:50:00 2.7 C 5.24 g/m*3 2.7 C 3.2 km/h
2691 12-02-2015 05:55:00 2.6 C 5.21 g/m*3 2.6 C 0 km/h
2692 12-02-2015 06:00:00 2.6 C 5.21 g/m*3 2.6 C 0 km/h
2693 12-02-2015 06:05:00 2.6 C 5.15 g/m*3 2.6 C 0 km/h
2694 12-02-2015 06:10:00 2.6 C 5.21 g/m*3 2.6 C 0 km/h
2695 12-02-2015 06:15:00 2.6 C 5.21 g/m*3 2.6 C 0 km/h
2696 12-02-2015 06:20:00 2.6 C 5.21 g/m*3 2.6 C 1.6 km/h
2697 12-02-2015 06:25:00 2.6 C 5.21 g/m*3 2.6 C 0 km/h
2698 12-02-2015 06:30:00 2.6 C 5.21 g/m*3 2.6 C 0 km/h
2699 12-02-2015 06:35:00 2.6 C 5.21 g/m*3 2.6 C 1.6 km/h
2700 12-02-2015 06:40:00 2.6 C 5.15 g/m*3 2.6 C 3.2 km/h
Sensor: Nr:Datum:Temp:Abs-Feuchte:Windchill:Wind:
Aussen-T/F 2701 12-02-2015 06:45:00 2.6 C 5.15 g/m*3 0.82 C 6.4 km/h
2702 12-02-2015 06:50:00 2.5 C 5.12 g/m*3 2.5 C 4.8 km/h
2703 12-02-2015 06:55:00 2.5 C 5.12 g/m*3 2.5 C 0 km/h
2704 12-02-2015 07:00:00 2.5 C 5.12 g/m*3 2.5 C 0 km/h
2705 12-02-2015 07:05:00 2.5 C 5.12 g/m*3 2.5 C 1.6 km/h
2706 12-02-2015 07:10:00 2.4 C 5.14 g/m*3 2.4 C 0 km/h
2707 12-02-2015 07:15:00 2.5 C 5.17 g/m*3 2.5 C 0 km/h
2708 12-02-2015 07:20:00 2.5 C 5.17 g/m*3 2.5 C 0 km/h
2709 12-02-2015 07:25:00 2.5 C 5.17 g/m*3 2.5 C 0 km/h
2710 12-02-2015 07:30:00 2.4 C 5.14 g/m*3 2.4 C 0 km/h
2711 12-02-2015 07:35:00 2.4 C 5.14 g/m*3 2.4 C 3.2 km/h
2712 12-02-2015 07:40:00 2.4 C 5.14 g/m*3 2.4 C 0 km/h
2713 12-02-2015 07:45:00 2.4 C 5.14 g/m*3 2.4 C 1.6 km/h
2714 12-02-2015 07:50:00 2.4 C 5.14 g/m*3 2.4 C 0 km/h
2715 12-02-2015 07:55:00 2.4 C 5.14 g/m*3 2.4 C 0 km/h
2716 12-02-2015 08:00:00 2.4 C 5.14 g/m*3 2.4 C 3.2 km/h
2717 12-02-2015 08:05:00 2.4 C 5.14 g/m*3 2.4 C 0 km/h
2718 12-02-2015 08:10:00 2.4 C 5.14 g/m*3 2.4 C 1.6 km/h
2719 12-02-2015 08:15:00 2.4 C 5.14 g/m*3 2.4 C 1.6 km/h
2720 12-02-2015 08:20:00 2.4 C 5.14 g/m*3 2.4 C 0 km/h
2721 12-02-2015 08:25:00 2.4 C 5.14 g/m*3 2.4 C 0 km/h
2722 12-02-2015 08:30:00 2.4 C 5.14 g/m*3 2.4 C 3.2 km/h
2723 12-02-2015 08:35:00 2.4 C 5.14 g/m*3 2.4 C 0 km/h
2724 12-02-2015 08:40:00 2.4 C 5.14 g/m*3 2.4 C 0 km/h
2725 12-02-2015 08:45:00 2.4 C 5.14 g/m*3 2.4 C 1.6 km/h
Sensor: Nr:Datum:Temp:Abs-Feuchte:Windchill:Wind:
Aussen-T/F 2726 12-02-2015 08:50:00 2.4 C 5.14 g/m*3 2.4 C 0 km/h
2727 12-02-2015 08:55:00 2.4 C 5.14 g/m*3 2.4 C 0 km/h
2728 12-02-2015 09:00:00 2.4 C 5.14 g/m*3 2.4 C 1.6 km/h
2729 12-02-2015 09:05:00 2.4 C 5.14 g/m*3 2.4 C 4.8 km/h
2730 12-02-2015 09:10:00 2.5 C 5.17 g/m*3 2.5 C 3.2 km/h
2731 12-02-2015 09:15:00 2.5 C 5.17 g/m*3 2.5 C 3.2 km/h
2732 12-02-2015 09:20:00 2.5 C 5.17 g/m*3 2.5 C 3.2 km/h
2733 12-02-2015 09:25:00 2.5 C 5.17 g/m*3 2.5 C 0 km/h
2734 12-02-2015 09:30:00 2.5 C 5.17 g/m*3 2.5 C 0 km/h
2735 12-02-2015 09:35:00 2.6 C 5.21 g/m*3 2.6 C 0 km/h
2736 12-02-2015 09:40:00 2.6 C 5.21 g/m*3 2.6 C 1.6 km/h
2737 12-02-2015 09:45:00 2.6 C 5.21 g/m*3 2.6 C 3.2 km/h
2738 12-02-2015 09:50:00 2.6 C 5.21 g/m*3 2.6 C 3.2 km/h
2739 12-02-2015 09:55:00 2.6 C 5.21 g/m*3 2.6 C 3.2 km/h
2740 12-02-2015 10:00:00 2.6 C 5.21 g/m*3 2.6 C 4.8 km/h
2741 12-02-2015 10:05:00 2.6 C 5.21 g/m*3 2.6 C 3.2 km/h
2742 12-02-2015 10:10:00 2.6 C 5.15 g/m*3 0.29 C 8.1 km/h
2743 12-02-2015 10:15:00 2.6 C 5.21 g/m*3 2.6 C 0 km/h
2744 12-02-2015 10:20:00 2.6 C 5.21 g/m*3 2.6 C 4.8 km/h
2745 12-02-2015 10:25:00 2.6 C 5.21 g/m*3 2.6 C 1.6 km/h
2746 12-02-2015 10:30:00 2.6 C 5.21 g/m*3 0.82 C 6.4 km/h
2747 12-02-2015 10:35:00 2.7 C 5.24 g/m*3 2.7 C 3.2 km/h
2748 12-02-2015 10:40:00 2.7 C 5.24 g/m*3 2.7 C 3.2 km/h
2749 12-02-2015 10:45:00 2.7 C 5.24 g/m*3 0.94 C 6.4 km/h
2750 12-02-2015 10:50:00 2.8 C 5.28 g/m*3 2.8 C 3.2 km/h
Sensor: Nr:Datum:Temp:Abs-Feuchte:Windchill:Wind:
Aussen-T/F 2751 12-02-2015 10:55:00 2.8 C 5.22 g/m*3 2.8 C 4.8 km/h
2752 12-02-2015 11:00:00 2.8 C 5.28 g/m*3 2.8 C 4.8 km/h
2753 12-02-2015 11:05:00 2.8 C 5.22 g/m*3 2.8 C 3.2 km/h
2754 12-02-2015 11:10:00 2.8 C 5.22 g/m*3 2.8 C 1.6 km/h
2755 12-02-2015 11:15:00 2.9 C 5.26 g/m*3 0.22 C 9.7 km/h
2756 12-02-2015 11:20:00 2.9 C 5.26 g/m*3 0.22 C 9.7 km/h
2757 12-02-2015 11:25:00 2.9 C 5.26 g/m*3 2.9 C 4.8 km/h
2758 12-02-2015 11:30:00 2.9 C 5.26 g/m*3 2.9 C 3.2 km/h
2759 12-02-2015 11:35:00 2.9 C 5.26 g/m*3 2.9 C 3.2 km/h
2760 12-02-2015 11:40:00 3 C 5.29 g/m*3 3 C 3.2 km/h
2761 12-02-2015 11:45:00 3.1 C 5.27 g/m*3 1.4 C 6.4 km/h
2762 12-02-2015 11:50:00 3.1 C 5.27 g/m*3 3.1 C 4.8 km/h
2763 12-02-2015 11:55:00 3.1 C 5.27 g/m*3 1.4 C 6.4 km/h
2764 12-02-2015 12:00:00 3.1 C 5.27 g/m*3 1.4 C 6.4 km/h
2765 12-02-2015 12:05:00 3.1 C 5.27 g/m*3 3.1 C 3.2 km/h
2766 12-02-2015 12:10:00 3.2 C 5.3 g/m*3 3.2 C 3.2 km/h
2767 12-02-2015 12:15:00 3.3 C 5.34 g/m*3 3.3 C 4.8 km/h
2768 12-02-2015 12:20:00 3.3 C 5.28 g/m*3 1.11 C 8.1 km/h
2769 12-02-2015 12:25:00 3.2 C 5.24 g/m*3 0.58 C 9.7 km/h
2770 12-02-2015 12:30:00 3.2 C 5.3 g/m*3 3.2 C 4.8 km/h
2771 12-02-2015 12:35:00 3.3 C 5.34 g/m*3 3.3 C 3.2 km/h
2772 12-02-2015 12:40:00 3.3 C 5.34 g/m*3 3.3 C 3.2 km/h
2773 12-02-2015 12:45:00 3.4 C 5.37 g/m*3 3.4 C 1.6 km/h
2774 12-02-2015 12:50:00 3.6 C 5.45 g/m*3 3.6 C 4.8 km/h
2775 12-02-2015 12:55:00 3.7 C 5.42 g/m*3 1.18 C 9.7 km/h
Sensor: Nr:Datum:Temp:Abs-Feuchte:Windchill:Wind:
Aussen-T/F 2776 12-02-2015 13:00:00 3.7 C 5.36 g/m*3 3.7 C 4.8 km/h
2777 12-02-2015 13:05:00 3.6 C 5.39 g/m*3 3.6 C 1.6 km/h
2778 12-02-2015 13:10:00 3.6 C 5.32 g/m*3 3.6 C 3.2 km/h
2779 12-02-2015 13:15:00 3.6 C 5.39 g/m*3 1.98 C 6.4 km/h
2780 12-02-2015 13:20:00 3.7 C 5.48 g/m*3 1.58 C 8.1 km/h
2781 12-02-2015 13:25:00 3.7 C 5.36 g/m*3 3.7 C 4.8 km/h
2782 12-02-2015 13:30:00 3.9 C 5.49 g/m*3 3.9 C 3.2 km/h
2783 12-02-2015 13:35:00 4 C 5.53 g/m*3 2.44 C 6.4 km/h
2784 12-02-2015 13:40:00 4.2 C 5.61 g/m*3 4.2 C 3.2 km/h
2785 12-02-2015 13:45:00 4.2 C 5.48 g/m*3 2.67 C 6.4 km/h
2786 12-02-2015 13:50:00 4.2 C 5.48 g/m*3 4.2 C 4.8 km/h
2787 12-02-2015 13:55:00 4.3 C 5.51 g/m*3 2.29 C 8.1 km/h
2788 12-02-2015 14:00:00 4.4 C 5.55 g/m*3 4.4 C 4.8 km/h
2789 12-02-2015 14:05:00 4.5 C 5.59 g/m*3 4.5 C 1.6 km/h
2790 12-02-2015 14:10:00 4.6 C 5.56 g/m*3 4.6 C 3.2 km/h
2791 12-02-2015 14:15:00 4.7 C 5.66 g/m*3 4.7 C 3.2 km/h
2792 12-02-2015 14:20:00 4.8 C 5.63 g/m*3 4.8 C 4.8 km/h
2793 12-02-2015 14:25:00 4.9 C 5.67 g/m*3 3.48 C 6.4 km/h
2794 12-02-2015 14:30:00 5.1 C 5.81 g/m*3 3.71 C 6.4 km/h
2795 12-02-2015 14:35:00 5.2 C 5.71 g/m*3 3.34 C 8.1 km/h
2796 12-02-2015 14:40:00 5.4 C 5.79 g/m*3 3.58 C 8.1 km/h
2797 12-02-2015 14:45:00 5.4 C 5.72 g/m*3 4.06 C 6.4 km/h
2798 12-02-2015 14:50:00 5.4 C 5.72 g/m*3 5.4 C 3.2 km/h
2799 12-02-2015 14:55:00 5.4 C 5.72 g/m*3 3.2 C 9.7 km/h
2800 12-02-2015 15:00:00 5.4 C 5.72 g/m*3 4.06 C 6.4 km/h
Sensor: Nr:Datum:Temp:Abs-Feuchte:Windchill:Wind:
Aussen-T/F 2801 12-02-2015 15:05:00 5.4 C 5.72 g/m*3 4.06 C 6.4 km/h
2802 12-02-2015 15:10:00 5.4 C 5.72 g/m*3 3.58 C 8.1 km/h
2803 12-02-2015 15:15:00 5.4 C 5.72 g/m*3 3.2 C 9.7 km/h
2804 12-02-2015 15:20:00 5.4 C 5.65 g/m*3 3.2 C 9.7 km/h
2805 12-02-2015 15:25:00 5.3 C 5.68 g/m*3 3.08 C 9.7 km/h
2806 12-02-2015 15:30:00 5.4 C 5.72 g/m*3 4.06 C 6.4 km/h
2807 12-02-2015 15:35:00 5.4 C 5.65 g/m*3 4.06 C 6.4 km/h
2808 12-02-2015 15:40:00 5.3 C 5.68 g/m*3 3.46 C 8.1 km/h
2809 12-02-2015 15:45:00 5.2 C 5.58 g/m*3 3.82 C 6.4 km/h
2810 12-02-2015 15:50:00 5.1 C 5.61 g/m*3 3.23 C 8.1 km/h
2811 12-02-2015 15:55:00 4.9 C 5.6 g/m*3 3.48 C 6.4 km/h
2812 12-02-2015 16:00:00 4.9 C 5.6 g/m*3 3.48 C 6.4 km/h
2813 12-02-2015 16:05:00 4.8 C 5.57 g/m*3 3.36 C 6.4 km/h
2814 12-02-2015 16:10:00 4.8 C 5.57 g/m*3 3.36 C 6.4 km/h
2815 12-02-2015 16:15:00 4.7 C 5.53 g/m*3 4.7 C 4.8 km/h
2816 12-02-2015 16:20:00 4.7 C 5.6 g/m*3 4.7 C 1.6 km/h
2817 12-02-2015 16:25:00 4.7 C 5.53 g/m*3 4.7 C 4.8 km/h
2818 12-02-2015 16:30:00 4.7 C 5.53 g/m*3 3.25 C 6.4 km/h
2819 12-02-2015 16:35:00 4.6 C 5.49 g/m*3 4.6 C 3.2 km/h
2820 12-02-2015 16:40:00 4.6 C 5.56 g/m*3 4.6 C 3.2 km/h
2821 12-02-2015 16:45:00 4.5 C 5.52 g/m*3 4.5 C 3.2 km/h
2822 12-02-2015 16:50:00 4.4 C 5.48 g/m*3 4.4 C 1.6 km/h
2823 12-02-2015 16:55:00 4.3 C 5.45 g/m*3 4.3 C 4.8 km/h
2824 12-02-2015 17:00:00 4.2 C 5.41 g/m*3 4.2 C 4.8 km/h
2825 12-02-2015 17:05:00 4.1 C 5.44 g/m*3 2.05 C 8.1 km/h
Sensor: Nr:Datum:Temp:Abs-Feuchte:Windchill:Wind:
Aussen-T/F 2826 12-02-2015 17:10:00 3.9 C 5.37 g/m*3 2.32 C 6.4 km/h
2827 12-02-2015 17:15:00 3.8 C 5.4 g/m*3 2.21 C 6.4 km/h
2828 12-02-2015 17:20:00 3.7 C 5.36 g/m*3 2.09 C 6.4 km/h
2829 12-02-2015 17:25:00 3.5 C 5.29 g/m*3 1.34 C 8.1 km/h
2830 12-02-2015 17:30:00 3.3 C 5.28 g/m*3 1.63 C 6.4 km/h
2831 12-02-2015 17:35:00 3.2 C 5.24 g/m*3 0.58 C 9.7 km/h
2832 12-02-2015 17:40:00 3.1 C 5.27 g/m*3 1.4 C 6.4 km/h
2833 12-02-2015 17:45:00 2.9 C 5.2 g/m*3 0.22 C 9.7 km/h
2834 12-02-2015 17:50:00 2.8 C 5.22 g/m*3 2.8 C 4.8 km/h
2835 12-02-2015 17:55:00 2.8 C 5.22 g/m*3 -0.59 C 12.9 km/h
2836 12-02-2015 18:00:00 2.7 C 5.19 g/m*3 -0.71 C 12.9 km/h
2837 12-02-2015 18:05:00 2.6 C 5.15 g/m*3 0.29 C 8.1 km/h
2838 12-02-2015 18:10:00 2.6 C 5.15 g/m*3 0.29 C 8.1 km/h
2839 12-02-2015 18:15:00 2.5 C 5.12 g/m*3 2.5 C 3.2 km/h
2840 12-02-2015 18:20:00 2.4 C 5.14 g/m*3 2.4 C 4.8 km/h
2841 12-02-2015 18:25:00 2.3 C 5.1 g/m*3 2.3 C 3.2 km/h
2842 12-02-2015 18:30:00 2.3 C 5.1 g/m*3 2.3 C 4.8 km/h
2843 12-02-2015 18:35:00 2.2 C 5.07 g/m*3 2.2 C 4.8 km/h
2844 12-02-2015 18:40:00 2.1 C 5.09 g/m*3 2.1 C 4.8 km/h
2845 12-02-2015 18:45:00 2 C 5.06 g/m*3 2 C 1.6 km/h
2846 12-02-2015 18:50:00 2 C 5.06 g/m*3 2 C 0 km/h
2847 12-02-2015 18:55:00 2 C 5.06 g/m*3 0.13 C 6.4 km/h
2848 12-02-2015 19:00:00 1.9 C 5.02 g/m*3 1.9 C 1.6 km/h
2849 12-02-2015 19:05:00 1.8 C 4.93 g/m*3 1.8 C 0 km/h
2850 12-02-2015 19:10:00 1.7 C 4.95 g/m*3 1.7 C 4.8 km/h
Sensor: Nr:Datum:Temp:Abs-Feuchte:Windchill:Wind:
Aussen-T/F 2851 12-02-2015 19:15:00 1.7 C 5.01 g/m*3 1.7 C 3.2 km/h
2852 12-02-2015 19:20:00 1.6 C 4.92 g/m*3 1.6 C 0 km/h
2853 12-02-2015 19:25:00 1.6 C 4.97 g/m*3 1.6 C 0 km/h
2854 12-02-2015 19:30:00 1.4 C 4.85 g/m*3 1.4 C 0 km/h
2855 12-02-2015 19:35:00 1.2 C 4.84 g/m*3 1.2 C 0 km/h
2856 12-02-2015 19:40:00 1 C 4.78 g/m*3 1 C 3.2 km/h
2857 12-02-2015 19:45:00 0.9 C 4.74 g/m*3 0.9 C 3.2 km/h
2858 12-02-2015 19:50:00 0.8 C 4.71 g/m*3 0.8 C 1.6 km/h
2859 12-02-2015 19:55:00 0.7 C 4.73 g/m*3 0.7 C 0 km/h
2860 12-02-2015 20:00:00 0.7 C 4.73 g/m*3 0.7 C 1.6 km/h
2861 12-02-2015 20:05:00 0.7 C 4.73 g/m*3 0.7 C 0 km/h
2862 12-02-2015 20:10:00 0.7 C 4.78 g/m*3 0.7 C 0 km/h
2863 12-02-2015 20:15:00 0.6 C 4.75 g/m*3 0.6 C 1.6 km/h
2864 12-02-2015 20:20:00 0.7 C 4.78 g/m*3 0.7 C 0 km/h
2865 12-02-2015 20:25:00 0.7 C 4.78 g/m*3 0.7 C 0 km/h
2866 12-02-2015 20:30:00 0.7 C 4.78 g/m*3 0.7 C 0 km/h
2867 12-02-2015 20:35:00 0.7 C 4.78 g/m*3 0.7 C 3.2 km/h
2868 12-02-2015 20:40:00 0.8 C 4.81 g/m*3 0.8 C 3.2 km/h
2869 12-02-2015 20:45:00 0.8 C 4.81 g/m*3 0.8 C 0 km/h
2870 12-02-2015 20:50:00 0.8 C 4.86 g/m*3 0.8 C 0 km/h
2871 12-02-2015 20:55:00 0.9 C 4.9 g/m*3 0.9 C 0 km/h
2872 12-02-2015 21:00:00 0.9 C 4.9 g/m*3 0.9 C 0 km/h
2873 12-02-2015 21:05:00 1 C 4.93 g/m*3 1 C 0 km/h
2874 12-02-2015 21:10:00 1 C 4.88 g/m*3 1 C 0 km/h
2875 12-02-2015 21:15:00 1.1 C 4.91 g/m*3 1.1 C 0 km/h
Sensor: Nr:Datum:Temp:Abs-Feuchte:Windchill:Wind:
Aussen-T/F 2876 12-02-2015 21:20:00 1.1 C 4.91 g/m*3 1.1 C 0 km/h
2877 12-02-2015 21:25:00 1.1 C 4.91 g/m*3 1.1 C 0 km/h
2878 12-02-2015 21:30:00 1.1 C 4.91 g/m*3 1.1 C 0 km/h
2879 12-02-2015 21:35:00 1.2 C 4.95 g/m*3 1.2 C 0 km/h
2880 12-02-2015 21:40:00 1.2 C 4.95 g/m*3 1.2 C 0 km/h
2881 12-02-2015 21:45:00 1.2 C 4.95 g/m*3 1.2 C 0 km/h
2882 12-02-2015 21:50:00 1.2 C 4.95 g/m*3 1.2 C 0 km/h
2883 12-02-2015 21:55:00 1.1 C 4.91 g/m*3 1.1 C 1.6 km/h
2884 12-02-2015 22:00:00 1.1 C 4.91 g/m*3 1.1 C 0 km/h
2885 12-02-2015 22:05:00 1.1 C 4.91 g/m*3 1.1 C 0 km/h
2886 12-02-2015 22:10:00 1.2 C 4.95 g/m*3 1.2 C 0 km/h
2887 12-02-2015 22:15:00 1.2 C 4.95 g/m*3 1.2 C 1.6 km/h
2888 12-02-2015 22:20:00 1.1 C 4.91 g/m*3 1.1 C 0 km/h
2889 12-02-2015 22:25:00 1.2 C 4.95 g/m*3 1.2 C 0 km/h
2890 12-02-2015 22:30:00 1.2 C 4.95 g/m*3 1.2 C 1.6 km/h
2891 12-02-2015 22:35:00 1.2 C 4.95 g/m*3 1.2 C 0 km/h
2892 12-02-2015 22:40:00 1.2 C 5 g/m*3 1.2 C 0 km/h
2893 12-02-2015 22:45:00 1.3 C 5.03 g/m*3 1.3 C 0 km/h
2894 12-02-2015 22:50:00 1.3 C 5.03 g/m*3 1.3 C 1.6 km/h
2895 12-02-2015 22:55:00 1.3 C 5.03 g/m*3 1.3 C 1.6 km/h
2896 12-02-2015 23:00:00 1.4 C 5.07 g/m*3 1.4 C 0 km/h
2897 12-02-2015 23:05:00 1.4 C 5.07 g/m*3 1.4 C 0 km/h
2898 12-02-2015 23:10:00 1.4 C 5.07 g/m*3 1.4 C 0 km/h
2899 12-02-2015 23:15:00 1.4 C 5.01 g/m*3 1.4 C 0 km/h
2900 12-02-2015 23:20:00 1.5 C 5.05 g/m*3 1.5 C 0 km/h
Sensor: Nr:Datum:Temp:Abs-Feuchte:Windchill:Wind:
Aussen-T/F 2901 12-02-2015 23:25:00 1.6 C 5.08 g/m*3 1.6 C 0 km/h
2902 12-02-2015 23:30:00 1.6 C 5.08 g/m*3 1.6 C 0 km/h
2903 12-02-2015 23:35:00 1.6 C 5.08 g/m*3 1.6 C 0 km/h
2904 12-02-2015 23:40:00 1.6 C 5.08 g/m*3 1.6 C 0 km/h
2905 12-02-2015 23:45:00 1.7 C 5.12 g/m*3 1.7 C 0 km/h
2906 12-02-2015 23:50:00 1.7 C 5.12 g/m*3 1.7 C 1.6 km/h
2907 12-02-2015 23:55:00 1.7 C 5.12 g/m*3 1.7 C 1.6 km/h
2908 13-02-2015 00:00:00 1.7 C 5.06 g/m*3 1.7 C 0 km/h
2909 13-02-2015 00:05:00 1.7 C 5.06 g/m*3 1.7 C 0 km/h
2910 13-02-2015 00:10:00 1.8 C 5.1 g/m*3 1.8 C 1.6 km/h
2911 13-02-2015 00:15:00 1.8 C 5.1 g/m*3 1.8 C 0 km/h
2912 13-02-2015 00:20:00 1.8 C 5.1 g/m*3 1.8 C 0 km/h
2913 13-02-2015 00:25:00 1.8 C 5.1 g/m*3 1.8 C 0 km/h
2914 13-02-2015 00:30:00 1.7 C 5.06 g/m*3 1.7 C 0 km/h
2915 13-02-2015 00:35:00 1.7 C 5.06 g/m*3 1.7 C 0 km/h
2916 13-02-2015 00:40:00 1.7 C 5.06 g/m*3 1.7 C 0 km/h
2917 13-02-2015 00:45:00 1.7 C 5.06 g/m*3 1.7 C 0 km/h
2918 13-02-2015 00:50:00 1.7 C 5.06 g/m*3 1.7 C 0 km/h
2919 13-02-2015 00:55:00 1.7 C 5.06 g/m*3 1.7 C 0 km/h
2920 13-02-2015 01:00:00 1.7 C 5.06 g/m*3 1.7 C 0 km/h
2921 13-02-2015 01:05:00 1.7 C 5.06 g/m*3 1.7 C 0 km/h
2922 13-02-2015 01:10:00 1.7 C 5.06 g/m*3 1.7 C 0 km/h
2923 13-02-2015 01:15:00 1.7 C 5.06 g/m*3 1.7 C 0 km/h
2924 13-02-2015 01:20:00 1.7 C 5.06 g/m*3 1.7 C 0 km/h
2925 13-02-2015 01:25:00 1.7 C 5.06 g/m*3 1.7 C 0 km/h
Sensor: Nr:Datum:Temp:Abs-Feuchte:Windchill:Wind:
Aussen-T/F 2926 13-02-2015 01:30:00 1.7 C 5.06 g/m*3 1.7 C 0 km/h
2927 13-02-2015 01:35:00 1.7 C 5.06 g/m*3 1.7 C 0 km/h
2928 13-02-2015 01:40:00 1.7 C 5.06 g/m*3 1.7 C 0 km/h
2929 13-02-2015 01:45:00 1.6 C 5.03 g/m*3 1.6 C 0 km/h
2930 13-02-2015 01:50:00 1.6 C 5.03 g/m*3 1.6 C 0 km/h
2931 13-02-2015 01:55:00 1.6 C 5.03 g/m*3 1.6 C 0 km/h
2932 13-02-2015 02:00:00 1.6 C 5.03 g/m*3 1.6 C 0 km/h
2933 13-02-2015 02:05:00 1.6 C 5.03 g/m*3 1.6 C 0 km/h
2934 13-02-2015 02:10:00 1.6 C 5.03 g/m*3 1.6 C 0 km/h
2935 13-02-2015 02:15:00 1.6 C 5.03 g/m*3 1.6 C 3.2 km/h
2936 13-02-2015 02:20:00 1.7 C 5.06 g/m*3 1.7 C 0 km/h
2937 13-02-2015 02:25:00 1.7 C 5.06 g/m*3 1.7 C 0 km/h
2938 13-02-2015 02:30:00 1.7 C 5.06 g/m*3 1.7 C 0 km/h
2939 13-02-2015 02:35:00 1.7 C 5.06 g/m*3 1.7 C 1.6 km/h
2940 13-02-2015 02:40:00 1.7 C 5.06 g/m*3 1.7 C 0 km/h
2941 13-02-2015 02:45:00 1.7 C 5.06 g/m*3 1.7 C 0 km/h
2942 13-02-2015 02:50:00 1.7 C 5.06 g/m*3 1.7 C 0 km/h
2943 13-02-2015 02:55:00 1.8 C 5.1 g/m*3 1.8 C 0 km/h
2944 13-02-2015 03:00:00 1.8 C 5.1 g/m*3 1.8 C 0 km/h
2945 13-02-2015 03:05:00 1.8 C 5.1 g/m*3 1.8 C 0 km/h
2946 13-02-2015 03:10:00 1.8 C 5.1 g/m*3 1.8 C 1.6 km/h
2947 13-02-2015 03:15:00 1.8 C 5.1 g/m*3 1.8 C 3.2 km/h
2948 13-02-2015 03:20:00 1.8 C 5.1 g/m*3 1.8 C 3.2 km/h
2949 13-02-2015 03:25:00 1.8 C 5.04 g/m*3 1.8 C 4.8 km/h
2950 13-02-2015 03:30:00 1.8 C 5.04 g/m*3 1.8 C 1.6 km/h
Sensor: Nr:Datum:Temp:Abs-Feuchte:Windchill:Wind:
Aussen-T/F 2951 13-02-2015 03:35:00 1.8 C 5.04 g/m*3 1.8 C 1.6 km/h
2952 13-02-2015 03:40:00 1.8 C 5.04 g/m*3 1.8 C 0 km/h
2953 13-02-2015 03:45:00 1.8 C 5.04 g/m*3 1.8 C 0 km/h
2954 13-02-2015 03:50:00 1.8 C 5.04 g/m*3 1.8 C 3.2 km/h
2955 13-02-2015 03:55:00 1.8 C 5.04 g/m*3 1.8 C 0 km/h
2956 13-02-2015 04:00:00 1.8 C 5.04 g/m*3 1.8 C 1.6 km/h
2957 13-02-2015 04:05:00 1.8 C 5.04 g/m*3 -1.09 C 9.7 km/h
2958 13-02-2015 04:10:00 1.8 C 5.04 g/m*3 1.8 C 0 km/h
2959 13-02-2015 04:15:00 1.8 C 5.04 g/m*3 1.8 C 1.6 km/h
2960 13-02-2015 04:20:00 1.8 C 5.04 g/m*3 1.8 C 0 km/h
2961 13-02-2015 04:25:00 1.8 C 5.04 g/m*3 1.8 C 0 km/h
2962 13-02-2015 04:30:00 1.8 C 5.04 g/m*3 1.8 C 1.6 km/h
2963 13-02-2015 04:35:00 1.8 C 5.04 g/m*3 1.8 C 1.6 km/h
2964 13-02-2015 04:40:00 1.8 C 5.04 g/m*3 1.8 C 1.6 km/h
2965 13-02-2015 04:45:00 1.8 C 5.04 g/m*3 1.8 C 1.6 km/h
2966 13-02-2015 04:50:00 1.7 C 5.01 g/m*3 1.7 C 1.6 km/h
2967 13-02-2015 04:55:00 1.7 C 5.01 g/m*3 1.7 C 3.2 km/h
2968 13-02-2015 05:00:00 1.7 C 5.01 g/m*3 1.7 C 1.6 km/h
2969 13-02-2015 05:05:00 1.7 C 5.01 g/m*3 1.7 C 3.2 km/h
2970 13-02-2015 05:10:00 1.7 C 4.95 g/m*3 1.7 C 3.2 km/h
2971 13-02-2015 05:15:00 1.7 C 5.01 g/m*3 1.7 C 0 km/h
2972 13-02-2015 05:20:00 1.7 C 5.01 g/m*3 1.7 C 0 km/h
2973 13-02-2015 05:25:00 1.7 C 4.95 g/m*3 1.7 C 0 km/h
2974 13-02-2015 05:30:00 1.7 C 4.95 g/m*3 1.7 C 0 km/h
2975 13-02-2015 05:35:00 1.7 C 4.95 g/m*3 1.7 C 1.6 km/h
Sensor: Nr:Datum:Temp:Abs-Feuchte:Windchill:Wind:
Aussen-T/F 2976 13-02-2015 05:40:00 1.7 C 4.95 g/m*3 1.7 C 3.2 km/h
2977 13-02-2015 05:45:00 1.6 C 4.92 g/m*3 1.6 C 3.2 km/h
2978 13-02-2015 05:50:00 1.6 C 4.92 g/m*3 1.6 C 0 km/h
2979 13-02-2015 05:55:00 1.6 C 4.92 g/m*3 1.6 C 1.6 km/h
2980 13-02-2015 06:00:00 1.6 C 4.92 g/m*3 1.6 C 3.2 km/h
2981 13-02-2015 06:05:00 1.6 C 4.92 g/m*3 1.6 C 3.2 km/h
2982 13-02-2015 06:10:00 1.6 C 4.92 g/m*3 1.6 C 3.2 km/h
2983 13-02-2015 06:15:00 1.6 C 4.92 g/m*3 1.6 C 3.2 km/h
2984 13-02-2015 06:20:00 1.6 C 4.92 g/m*3 1.6 C 3.2 km/h
2985 13-02-2015 06:25:00 1.6 C 4.92 g/m*3 1.6 C 3.2 km/h
2986 13-02-2015 06:30:00 1.6 C 4.92 g/m*3 1.6 C 3.2 km/h
2987 13-02-2015 06:35:00 1.6 C 4.92 g/m*3 1.6 C 3.2 km/h
2988 13-02-2015 06:40:00 1.6 C 4.97 g/m*3 1.6 C 4.8 km/h
2989 13-02-2015 06:45:00 1.6 C 4.97 g/m*3 -0.33 C 6.4 km/h
2990 13-02-2015 06:50:00 1.6 C 4.97 g/m*3 1.6 C 3.2 km/h
2991 13-02-2015 06:55:00 1.6 C 4.97 g/m*3 1.6 C 4.8 km/h
2992 13-02-2015 07:00:00 1.6 C 4.97 g/m*3 1.6 C 1.6 km/h
2993 13-02-2015 07:05:00 1.6 C 4.97 g/m*3 1.6 C 0 km/h
2994 13-02-2015 07:10:00 1.6 C 4.97 g/m*3 1.6 C 3.2 km/h
2995 13-02-2015 07:15:00 1.6 C 4.97 g/m*3 1.6 C 0 km/h
2996 13-02-2015 07:20:00 1.5 C 4.94 g/m*3 1.5 C 4.8 km/h
2997 13-02-2015 07:25:00 1.5 C 4.94 g/m*3 1.5 C 1.6 km/h
2998 13-02-2015 07:30:00 1.5 C 4.94 g/m*3 1.5 C 0 km/h
2999 13-02-2015 07:35:00 1.5 C 4.94 g/m*3 1.5 C 1.6 km/h
3000 13-02-2015 07:40:00 1.5 C 4.94 g/m*3 -1.01 C 8.1 km/h
Sensor: Nr:Datum:Temp:Abs-Feuchte:Windchill:Wind:
Aussen-T/F 3001 13-02-2015 07:45:00 1.5 C 4.94 g/m*3 1.5 C 4.8 km/h
3002 13-02-2015 07:50:00 1.5 C 4.94 g/m*3 1.5 C 0 km/h
3003 13-02-2015 07:55:00 1.5 C 4.94 g/m*3 1.5 C 0 km/h
3004 13-02-2015 08:00:00 1.5 C 4.94 g/m*3 1.5 C 0 km/h
3005 13-02-2015 08:05:00 1.5 C 4.94 g/m*3 1.5 C 0 km/h
3006 13-02-2015 08:10:00 1.5 C 4.94 g/m*3 1.5 C 4.8 km/h
3007 13-02-2015 08:15:00 1.5 C 4.94 g/m*3 1.5 C 3.2 km/h
3008 13-02-2015 08:20:00 1.5 C 4.94 g/m*3 1.5 C 1.6 km/h
3009 13-02-2015 08:25:00 1.5 C 4.89 g/m*3 1.5 C 4.8 km/h
3010 13-02-2015 08:30:00 1.6 C 4.92 g/m*3 1.6 C 3.2 km/h
3011 13-02-2015 08:35:00 1.6 C 4.92 g/m*3 1.6 C 1.6 km/h
3012 13-02-2015 08:40:00 1.6 C 4.97 g/m*3 1.6 C 3.2 km/h
3013 13-02-2015 08:45:00 1.6 C 4.92 g/m*3 -0.89 C 8.1 km/h
3014 13-02-2015 08:50:00 1.6 C 4.92 g/m*3 1.6 C 1.6 km/h
3015 13-02-2015 08:55:00 1.6 C 4.92 g/m*3 1.6 C 1.6 km/h
3016 13-02-2015 09:00:00 1.6 C 4.92 g/m*3 1.6 C 1.6 km/h
3017 13-02-2015 09:05:00 1.7 C 4.95 g/m*3 1.7 C 4.8 km/h
3018 13-02-2015 09:10:00 1.7 C 4.95 g/m*3 1.7 C 1.6 km/h
3019 13-02-2015 09:15:00 1.8 C 4.99 g/m*3 1.8 C 0 km/h
3020 13-02-2015 09:20:00 1.8 C 4.99 g/m*3 1.8 C 4.8 km/h
3021 13-02-2015 09:25:00 1.8 C 4.99 g/m*3 1.8 C 4.8 km/h
3022 13-02-2015 09:30:00 1.8 C 4.99 g/m*3 1.8 C 1.6 km/h
3023 13-02-2015 09:35:00 1.8 C 4.99 g/m*3 1.8 C 3.2 km/h
3024 13-02-2015 09:40:00 1.9 C 5.02 g/m*3 1.9 C 4.8 km/h
3025 13-02-2015 09:45:00 1.9 C 5.02 g/m*3 1.9 C 3.2 km/h
Sensor: Nr:Datum:Temp:Abs-Feuchte:Windchill:Wind:
Aussen-T/F 3026 13-02-2015 09:50:00 1.9 C 5.02 g/m*3 1.9 C 3.2 km/h
3027 13-02-2015 09:55:00 2 C 5 g/m*3 0.13 C 6.4 km/h
3028 13-02-2015 10:00:00 2.1 C 5.09 g/m*3 2.1 C 4.8 km/h
3029 13-02-2015 10:05:00 2.1 C 5.04 g/m*3 2.1 C 4.8 km/h
3030 13-02-2015 10:10:00 2.1 C 5.04 g/m*3 2.1 C 4.8 km/h
3031 13-02-2015 10:15:00 2.1 C 5.04 g/m*3 2.1 C 3.2 km/h
3032 13-02-2015 10:20:00 2.2 C 5.01 g/m*3 2.2 C 4.8 km/h
3033 13-02-2015 10:25:00 2.2 C 5.01 g/m*3 2.2 C 3.2 km/h
3034 13-02-2015 10:30:00 2.2 C 5.01 g/m*3 2.2 C 4.8 km/h
3035 13-02-2015 10:35:00 2.3 C 5.05 g/m*3 2.3 C 4.8 km/h
3036 13-02-2015 10:40:00 2.3 C 5.05 g/m*3 0.47 C 6.4 km/h
3037 13-02-2015 10:45:00 2.4 C 5.02 g/m*3 2.4 C 4.8 km/h
3038 13-02-2015 10:50:00 2.4 C 5.08 g/m*3 2.4 C 4.8 km/h
3039 13-02-2015 10:55:00 2.3 C 4.99 g/m*3 -0.07 C 8.1 km/h
3040 13-02-2015 11:00:00 2.3 C 4.99 g/m*3 -0.07 C 8.1 km/h
3041 13-02-2015 11:05:00 2.2 C 4.96 g/m*3 2.2 C 4.8 km/h
3042 13-02-2015 11:10:00 2.2 C 4.96 g/m*3 -0.18 C 8.1 km/h
3043 13-02-2015 11:15:00 2.3 C 4.99 g/m*3 2.3 C 4.8 km/h
3044 13-02-2015 11:20:00 2.3 C 4.93 g/m*3 2.3 C 4.8 km/h
3045 13-02-2015 11:25:00 2.4 C 4.97 g/m*3 2.4 C 3.2 km/h
3046 13-02-2015 11:30:00 2.4 C 5.02 g/m*3 0.59 C 6.4 km/h
3047 13-02-2015 11:35:00 2.6 C 5.03 g/m*3 0.82 C 6.4 km/h
3048 13-02-2015 11:40:00 2.7 C 5.07 g/m*3 0.94 C 6.4 km/h
3049 13-02-2015 11:45:00 2.7 C 5.01 g/m*3 0.4 C 8.1 km/h
3050 13-02-2015 11:50:00 2.7 C 5.01 g/m*3 2.7 C 4.8 km/h
Sensor: Nr:Datum:Temp:Abs-Feuchte:Windchill:Wind:
Aussen-T/F 3051 13-02-2015 11:55:00 2.7 C 5.01 g/m*3 2.7 C 4.8 km/h
3052 13-02-2015 12:00:00 2.8 C 5.04 g/m*3 2.8 C 4.8 km/h
3053 13-02-2015 12:05:00 2.8 C 5.04 g/m*3 1.05 C 6.4 km/h
3054 13-02-2015 12:10:00 2.8 C 5.04 g/m*3 2.8 C 3.2 km/h
3055 13-02-2015 12:15:00 2.9 C 5.08 g/m*3 1.17 C 6.4 km/h
3056 13-02-2015 12:20:00 3.1 C 5.15 g/m*3 3.1 C 4.8 km/h
3057 13-02-2015 12:25:00 3.2 C 5.12 g/m*3 1.51 C 6.4 km/h
3058 13-02-2015 12:30:00 3.3 C 5.16 g/m*3 3.3 C 4.8 km/h
3059 13-02-2015 12:35:00 3.3 C 5.16 g/m*3 3.3 C 1.6 km/h
3060 13-02-2015 12:40:00 3.6 C 5.32 g/m*3 1.98 C 6.4 km/h
3061 13-02-2015 12:45:00 3.8 C 5.33 g/m*3 3.8 C 4.8 km/h
3062 13-02-2015 12:50:00 4 C 5.34 g/m*3 4 C 4.8 km/h
3063 13-02-2015 12:55:00 4.2 C 5.41 g/m*3 4.2 C 0 km/h
3064 13-02-2015 13:00:00 4.3 C 5.38 g/m*3 4.3 C 4.8 km/h
3065 13-02-2015 13:05:00 4.3 C 5.38 g/m*3 4.3 C 4.8 km/h
3066 13-02-2015 13:10:00 4.5 C 5.46 g/m*3 4.5 C 3.2 km/h
3067 13-02-2015 13:15:00 4.7 C 5.46 g/m*3 4.7 C 4.8 km/h
3068 13-02-2015 13:20:00 4.9 C 5.54 g/m*3 2.99 C 8.1 km/h
3069 13-02-2015 13:25:00 5.1 C 5.61 g/m*3 3.71 C 6.4 km/h
3070 13-02-2015 13:30:00 5.2 C 5.58 g/m*3 5.2 C 4.8 km/h
3071 13-02-2015 13:35:00 5.3 C 5.48 g/m*3 3.94 C 6.4 km/h
3072 13-02-2015 13:40:00 5.1 C 5.47 g/m*3 3.23 C 8.1 km/h
3073 13-02-2015 13:45:00 5 C 5.5 g/m*3 2.39 C 11.3 km/h
3074 13-02-2015 13:50:00 5.1 C 5.54 g/m*3 5.1 C 4.8 km/h
3075 13-02-2015 13:55:00 5.3 C 5.68 g/m*3 5.3 C 4.8 km/h
Sensor: Nr:Datum:Temp:Abs-Feuchte:Windchill:Wind:
Aussen-T/F 3076 13-02-2015 14:00:00 5.3 C 5.54 g/m*3 3.46 C 8.1 km/h
3077 13-02-2015 14:05:00 5.4 C 5.65 g/m*3 4.06 C 6.4 km/h
3078 13-02-2015 14:10:00 5.5 C 5.62 g/m*3 4.17 C 6.4 km/h
3079 13-02-2015 14:15:00 5.7 C 5.62 g/m*3 5.7 C 3.2 km/h
3080 13-02-2015 14:20:00 5.8 C 5.8 g/m*3 5.8 C 4.8 km/h
3081 13-02-2015 14:25:00 5.9 C 5.77 g/m*3 4.17 C 8.1 km/h
3082 13-02-2015 14:30:00 5.9 C 5.62 g/m*3 3.48 C 11.3 km/h
3083 13-02-2015 14:35:00 5.9 C 5.62 g/m*3 5.9 C 4.8 km/h
3084 13-02-2015 14:40:00 6 C 5.73 g/m*3 6 C 4.8 km/h
3085 13-02-2015 14:45:00 6.1 C 5.7 g/m*3 6.1 C 4.8 km/h
3086 13-02-2015 14:50:00 6.1 C 5.77 g/m*3 4.86 C 6.4 km/h
3087 13-02-2015 14:55:00 6.1 C 5.7 g/m*3 4.86 C 6.4 km/h
3088 13-02-2015 15:00:00 6.1 C 5.63 g/m*3 6.1 C 3.2 km/h
3089 13-02-2015 15:05:00 5.9 C 5.62 g/m*3 4.63 C 6.4 km/h
3090 13-02-2015 15:10:00 5.8 C 5.59 g/m*3 4.52 C 6.4 km/h
3091 13-02-2015 15:15:00 5.8 C 5.66 g/m*3 5.8 C 4.8 km/h
3092 13-02-2015 15:20:00 5.9 C 5.7 g/m*3 5.9 C 3.2 km/h
3093 13-02-2015 15:25:00 5.8 C 5.66 g/m*3 4.05 C 8.1 km/h
3094 13-02-2015 15:30:00 5.8 C 5.59 g/m*3 4.05 C 8.1 km/h
3095 13-02-2015 15:35:00 5.6 C 5.59 g/m*3 3.81 C 8.1 km/h
3096 13-02-2015 15:40:00 5.6 C 5.59 g/m*3 5.6 C 4.8 km/h
3097 13-02-2015 15:45:00 5.6 C 5.59 g/m*3 4.29 C 6.4 km/h
3098 13-02-2015 15:50:00 5.5 C 5.55 g/m*3 3.7 C 8.1 km/h
3099 13-02-2015 15:55:00 5.4 C 5.58 g/m*3 3.58 C 8.1 km/h
3100 13-02-2015 16:00:00 5.3 C 5.54 g/m*3 3.46 C 8.1 km/h
Sensor: Nr:Datum:Temp:Abs-Feuchte:Windchill:Wind:
Aussen-T/F 3101 13-02-2015 16:05:00 5.3 C 5.54 g/m*3 5.3 C 4.8 km/h
3102 13-02-2015 16:10:00 5.2 C 5.44 g/m*3 5.2 C 4.8 km/h
3103 13-02-2015 16:15:00 5.1 C 5.47 g/m*3 3.71 C 6.4 km/h
3104 13-02-2015 16:20:00 4.9 C 5.4 g/m*3 3.48 C 6.4 km/h
3105 13-02-2015 16:25:00 4.9 C 5.4 g/m*3 3.48 C 6.4 km/h
3106 13-02-2015 16:30:00 4.8 C 5.43 g/m*3 3.36 C 6.4 km/h
3107 13-02-2015 16:35:00 4.7 C 5.33 g/m*3 3.25 C 6.4 km/h
3108 13-02-2015 16:40:00 4.6 C 5.36 g/m*3 4.6 C 4.8 km/h
3109 13-02-2015 16:45:00 4.4 C 5.35 g/m*3 2.9 C 6.4 km/h
3110 13-02-2015 16:50:00 4.4 C 5.35 g/m*3 1.09 C 14.5 km/h
3111 13-02-2015 16:55:00 4.3 C 5.32 g/m*3 4.3 C 3.2 km/h
3112 13-02-2015 17:00:00 4.2 C 5.28 g/m*3 2.67 C 6.4 km/h
3113 13-02-2015 17:05:00 4.1 C 5.25 g/m*3 2.55 C 6.4 km/h
3114 13-02-2015 17:10:00 4 C 5.21 g/m*3 1.93 C 8.1 km/h
3115 13-02-2015 17:15:00 3.8 C 5.21 g/m*3 2.21 C 6.4 km/h
3116 13-02-2015 17:20:00 3.7 C 5.17 g/m*3 1.18 C 9.7 km/h
3117 13-02-2015 17:25:00 3.6 C 5.2 g/m*3 3.6 C 4.8 km/h
3118 13-02-2015 17:30:00 3.6 C 5.2 g/m*3 1.46 C 8.1 km/h
3119 13-02-2015 17:35:00 3.4 C 5.13 g/m*3 3.4 C 3.2 km/h
3120 13-02-2015 17:40:00 3.3 C 5.1 g/m*3 1.63 C 6.4 km/h
3121 13-02-2015 17:45:00 3.1 C 5.09 g/m*3 0.1 C 11.3 km/h
3122 13-02-2015 17:50:00 2.9 C 5.08 g/m*3 0.22 C 9.7 km/h
3123 13-02-2015 17:55:00 2.8 C 5.04 g/m*3 2.8 C 3.2 km/h
3124 13-02-2015 18:00:00 2.8 C 5.04 g/m*3 2.8 C 0 km/h
3125 13-02-2015 18:05:00 2.7 C 5.01 g/m*3 2.7 C 0 km/h
Sensor: Nr:Datum:Temp:Abs-Feuchte:Windchill:Wind:
Aussen-T/F 3126 13-02-2015 18:10:00 2.4 C 4.97 g/m*3 2.4 C 0 km/h
3127 13-02-2015 18:15:00 2.1 C 4.87 g/m*3 2.1 C 1.6 km/h
3128 13-02-2015 18:20:00 1.8 C 4.82 g/m*3 1.8 C 3.2 km/h
3129 13-02-2015 18:25:00 1.7 C 4.85 g/m*3 1.7 C 3.2 km/h
3130 13-02-2015 18:30:00 1.5 C 4.83 g/m*3 1.5 C 1.6 km/h
3131 13-02-2015 18:35:00 1.4 C 4.8 g/m*3 1.4 C 0 km/h
3132 13-02-2015 18:40:00 1.3 C 4.82 g/m*3 1.3 C 1.6 km/h
3133 13-02-2015 18:45:00 1.3 C 4.82 g/m*3 1.3 C 3.2 km/h
3134 13-02-2015 18:50:00 1.2 C 4.79 g/m*3 1.2 C 1.6 km/h
3135 13-02-2015 18:55:00 1.2 C 4.79 g/m*3 1.2 C 3.2 km/h
3136 13-02-2015 19:00:00 1.1 C 4.81 g/m*3 1.1 C 0 km/h
3137 13-02-2015 19:05:00 1 C 4.78 g/m*3 1 C 3.2 km/h
3138 13-02-2015 19:10:00 1 C 4.78 g/m*3 1 C 1.6 km/h
3139 13-02-2015 19:15:00 0.9 C 4.74 g/m*3 0.9 C 0 km/h
3140 13-02-2015 19:20:00 0.9 C 4.74 g/m*3 0.9 C 0 km/h
3141 13-02-2015 19:25:00 0.8 C 4.71 g/m*3 0.8 C 3.2 km/h
3142 13-02-2015 19:30:00 0.8 C 4.71 g/m*3 0.8 C 1.6 km/h
3143 13-02-2015 19:35:00 0.7 C 4.68 g/m*3 0.7 C 0 km/h
3144 13-02-2015 19:40:00 0.7 C 4.73 g/m*3 0.7 C 0 km/h
3145 13-02-2015 19:45:00 0.6 C 4.7 g/m*3 0.6 C 1.6 km/h
3146 13-02-2015 19:50:00 0.6 C 4.7 g/m*3 0.6 C 4.8 km/h
3147 13-02-2015 19:55:00 0.6 C 4.7 g/m*3 0.6 C 3.2 km/h
3148 13-02-2015 20:00:00 0.6 C 4.7 g/m*3 0.6 C 1.6 km/h
3149 13-02-2015 20:05:00 0.6 C 4.75 g/m*3 0.6 C 1.6 km/h
3150 13-02-2015 20:10:00 0.6 C 4.75 g/m*3 0.6 C 0 km/h
Sensor: Nr:Datum:Temp:Abs-Feuchte:Windchill:Wind:
Aussen-T/F 3151 13-02-2015 20:15:00 0.7 C 4.78 g/m*3 0.7 C 4.8 km/h
3152 13-02-2015 20:20:00 0.9 C 4.85 g/m*3 -2.16 C 9.7 km/h
3153 13-02-2015 20:25:00 1.2 C 4.95 g/m*3 1.2 C 4.8 km/h
3154 13-02-2015 20:30:00 1.2 C 4.84 g/m*3 1.2 C 0 km/h
3155 13-02-2015 20:35:00 1.2 C 4.84 g/m*3 1.2 C 3.2 km/h
3156 13-02-2015 20:40:00 1.2 C 4.84 g/m*3 1.2 C 0 km/h
3157 13-02-2015 20:45:00 1.1 C 4.81 g/m*3 1.1 C 1.6 km/h
3158 13-02-2015 20:50:00 1.1 C 4.81 g/m*3 1.1 C 3.2 km/h
3159 13-02-2015 20:55:00 1.1 C 4.81 g/m*3 1.1 C 1.6 km/h
3160 13-02-2015 21:00:00 1.1 C 4.81 g/m*3 1.1 C 4.8 km/h
3161 13-02-2015 21:05:00 1.1 C 4.81 g/m*3 1.1 C 3.2 km/h
3162 13-02-2015 21:10:00 0.9 C 4.74 g/m*3 0.9 C 1.6 km/h
3163 13-02-2015 21:15:00 0.8 C 4.71 g/m*3 0.8 C 4.8 km/h
3164 13-02-2015 21:20:00 0.8 C 4.76 g/m*3 0.8 C 4.8 km/h
3165 13-02-2015 21:25:00 0.7 C 4.73 g/m*3 0.7 C 3.2 km/h
3166 13-02-2015 21:30:00 0.7 C 4.73 g/m*3 0.7 C 3.2 km/h
3167 13-02-2015 21:35:00 0.7 C 4.73 g/m*3 0.7 C 1.6 km/h
3168 13-02-2015 21:40:00 0.6 C 4.7 g/m*3 0.6 C 4.8 km/h
3169 13-02-2015 21:45:00 0.5 C 4.66 g/m*3 0.5 C 3.2 km/h
3170 13-02-2015 21:50:00 0.5 C 4.71 g/m*3 0.5 C 3.2 km/h
3171 13-02-2015 21:55:00 0.4 C 4.63 g/m*3 0.4 C 3.2 km/h
3172 13-02-2015 22:00:00 0.4 C 4.68 g/m*3 0.4 C 4.8 km/h
3173 13-02-2015 22:05:00 0.4 C 4.68 g/m*3 0.4 C 4.8 km/h
3174 13-02-2015 22:10:00 0.4 C 4.68 g/m*3 0.4 C 4.8 km/h
3175 13-02-2015 22:15:00 0.4 C 4.68 g/m*3 0.4 C 1.6 km/h
Sensor: Nr:Datum:Temp:Abs-Feuchte:Windchill:Wind:
Aussen-T/F 3176 13-02-2015 22:20:00 0.4 C 4.68 g/m*3 0.4 C 1.6 km/h
3177 13-02-2015 22:25:00 0.4 C 4.68 g/m*3 0.4 C 3.2 km/h
3178 13-02-2015 22:30:00 0.4 C 4.68 g/m*3 0.4 C 1.6 km/h
3179 13-02-2015 22:35:00 0.4 C 4.68 g/m*3 0.4 C 3.2 km/h
3180 13-02-2015 22:40:00 0.4 C 4.68 g/m*3 0.4 C 0 km/h
3181 13-02-2015 22:45:00 0.4 C 4.68 g/m*3 0.4 C 1.6 km/h
3182 13-02-2015 22:50:00 0.3 C 4.65 g/m*3 0.3 C 3.2 km/h
3183 13-02-2015 22:55:00 0.4 C 4.68 g/m*3 0.4 C 1.6 km/h
3184 13-02-2015 23:00:00 0.3 C 4.65 g/m*3 0.3 C 0 km/h
3185 13-02-2015 23:05:00 0.2 C 4.62 g/m*3 0.2 C 3.2 km/h
3186 13-02-2015 23:10:00 0.2 C 4.62 g/m*3 0.2 C 4.8 km/h
3187 13-02-2015 23:15:00 0.3 C 4.7 g/m*3 0.3 C 1.6 km/h
3188 13-02-2015 23:20:00 0.3 C 4.7 g/m*3 0.3 C 1.6 km/h
3189 13-02-2015 23:25:00 0.3 C 4.7 g/m*3 0.3 C 0 km/h
3190 13-02-2015 23:30:00 0.3 C 4.7 g/m*3 0.3 C 3.2 km/h
3191 13-02-2015 23:35:00 0.2 C 4.62 g/m*3 0.2 C 3.2 km/h
3192 13-02-2015 23:40:00 0.2 C 4.62 g/m*3 0.2 C 4.8 km/h
3193 13-02-2015 23:45:00 0.3 C 4.7 g/m*3 0.3 C 1.6 km/h
3194 13-02-2015 23:50:00 0.3 C 4.7 g/m*3 0.3 C 1.6 km/h
3195 13-02-2015 23:55:00 0.2 C 4.67 g/m*3 0.2 C 3.2 km/h
3196 14-02-2015 00:00:00 0.3 C 4.7 g/m*3 0.3 C 3.2 km/h
3197 14-02-2015 00:05:00 0.2 C 4.67 g/m*3 0.2 C 3.2 km/h
3198 14-02-2015 00:10:00 0.2 C 4.67 g/m*3 0.2 C 3.2 km/h
3199 14-02-2015 00:15:00 0.2 C 4.67 g/m*3 0.2 C 3.2 km/h
3200 14-02-2015 00:20:00 0.2 C 4.67 g/m*3 0.2 C 3.2 km/h
Sensor: Nr:Datum:Temp:Abs-Feuchte:Windchill:Wind:
Aussen-T/F 3201 14-02-2015 00:25:00 0.2 C 4.67 g/m*3 0.2 C 4.8 km/h
3202 14-02-2015 00:30:00 0.2 C 4.67 g/m*3 0.2 C 4.8 km/h
3203 14-02-2015 00:35:00 0.2 C 4.67 g/m*3 0.2 C 4.8 km/h
3204 14-02-2015 00:40:00 0.1 C 4.63 g/m*3 0.1 C 3.2 km/h
3205 14-02-2015 00:45:00 0.1 C 4.63 g/m*3 0.1 C 3.2 km/h
3206 14-02-2015 00:50:00 0.1 C 4.63 g/m*3 0.1 C 4.8 km/h
3207 14-02-2015 00:55:00 0.2 C 4.67 g/m*3 0.2 C 3.2 km/h
3208 14-02-2015 01:00:00 0.3 C 4.7 g/m*3 0.3 C 1.6 km/h
3209 14-02-2015 01:05:00 0.4 C 4.73 g/m*3 0.4 C 1.6 km/h
3210 14-02-2015 01:10:00 0.5 C 4.76 g/m*3 0.5 C 1.6 km/h
3211 14-02-2015 01:15:00 0.5 C 4.76 g/m*3 0.5 C 1.6 km/h
3212 14-02-2015 01:20:00 0.5 C 4.76 g/m*3 0.5 C 1.6 km/h
3213 14-02-2015 01:25:00 0.5 C 4.76 g/m*3 0.5 C 4.8 km/h
3214 14-02-2015 01:30:00 0.5 C 4.76 g/m*3 0.5 C 1.6 km/h
3215 14-02-2015 01:35:00 0.4 C 4.73 g/m*3 0.4 C 0 km/h
3216 14-02-2015 01:40:00 0.4 C 4.73 g/m*3 0.4 C 3.2 km/h
3217 14-02-2015 01:45:00 0.3 C 4.7 g/m*3 0.3 C 1.6 km/h
3218 14-02-2015 01:50:00 0.3 C 4.7 g/m*3 0.3 C 4.8 km/h
3219 14-02-2015 01:55:00